<?xml version="1.0" encoding="UTF-8" standalone="no" ?>
<gpx xmlns="http://www.topografix.com/GPX/1/1" xmlns:xsi="http://www.w3.org/2001/XMLSchema-instance" xsi:schemaLocation="http://www.topografix.com/GPX/1/1 http://www.topografix.com/GPX/1/1/gpx.xsd" version="1.1" creator="VisuGPX - https://www.visugpx.com">
  <metadata>
    <name>Pupillin,L'Ermitage</name>
    <desc><![CDATA[
]]></desc>
  </metadata>
  <trk>
    <name><![CDATA[Pupillin,L'Ermitage_1]]></name>
    <trkseg>
      <trkpt lat="46.8711" lon="5.79378">
        <ele>592.3</ele>
        <time>2020-03-07T13:00:31Z</time>
      </trkpt>
      <trkpt lat="46.87114" lon="5.79373">
        <ele>564.9</ele>
        <time>2020-03-07T13:00:53Z</time>
      </trkpt>
      <trkpt lat="46.87115" lon="5.79365">
        <ele>563</ele>
        <time>2020-03-07T13:01:08Z</time>
      </trkpt>
      <trkpt lat="46.87118" lon="5.79354">
        <ele>560.6</ele>
        <time>2020-03-07T13:01:17Z</time>
      </trkpt>
      <trkpt lat="46.87121" lon="5.79347">
        <ele>559.9</ele>
        <time>2020-03-07T13:01:20Z</time>
      </trkpt>
      <trkpt lat="46.87125" lon="5.79343">
        <ele>559.3</ele>
        <time>2020-03-07T13:01:23Z</time>
      </trkpt>
      <trkpt lat="46.87131" lon="5.79338">
        <ele>557.9</ele>
        <time>2020-03-07T13:01:31Z</time>
      </trkpt>
      <trkpt lat="46.87135" lon="5.79335">
        <ele>557.6</ele>
        <time>2020-03-07T13:01:35Z</time>
      </trkpt>
      <trkpt lat="46.87138" lon="5.79329">
        <ele>557.6</ele>
        <time>2020-03-07T13:01:44Z</time>
      </trkpt>
      <trkpt lat="46.87138" lon="5.79322">
        <ele>557.5</ele>
        <time>2020-03-07T13:01:48Z</time>
      </trkpt>
      <trkpt lat="46.8714" lon="5.79316">
        <ele>557.3</ele>
        <time>2020-03-07T13:01:55Z</time>
      </trkpt>
      <trkpt lat="46.87143" lon="5.7931">
        <ele>557.1</ele>
        <time>2020-03-07T13:02:03Z</time>
      </trkpt>
      <trkpt lat="46.87147" lon="5.79305">
        <ele>556.9</ele>
        <time>2020-03-07T13:02:08Z</time>
      </trkpt>
      <trkpt lat="46.87149" lon="5.79299">
        <ele>556.6</ele>
        <time>2020-03-07T13:02:12Z</time>
      </trkpt>
      <trkpt lat="46.8715" lon="5.79292">
        <ele>556.3</ele>
        <time>2020-03-07T13:02:16Z</time>
      </trkpt>
      <trkpt lat="46.87151" lon="5.79284">
        <ele>555.8</ele>
        <time>2020-03-07T13:02:21Z</time>
      </trkpt>
      <trkpt lat="46.87153" lon="5.79278">
        <ele>555.4</ele>
        <time>2020-03-07T13:02:26Z</time>
      </trkpt>
      <trkpt lat="46.87154" lon="5.7927">
        <ele>555.2</ele>
        <time>2020-03-07T13:02:31Z</time>
      </trkpt>
      <trkpt lat="46.87156" lon="5.79263">
        <ele>554.9</ele>
        <time>2020-03-07T13:02:36Z</time>
      </trkpt>
      <trkpt lat="46.87155" lon="5.79256">
        <ele>554.8</ele>
        <time>2020-03-07T13:02:40Z</time>
      </trkpt>
      <trkpt lat="46.87155" lon="5.79249">
        <ele>554.8</ele>
        <time>2020-03-07T13:02:45Z</time>
      </trkpt>
      <trkpt lat="46.87155" lon="5.79241">
        <ele>554.6</ele>
        <time>2020-03-07T13:02:50Z</time>
      </trkpt>
      <trkpt lat="46.87157" lon="5.79234">
        <ele>554.4</ele>
        <time>2020-03-07T13:02:54Z</time>
      </trkpt>
      <trkpt lat="46.8716" lon="5.79228">
        <ele>554.3</ele>
        <time>2020-03-07T13:02:58Z</time>
      </trkpt>
      <trkpt lat="46.87162" lon="5.79221">
        <ele>554.2</ele>
        <time>2020-03-07T13:03:03Z</time>
      </trkpt>
      <trkpt lat="46.87164" lon="5.79215">
        <ele>554</ele>
        <time>2020-03-07T13:03:08Z</time>
      </trkpt>
      <trkpt lat="46.87166" lon="5.79209">
        <ele>553.7</ele>
        <time>2020-03-07T13:03:13Z</time>
      </trkpt>
      <trkpt lat="46.87166" lon="5.79202">
        <ele>553.6</ele>
        <time>2020-03-07T13:03:17Z</time>
      </trkpt>
      <trkpt lat="46.87167" lon="5.79194">
        <ele>553.6</ele>
        <time>2020-03-07T13:03:20Z</time>
      </trkpt>
      <trkpt lat="46.87167" lon="5.79187">
        <ele>553.7</ele>
        <time>2020-03-07T13:03:23Z</time>
      </trkpt>
      <trkpt lat="46.87167" lon="5.7918">
        <ele>554.4</ele>
        <time>2020-03-07T13:03:29Z</time>
      </trkpt>
      <trkpt lat="46.87166" lon="5.79172">
        <ele>555.3</ele>
        <time>2020-03-07T13:03:34Z</time>
      </trkpt>
      <trkpt lat="46.87165" lon="5.79166">
        <ele>556</ele>
        <time>2020-03-07T13:03:38Z</time>
      </trkpt>
      <trkpt lat="46.87166" lon="5.79159">
        <ele>556.6</ele>
        <time>2020-03-07T13:03:42Z</time>
      </trkpt>
      <trkpt lat="46.87167" lon="5.79152">
        <ele>557.6</ele>
        <time>2020-03-07T13:03:48Z</time>
      </trkpt>
      <trkpt lat="46.87168" lon="5.79146">
        <ele>558.3</ele>
        <time>2020-03-07T13:03:53Z</time>
      </trkpt>
      <trkpt lat="46.8717" lon="5.79138">
        <ele>559.8</ele>
        <time>2020-03-07T13:04:03Z</time>
      </trkpt>
      <trkpt lat="46.87174" lon="5.79133">
        <ele>560.1</ele>
        <time>2020-03-07T13:04:07Z</time>
      </trkpt>
      <trkpt lat="46.87176" lon="5.79126">
        <ele>560.4</ele>
        <time>2020-03-07T13:04:11Z</time>
      </trkpt>
      <trkpt lat="46.87176" lon="5.79118">
        <ele>560.8</ele>
        <time>2020-03-07T13:04:16Z</time>
      </trkpt>
      <trkpt lat="46.8718" lon="5.79112">
        <ele>561</ele>
        <time>2020-03-07T13:04:21Z</time>
      </trkpt>
      <trkpt lat="46.87183" lon="5.79106">
        <ele>561.2</ele>
        <time>2020-03-07T13:04:26Z</time>
      </trkpt>
      <trkpt lat="46.87185" lon="5.79099">
        <ele>561.5</ele>
        <time>2020-03-07T13:04:30Z</time>
      </trkpt>
      <trkpt lat="46.87187" lon="5.79092">
        <ele>561.9</ele>
        <time>2020-03-07T13:04:34Z</time>
      </trkpt>
      <trkpt lat="46.87189" lon="5.79085">
        <ele>562.6</ele>
        <time>2020-03-07T13:04:39Z</time>
      </trkpt>
      <trkpt lat="46.87191" lon="5.79079">
        <ele>563.3</ele>
        <time>2020-03-07T13:04:44Z</time>
      </trkpt>
      <trkpt lat="46.87194" lon="5.79073">
        <ele>564</ele>
        <time>2020-03-07T13:04:50Z</time>
      </trkpt>
      <trkpt lat="46.87197" lon="5.79068">
        <ele>564.4</ele>
        <time>2020-03-07T13:04:55Z</time>
      </trkpt>
      <trkpt lat="46.872" lon="5.79063">
        <ele>564.5</ele>
        <time>2020-03-07T13:04:59Z</time>
      </trkpt>
      <trkpt lat="46.87205" lon="5.79058">
        <ele>564.8</ele>
        <time>2020-03-07T13:05:04Z</time>
      </trkpt>
      <trkpt lat="46.8721" lon="5.79053">
        <ele>565</ele>
        <time>2020-03-07T13:05:08Z</time>
      </trkpt>
      <trkpt lat="46.87214" lon="5.79049">
        <ele>565.5</ele>
        <time>2020-03-07T13:05:13Z</time>
      </trkpt>
      <trkpt lat="46.87218" lon="5.79043">
        <ele>566</ele>
        <time>2020-03-07T13:05:18Z</time>
      </trkpt>
      <trkpt lat="46.8722" lon="5.79036">
        <ele>566.3</ele>
        <time>2020-03-07T13:05:23Z</time>
      </trkpt>
      <trkpt lat="46.87224" lon="5.79031">
        <ele>566.2</ele>
        <time>2020-03-07T13:05:30Z</time>
      </trkpt>
      <trkpt lat="46.87227" lon="5.79026">
        <ele>565.8</ele>
        <time>2020-03-07T13:05:36Z</time>
      </trkpt>
      <trkpt lat="46.87231" lon="5.79022">
        <ele>565.8</ele>
        <time>2020-03-07T13:05:40Z</time>
      </trkpt>
      <trkpt lat="46.87235" lon="5.79017">
        <ele>565.8</ele>
        <time>2020-03-07T13:05:44Z</time>
      </trkpt>
      <trkpt lat="46.87238" lon="5.79012">
        <ele>565.9</ele>
        <time>2020-03-07T13:05:47Z</time>
      </trkpt>
      <trkpt lat="46.87243" lon="5.79007">
        <ele>566.1</ele>
        <time>2020-03-07T13:05:51Z</time>
      </trkpt>
      <trkpt lat="46.87246" lon="5.79001">
        <ele>566.6</ele>
        <time>2020-03-07T13:05:56Z</time>
      </trkpt>
      <trkpt lat="46.87249" lon="5.78996">
        <ele>567.2</ele>
        <time>2020-03-07T13:06:01Z</time>
      </trkpt>
      <trkpt lat="46.8725" lon="5.78989">
        <ele>567.8</ele>
        <time>2020-03-07T13:06:07Z</time>
      </trkpt>
      <trkpt lat="46.87252" lon="5.78981">
        <ele>568.8</ele>
        <time>2020-03-07T13:06:13Z</time>
      </trkpt>
      <trkpt lat="46.87253" lon="5.78974">
        <ele>569.7</ele>
        <time>2020-03-07T13:06:19Z</time>
      </trkpt>
      <trkpt lat="46.87253" lon="5.78966">
        <ele>570.5</ele>
        <time>2020-03-07T13:06:26Z</time>
      </trkpt>
      <trkpt lat="46.87251" lon="5.7896">
        <ele>570.9</ele>
        <time>2020-03-07T13:06:30Z</time>
      </trkpt>
      <trkpt lat="46.87251" lon="5.78953">
        <ele>571.2</ele>
        <time>2020-03-07T13:06:35Z</time>
      </trkpt>
      <trkpt lat="46.87251" lon="5.78946">
        <ele>571.6</ele>
        <time>2020-03-07T13:06:41Z</time>
      </trkpt>
      <trkpt lat="46.87249" lon="5.78939">
        <ele>572</ele>
        <time>2020-03-07T13:06:46Z</time>
      </trkpt>
      <trkpt lat="46.87249" lon="5.78931">
        <ele>572.5</ele>
        <time>2020-03-07T13:06:52Z</time>
      </trkpt>
      <trkpt lat="46.87248" lon="5.78924">
        <ele>572.9</ele>
        <time>2020-03-07T13:06:57Z</time>
      </trkpt>
      <trkpt lat="46.87246" lon="5.78918">
        <ele>573.2</ele>
        <time>2020-03-07T13:07:01Z</time>
      </trkpt>
      <trkpt lat="46.87244" lon="5.78911">
        <ele>573.6</ele>
        <time>2020-03-07T13:07:07Z</time>
      </trkpt>
      <trkpt lat="46.87243" lon="5.78904">
        <ele>573.7</ele>
        <time>2020-03-07T13:07:12Z</time>
      </trkpt>
      <trkpt lat="46.87242" lon="5.78897">
        <ele>573.5</ele>
        <time>2020-03-07T13:07:18Z</time>
      </trkpt>
      <trkpt lat="46.87239" lon="5.7889">
        <ele>573.2</ele>
        <time>2020-03-07T13:07:24Z</time>
      </trkpt>
      <trkpt lat="46.87236" lon="5.78884">
        <ele>573</ele>
        <time>2020-03-07T13:07:29Z</time>
      </trkpt>
      <trkpt lat="46.87234" lon="5.78879">
        <ele>572.7</ele>
        <time>2020-03-07T13:07:36Z</time>
      </trkpt>
      <trkpt lat="46.8723" lon="5.78873">
        <ele>572.5</ele>
        <time>2020-03-07T13:07:41Z</time>
      </trkpt>
      <trkpt lat="46.87226" lon="5.78869">
        <ele>572.5</ele>
        <time>2020-03-07T13:07:45Z</time>
      </trkpt>
      <trkpt lat="46.87224" lon="5.78862">
        <ele>572.5</ele>
        <time>2020-03-07T13:07:50Z</time>
      </trkpt>
      <trkpt lat="46.87222" lon="5.78855">
        <ele>572.8</ele>
        <time>2020-03-07T13:07:55Z</time>
      </trkpt>
      <trkpt lat="46.8722" lon="5.78849">
        <ele>573.4</ele>
        <time>2020-03-07T13:08:00Z</time>
      </trkpt>
      <trkpt lat="46.87216" lon="5.78844">
        <ele>573.8</ele>
        <time>2020-03-07T13:08:04Z</time>
      </trkpt>
      <trkpt lat="46.87213" lon="5.78839">
        <ele>574.7</ele>
        <time>2020-03-07T13:08:09Z</time>
      </trkpt>
      <trkpt lat="46.87211" lon="5.7883">
        <ele>575.3</ele>
        <time>2020-03-07T13:08:13Z</time>
      </trkpt>
      <trkpt lat="46.87208" lon="5.78823">
        <ele>575.9</ele>
        <time>2020-03-07T13:08:17Z</time>
      </trkpt>
      <trkpt lat="46.87206" lon="5.78817">
        <ele>576.5</ele>
        <time>2020-03-07T13:08:21Z</time>
      </trkpt>
      <trkpt lat="46.87202" lon="5.78812">
        <ele>577.1</ele>
        <time>2020-03-07T13:08:27Z</time>
      </trkpt>
      <trkpt lat="46.87198" lon="5.78806">
        <ele>577.6</ele>
        <time>2020-03-07T13:08:32Z</time>
      </trkpt>
      <trkpt lat="46.87194" lon="5.78801">
        <ele>578</ele>
        <time>2020-03-07T13:08:36Z</time>
      </trkpt>
      <trkpt lat="46.87192" lon="5.78795">
        <ele>578.2</ele>
        <time>2020-03-07T13:08:40Z</time>
      </trkpt>
      <trkpt lat="46.8719" lon="5.7879">
        <ele>578.4</ele>
        <time>2020-03-07T13:08:44Z</time>
      </trkpt>
      <trkpt lat="46.87186" lon="5.78783">
        <ele>578.6</ele>
        <time>2020-03-07T13:08:48Z</time>
      </trkpt>
      <trkpt lat="46.87182" lon="5.78778">
        <ele>578.9</ele>
        <time>2020-03-07T13:08:52Z</time>
      </trkpt>
      <trkpt lat="46.87177" lon="5.78773">
        <ele>579.4</ele>
        <time>2020-03-07T13:08:56Z</time>
      </trkpt>
      <trkpt lat="46.87174" lon="5.78767">
        <ele>580</ele>
        <time>2020-03-07T13:09:01Z</time>
      </trkpt>
      <trkpt lat="46.87171" lon="5.78761">
        <ele>580.8</ele>
        <time>2020-03-07T13:09:06Z</time>
      </trkpt>
      <trkpt lat="46.87167" lon="5.78756">
        <ele>582</ele>
        <time>2020-03-07T13:09:13Z</time>
      </trkpt>
      <trkpt lat="46.87164" lon="5.7875">
        <ele>582.9</ele>
        <time>2020-03-07T13:09:18Z</time>
      </trkpt>
      <trkpt lat="46.87161" lon="5.78745">
        <ele>583.6</ele>
        <time>2020-03-07T13:09:22Z</time>
      </trkpt>
      <trkpt lat="46.87158" lon="5.78738">
        <ele>584.1</ele>
        <time>2020-03-07T13:09:26Z</time>
      </trkpt>
      <trkpt lat="46.87155" lon="5.78732">
        <ele>584.7</ele>
        <time>2020-03-07T13:09:31Z</time>
      </trkpt>
      <trkpt lat="46.87152" lon="5.78725">
        <ele>585.3</ele>
        <time>2020-03-07T13:09:37Z</time>
      </trkpt>
      <trkpt lat="46.87148" lon="5.78719">
        <ele>585.6</ele>
        <time>2020-03-07T13:09:41Z</time>
      </trkpt>
      <trkpt lat="46.87146" lon="5.78713">
        <ele>585.9</ele>
        <time>2020-03-07T13:09:47Z</time>
      </trkpt>
      <trkpt lat="46.87144" lon="5.78706">
        <ele>586.1</ele>
        <time>2020-03-07T13:09:53Z</time>
      </trkpt>
      <trkpt lat="46.87139" lon="5.78695">
        <ele>587.1</ele>
        <time>2020-03-07T13:10:01Z</time>
      </trkpt>
      <trkpt lat="46.87136" lon="5.78688">
        <ele>587.4</ele>
        <time>2020-03-07T13:10:05Z</time>
      </trkpt>
      <trkpt lat="46.87133" lon="5.78682">
        <ele>587.7</ele>
        <time>2020-03-07T13:10:09Z</time>
      </trkpt>
      <trkpt lat="46.8713" lon="5.78676">
        <ele>588.2</ele>
        <time>2020-03-07T13:10:15Z</time>
      </trkpt>
      <trkpt lat="46.87129" lon="5.78668">
        <ele>588.6</ele>
        <time>2020-03-07T13:10:21Z</time>
      </trkpt>
      <trkpt lat="46.87126" lon="5.78662">
        <ele>588.9</ele>
        <time>2020-03-07T13:10:26Z</time>
      </trkpt>
      <trkpt lat="46.87123" lon="5.78657">
        <ele>589.1</ele>
        <time>2020-03-07T13:10:29Z</time>
      </trkpt>
      <trkpt lat="46.8712" lon="5.78652">
        <ele>589.4</ele>
        <time>2020-03-07T13:10:32Z</time>
      </trkpt>
      <trkpt lat="46.87116" lon="5.78648">
        <ele>589.6</ele>
        <time>2020-03-07T13:10:35Z</time>
      </trkpt>
      <trkpt lat="46.87113" lon="5.78642">
        <ele>590.2</ele>
        <time>2020-03-07T13:10:40Z</time>
      </trkpt>
      <trkpt lat="46.87107" lon="5.78637">
        <ele>590.7</ele>
        <time>2020-03-07T13:10:44Z</time>
      </trkpt>
      <trkpt lat="46.87103" lon="5.78633">
        <ele>591.1</ele>
        <time>2020-03-07T13:10:47Z</time>
      </trkpt>
      <trkpt lat="46.87099" lon="5.78628">
        <ele>591.5</ele>
        <time>2020-03-07T13:10:51Z</time>
      </trkpt>
      <trkpt lat="46.87095" lon="5.78621">
        <ele>591.8</ele>
        <time>2020-03-07T13:10:56Z</time>
      </trkpt>
      <trkpt lat="46.87092" lon="5.78616">
        <ele>591.8</ele>
        <time>2020-03-07T13:11:00Z</time>
      </trkpt>
      <trkpt lat="46.87088" lon="5.78611">
        <ele>592</ele>
        <time>2020-03-07T13:11:04Z</time>
      </trkpt>
      <trkpt lat="46.87085" lon="5.78606">
        <ele>592.2</ele>
        <time>2020-03-07T13:11:09Z</time>
      </trkpt>
      <trkpt lat="46.8708" lon="5.78602">
        <ele>592.2</ele>
        <time>2020-03-07T13:11:12Z</time>
      </trkpt>
      <trkpt lat="46.87076" lon="5.78597">
        <ele>592.2</ele>
        <time>2020-03-07T13:11:17Z</time>
      </trkpt>
      <trkpt lat="46.87072" lon="5.78592">
        <ele>592.1</ele>
        <time>2020-03-07T13:11:23Z</time>
      </trkpt>
      <trkpt lat="46.87069" lon="5.78587">
        <ele>591.9</ele>
        <time>2020-03-07T13:11:28Z</time>
      </trkpt>
      <trkpt lat="46.87066" lon="5.78581">
        <ele>591.4</ele>
        <time>2020-03-07T13:11:33Z</time>
      </trkpt>
      <trkpt lat="46.87064" lon="5.78574">
        <ele>590.7</ele>
        <time>2020-03-07T13:11:37Z</time>
      </trkpt>
      <trkpt lat="46.87061" lon="5.78568">
        <ele>589.7</ele>
        <time>2020-03-07T13:11:42Z</time>
      </trkpt>
      <trkpt lat="46.8706" lon="5.78561">
        <ele>588.5</ele>
        <time>2020-03-07T13:11:47Z</time>
      </trkpt>
      <trkpt lat="46.8706" lon="5.78553">
        <ele>587.1</ele>
        <time>2020-03-07T13:11:52Z</time>
      </trkpt>
      <trkpt lat="46.8706" lon="5.78545">
        <ele>585.8</ele>
        <time>2020-03-07T13:11:56Z</time>
      </trkpt>
      <trkpt lat="46.87059" lon="5.78537">
        <ele>584.8</ele>
        <time>2020-03-07T13:12:00Z</time>
      </trkpt>
      <trkpt lat="46.87059" lon="5.7853">
        <ele>583.8</ele>
        <time>2020-03-07T13:12:05Z</time>
      </trkpt>
      <trkpt lat="46.87059" lon="5.78522">
        <ele>583.1</ele>
        <time>2020-03-07T13:12:09Z</time>
      </trkpt>
      <trkpt lat="46.87058" lon="5.78515">
        <ele>582.5</ele>
        <time>2020-03-07T13:12:13Z</time>
      </trkpt>
      <trkpt lat="46.87059" lon="5.78507">
        <ele>581.4</ele>
        <time>2020-03-07T13:12:20Z</time>
      </trkpt>
      <trkpt lat="46.87069" lon="5.78488">
        <ele>579.5</ele>
        <time>2020-03-07T13:12:37Z</time>
      </trkpt>
      <trkpt lat="46.87072" lon="5.78482">
        <ele>579.4</ele>
        <time>2020-03-07T13:12:42Z</time>
      </trkpt>
      <trkpt lat="46.87076" lon="5.78476">
        <ele>579.4</ele>
        <time>2020-03-07T13:12:47Z</time>
      </trkpt>
      <trkpt lat="46.87079" lon="5.78472">
        <ele>579.4</ele>
        <time>2020-03-07T13:12:51Z</time>
      </trkpt>
      <trkpt lat="46.87083" lon="5.78466">
        <ele>579.5</ele>
        <time>2020-03-07T13:12:55Z</time>
      </trkpt>
      <trkpt lat="46.87085" lon="5.78459">
        <ele>579.5</ele>
        <time>2020-03-07T13:12:58Z</time>
      </trkpt>
      <trkpt lat="46.87087" lon="5.78453">
        <ele>579.6</ele>
        <time>2020-03-07T13:13:03Z</time>
      </trkpt>
      <trkpt lat="46.87089" lon="5.78445">
        <ele>579.8</ele>
        <time>2020-03-07T13:13:07Z</time>
      </trkpt>
      <trkpt lat="46.8709" lon="5.78437">
        <ele>579.8</ele>
        <time>2020-03-07T13:13:10Z</time>
      </trkpt>
      <trkpt lat="46.8709" lon="5.7843">
        <ele>579.9</ele>
        <time>2020-03-07T13:13:13Z</time>
      </trkpt>
      <trkpt lat="46.8709" lon="5.78422">
        <ele>579.9</ele>
        <time>2020-03-07T13:13:17Z</time>
      </trkpt>
      <trkpt lat="46.87091" lon="5.78415">
        <ele>580</ele>
        <time>2020-03-07T13:13:21Z</time>
      </trkpt>
      <trkpt lat="46.87092" lon="5.78409">
        <ele>579.8</ele>
        <time>2020-03-07T13:13:26Z</time>
      </trkpt>
      <trkpt lat="46.87092" lon="5.78401">
        <ele>579.3</ele>
        <time>2020-03-07T13:13:30Z</time>
      </trkpt>
      <trkpt lat="46.87092" lon="5.78393">
        <ele>578.3</ele>
        <time>2020-03-07T13:13:35Z</time>
      </trkpt>
      <trkpt lat="46.87094" lon="5.78387">
        <ele>577.5</ele>
        <time>2020-03-07T13:13:39Z</time>
      </trkpt>
      <trkpt lat="46.87098" lon="5.78381">
        <ele>576.6</ele>
        <time>2020-03-07T13:13:44Z</time>
      </trkpt>
      <trkpt lat="46.87101" lon="5.78375">
        <ele>576</ele>
        <time>2020-03-07T13:13:49Z</time>
      </trkpt>
      <trkpt lat="46.87105" lon="5.7837">
        <ele>575.6</ele>
        <time>2020-03-07T13:13:55Z</time>
      </trkpt>
      <trkpt lat="46.87106" lon="5.78364">
        <ele>575.6</ele>
        <time>2020-03-07T13:13:59Z</time>
      </trkpt>
      <trkpt lat="46.87107" lon="5.78358">
        <ele>575.7</ele>
        <time>2020-03-07T13:14:03Z</time>
      </trkpt>
      <trkpt lat="46.87109" lon="5.7835">
        <ele>575.8</ele>
        <time>2020-03-07T13:14:08Z</time>
      </trkpt>
      <trkpt lat="46.87111" lon="5.78344">
        <ele>575.9</ele>
        <time>2020-03-07T13:14:13Z</time>
      </trkpt>
      <trkpt lat="46.87113" lon="5.78338">
        <ele>575.8</ele>
        <time>2020-03-07T13:14:17Z</time>
      </trkpt>
      <trkpt lat="46.87114" lon="5.78331">
        <ele>575.8</ele>
        <time>2020-03-07T13:14:21Z</time>
      </trkpt>
      <trkpt lat="46.87116" lon="5.78325">
        <ele>575.7</ele>
        <time>2020-03-07T13:14:25Z</time>
      </trkpt>
      <trkpt lat="46.87118" lon="5.78318">
        <ele>575.8</ele>
        <time>2020-03-07T13:14:30Z</time>
      </trkpt>
      <trkpt lat="46.8712" lon="5.78313">
        <ele>576.2</ele>
        <time>2020-03-07T13:14:35Z</time>
      </trkpt>
      <trkpt lat="46.87124" lon="5.78307">
        <ele>576.8</ele>
        <time>2020-03-07T13:14:40Z</time>
      </trkpt>
      <trkpt lat="46.87127" lon="5.78301">
        <ele>577.4</ele>
        <time>2020-03-07T13:14:45Z</time>
      </trkpt>
      <trkpt lat="46.87128" lon="5.78295">
        <ele>577.9</ele>
        <time>2020-03-07T13:14:49Z</time>
      </trkpt>
      <trkpt lat="46.87129" lon="5.78288">
        <ele>578.3</ele>
        <time>2020-03-07T13:14:53Z</time>
      </trkpt>
      <trkpt lat="46.87132" lon="5.78283">
        <ele>578.6</ele>
        <time>2020-03-07T13:14:57Z</time>
      </trkpt>
      <trkpt lat="46.87135" lon="5.78278">
        <ele>578.9</ele>
        <time>2020-03-07T13:15:03Z</time>
      </trkpt>
      <trkpt lat="46.87138" lon="5.78272">
        <ele>579.3</ele>
        <time>2020-03-07T13:15:08Z</time>
      </trkpt>
      <trkpt lat="46.87142" lon="5.78268">
        <ele>579.6</ele>
        <time>2020-03-07T13:15:13Z</time>
      </trkpt>
      <trkpt lat="46.87144" lon="5.78261">
        <ele>579.9</ele>
        <time>2020-03-07T13:15:17Z</time>
      </trkpt>
      <trkpt lat="46.87146" lon="5.78255">
        <ele>580.2</ele>
        <time>2020-03-07T13:15:22Z</time>
      </trkpt>
      <trkpt lat="46.87149" lon="5.78249">
        <ele>580.5</ele>
        <time>2020-03-07T13:15:27Z</time>
      </trkpt>
      <trkpt lat="46.87152" lon="5.78243">
        <ele>580.7</ele>
        <time>2020-03-07T13:15:31Z</time>
      </trkpt>
      <trkpt lat="46.87156" lon="5.78237">
        <ele>580.9</ele>
        <time>2020-03-07T13:15:35Z</time>
      </trkpt>
      <trkpt lat="46.87159" lon="5.78232">
        <ele>581.3</ele>
        <time>2020-03-07T13:15:39Z</time>
      </trkpt>
      <trkpt lat="46.87163" lon="5.78228">
        <ele>581.5</ele>
        <time>2020-03-07T13:15:44Z</time>
      </trkpt>
      <trkpt lat="46.87167" lon="5.78224">
        <ele>581.6</ele>
        <time>2020-03-07T13:15:49Z</time>
      </trkpt>
      <trkpt lat="46.87175" lon="5.78219">
        <ele>581.1</ele>
        <time>2020-03-07T13:15:59Z</time>
      </trkpt>
      <trkpt lat="46.87189" lon="5.78208">
        <ele>580.6</ele>
        <time>2020-03-07T13:16:12Z</time>
      </trkpt>
      <trkpt lat="46.87192" lon="5.78205">
        <ele>580.8</ele>
        <time>2020-03-07T13:16:16Z</time>
      </trkpt>
      <trkpt lat="46.87197" lon="5.78201">
        <ele>581</ele>
        <time>2020-03-07T13:16:20Z</time>
      </trkpt>
      <trkpt lat="46.87201" lon="5.78197">
        <ele>581.1</ele>
        <time>2020-03-07T13:16:23Z</time>
      </trkpt>
      <trkpt lat="46.87205" lon="5.78193">
        <ele>581.2</ele>
        <time>2020-03-07T13:16:27Z</time>
      </trkpt>
      <trkpt lat="46.87209" lon="5.78189">
        <ele>581.4</ele>
        <time>2020-03-07T13:16:31Z</time>
      </trkpt>
      <trkpt lat="46.87213" lon="5.78185">
        <ele>581.6</ele>
        <time>2020-03-07T13:16:36Z</time>
      </trkpt>
      <trkpt lat="46.87217" lon="5.7818">
        <ele>581.8</ele>
        <time>2020-03-07T13:16:41Z</time>
      </trkpt>
      <trkpt lat="46.87221" lon="5.78175">
        <ele>581.9</ele>
        <time>2020-03-07T13:16:46Z</time>
      </trkpt>
      <trkpt lat="46.87226" lon="5.7817">
        <ele>581.9</ele>
        <time>2020-03-07T13:16:50Z</time>
      </trkpt>
      <trkpt lat="46.87231" lon="5.78166">
        <ele>582.2</ele>
        <time>2020-03-07T13:16:54Z</time>
      </trkpt>
      <trkpt lat="46.87235" lon="5.78162">
        <ele>582.6</ele>
        <time>2020-03-07T13:16:58Z</time>
      </trkpt>
      <trkpt lat="46.87239" lon="5.78159">
        <ele>583.1</ele>
        <time>2020-03-07T13:17:02Z</time>
      </trkpt>
      <trkpt lat="46.87243" lon="5.78153">
        <ele>583.6</ele>
        <time>2020-03-07T13:17:06Z</time>
      </trkpt>
      <trkpt lat="46.87246" lon="5.78147">
        <ele>584.1</ele>
        <time>2020-03-07T13:17:11Z</time>
      </trkpt>
      <trkpt lat="46.8725" lon="5.78142">
        <ele>584.6</ele>
        <time>2020-03-07T13:17:16Z</time>
      </trkpt>
      <trkpt lat="46.87252" lon="5.78136">
        <ele>585.2</ele>
        <time>2020-03-07T13:17:21Z</time>
      </trkpt>
      <trkpt lat="46.87255" lon="5.7813">
        <ele>585.6</ele>
        <time>2020-03-07T13:17:26Z</time>
      </trkpt>
      <trkpt lat="46.87258" lon="5.78123">
        <ele>585.8</ele>
        <time>2020-03-07T13:17:30Z</time>
      </trkpt>
      <trkpt lat="46.8726" lon="5.78117">
        <ele>585.9</ele>
        <time>2020-03-07T13:17:34Z</time>
      </trkpt>
      <trkpt lat="46.87263" lon="5.78111">
        <ele>586</ele>
        <time>2020-03-07T13:17:39Z</time>
      </trkpt>
      <trkpt lat="46.87265" lon="5.78104">
        <ele>586.3</ele>
        <time>2020-03-07T13:17:47Z</time>
      </trkpt>
      <trkpt lat="46.87263" lon="5.78095">
        <ele>586.5</ele>
        <time>2020-03-07T13:17:53Z</time>
      </trkpt>
      <trkpt lat="46.87261" lon="5.78089">
        <ele>586.7</ele>
        <time>2020-03-07T13:17:56Z</time>
      </trkpt>
      <trkpt lat="46.8726" lon="5.78083">
        <ele>586.9</ele>
        <time>2020-03-07T13:18:01Z</time>
      </trkpt>
      <trkpt lat="46.87257" lon="5.78077">
        <ele>587.1</ele>
        <time>2020-03-07T13:18:05Z</time>
      </trkpt>
      <trkpt lat="46.87254" lon="5.7807">
        <ele>587.3</ele>
        <time>2020-03-07T13:18:09Z</time>
      </trkpt>
      <trkpt lat="46.87251" lon="5.78064">
        <ele>587.6</ele>
        <time>2020-03-07T13:18:14Z</time>
      </trkpt>
      <trkpt lat="46.87248" lon="5.78057">
        <ele>587.6</ele>
        <time>2020-03-07T13:18:18Z</time>
      </trkpt>
      <trkpt lat="46.87246" lon="5.78051">
        <ele>587.5</ele>
        <time>2020-03-07T13:18:22Z</time>
      </trkpt>
      <trkpt lat="46.87245" lon="5.78043">
        <ele>587.1</ele>
        <time>2020-03-07T13:18:27Z</time>
      </trkpt>
      <trkpt lat="46.87243" lon="5.78037">
        <ele>586.9</ele>
        <time>2020-03-07T13:18:31Z</time>
      </trkpt>
      <trkpt lat="46.87241" lon="5.78029">
        <ele>586.7</ele>
        <time>2020-03-07T13:18:36Z</time>
      </trkpt>
      <trkpt lat="46.87239" lon="5.78023">
        <ele>586.3</ele>
        <time>2020-03-07T13:18:42Z</time>
      </trkpt>
      <trkpt lat="46.87239" lon="5.78016">
        <ele>585.8</ele>
        <time>2020-03-07T13:18:47Z</time>
      </trkpt>
      <trkpt lat="46.87238" lon="5.7801">
        <ele>585.5</ele>
        <time>2020-03-07T13:18:51Z</time>
      </trkpt>
      <trkpt lat="46.87237" lon="5.78003">
        <ele>585.2</ele>
        <time>2020-03-07T13:18:55Z</time>
      </trkpt>
      <trkpt lat="46.87237" lon="5.77981">
        <ele>583.8</ele>
        <time>2020-03-07T13:19:10Z</time>
      </trkpt>
      <trkpt lat="46.87238" lon="5.77974">
        <ele>583.8</ele>
        <time>2020-03-07T13:19:15Z</time>
      </trkpt>
      <trkpt lat="46.87239" lon="5.77966">
        <ele>584</ele>
        <time>2020-03-07T13:19:19Z</time>
      </trkpt>
      <trkpt lat="46.87242" lon="5.7796">
        <ele>584.5</ele>
        <time>2020-03-07T13:19:23Z</time>
      </trkpt>
      <trkpt lat="46.87245" lon="5.77953">
        <ele>584.9</ele>
        <time>2020-03-07T13:19:26Z</time>
      </trkpt>
      <trkpt lat="46.87248" lon="5.77947">
        <ele>585.2</ele>
        <time>2020-03-07T13:19:28Z</time>
      </trkpt>
      <trkpt lat="46.8725" lon="5.77942">
        <ele>585.7</ele>
        <time>2020-03-07T13:19:30Z</time>
      </trkpt>
      <trkpt lat="46.87253" lon="5.77934">
        <ele>586.3</ele>
        <time>2020-03-07T13:19:33Z</time>
      </trkpt>
      <trkpt lat="46.87257" lon="5.77929">
        <ele>586.9</ele>
        <time>2020-03-07T13:19:37Z</time>
      </trkpt>
      <trkpt lat="46.87261" lon="5.77925">
        <ele>587.4</ele>
        <time>2020-03-07T13:19:41Z</time>
      </trkpt>
      <trkpt lat="46.87264" lon="5.7792">
        <ele>587.9</ele>
        <time>2020-03-07T13:19:44Z</time>
      </trkpt>
      <trkpt lat="46.87267" lon="5.77914">
        <ele>588.4</ele>
        <time>2020-03-07T13:19:48Z</time>
      </trkpt>
      <trkpt lat="46.8727" lon="5.77907">
        <ele>589.1</ele>
        <time>2020-03-07T13:19:52Z</time>
      </trkpt>
      <trkpt lat="46.87273" lon="5.77902">
        <ele>590.4</ele>
        <time>2020-03-07T13:19:58Z</time>
      </trkpt>
      <trkpt lat="46.87277" lon="5.77896">
        <ele>591.3</ele>
        <time>2020-03-07T13:20:02Z</time>
      </trkpt>
      <trkpt lat="46.87281" lon="5.77892">
        <ele>592.3</ele>
        <time>2020-03-07T13:20:06Z</time>
      </trkpt>
      <trkpt lat="46.87285" lon="5.77887">
        <ele>593.5</ele>
        <time>2020-03-07T13:20:13Z</time>
      </trkpt>
      <trkpt lat="46.87288" lon="5.77882">
        <ele>594.1</ele>
        <time>2020-03-07T13:20:18Z</time>
      </trkpt>
      <trkpt lat="46.87289" lon="5.77873">
        <ele>594.4</ele>
        <time>2020-03-07T13:20:20Z</time>
      </trkpt>
      <trkpt lat="46.87295" lon="5.7786">
        <ele>595.1</ele>
        <time>2020-03-07T13:20:30Z</time>
      </trkpt>
      <trkpt lat="46.87299" lon="5.77855">
        <ele>594.9</ele>
        <time>2020-03-07T13:20:33Z</time>
      </trkpt>
      <trkpt lat="46.87302" lon="5.77849">
        <ele>594.5</ele>
        <time>2020-03-07T13:20:37Z</time>
      </trkpt>
      <trkpt lat="46.87305" lon="5.77842">
        <ele>594.2</ele>
        <time>2020-03-07T13:20:41Z</time>
      </trkpt>
      <trkpt lat="46.87308" lon="5.77835">
        <ele>593.9</ele>
        <time>2020-03-07T13:20:46Z</time>
      </trkpt>
      <trkpt lat="46.8731" lon="5.77829">
        <ele>593.6</ele>
        <time>2020-03-07T13:20:54Z</time>
      </trkpt>
      <trkpt lat="46.87314" lon="5.77823">
        <ele>593.3</ele>
        <time>2020-03-07T13:21:00Z</time>
      </trkpt>
      <trkpt lat="46.87317" lon="5.77818">
        <ele>592.7</ele>
        <time>2020-03-07T13:21:05Z</time>
      </trkpt>
      <trkpt lat="46.87331" lon="5.77799">
        <ele>589.5</ele>
        <time>2020-03-07T13:21:24Z</time>
      </trkpt>
      <trkpt lat="46.87334" lon="5.77793">
        <ele>589.2</ele>
        <time>2020-03-07T13:21:29Z</time>
      </trkpt>
      <trkpt lat="46.87336" lon="5.77787">
        <ele>589.2</ele>
        <time>2020-03-07T13:21:32Z</time>
      </trkpt>
      <trkpt lat="46.87337" lon="5.7778">
        <ele>589.2</ele>
        <time>2020-03-07T13:21:36Z</time>
      </trkpt>
      <trkpt lat="46.87339" lon="5.77773">
        <ele>588.8</ele>
        <time>2020-03-07T13:21:42Z</time>
      </trkpt>
      <trkpt lat="46.87345" lon="5.77761">
        <ele>587.3</ele>
        <time>2020-03-07T13:21:52Z</time>
      </trkpt>
      <trkpt lat="46.87343" lon="5.77746">
        <ele>586</ele>
        <time>2020-03-07T13:22:02Z</time>
      </trkpt>
      <trkpt lat="46.87342" lon="5.77739">
        <ele>585.7</ele>
        <time>2020-03-07T13:22:06Z</time>
      </trkpt>
      <trkpt lat="46.87343" lon="5.77733">
        <ele>585.5</ele>
        <time>2020-03-07T13:22:08Z</time>
      </trkpt>
      <trkpt lat="46.87345" lon="5.77726">
        <ele>585.3</ele>
        <time>2020-03-07T13:22:11Z</time>
      </trkpt>
      <trkpt lat="46.87347" lon="5.7772">
        <ele>585</ele>
        <time>2020-03-07T13:22:15Z</time>
      </trkpt>
      <trkpt lat="46.87349" lon="5.77712">
        <ele>584.7</ele>
        <time>2020-03-07T13:22:19Z</time>
      </trkpt>
      <trkpt lat="46.87351" lon="5.77704">
        <ele>584.8</ele>
        <time>2020-03-07T13:22:24Z</time>
      </trkpt>
      <trkpt lat="46.87354" lon="5.77698">
        <ele>584.9</ele>
        <time>2020-03-07T13:22:27Z</time>
      </trkpt>
      <trkpt lat="46.87357" lon="5.77692">
        <ele>585.2</ele>
        <time>2020-03-07T13:22:33Z</time>
      </trkpt>
      <trkpt lat="46.87361" lon="5.77688">
        <ele>585.4</ele>
        <time>2020-03-07T13:22:38Z</time>
      </trkpt>
      <trkpt lat="46.87364" lon="5.77684">
        <ele>585.5</ele>
        <time>2020-03-07T13:22:42Z</time>
      </trkpt>
      <trkpt lat="46.87368" lon="5.77681">
        <ele>585.4</ele>
        <time>2020-03-07T13:22:47Z</time>
      </trkpt>
      <trkpt lat="46.87371" lon="5.77676">
        <ele>585.4</ele>
        <time>2020-03-07T13:22:51Z</time>
      </trkpt>
      <trkpt lat="46.87374" lon="5.7767">
        <ele>585.9</ele>
        <time>2020-03-07T13:23:08Z</time>
      </trkpt>
      <trkpt lat="46.87375" lon="5.77663">
        <ele>586</ele>
        <time>2020-03-07T13:23:12Z</time>
      </trkpt>
      <trkpt lat="46.87378" lon="5.77658">
        <ele>585.8</ele>
        <time>2020-03-07T13:23:17Z</time>
      </trkpt>
      <trkpt lat="46.87381" lon="5.77651">
        <ele>585.4</ele>
        <time>2020-03-07T13:23:23Z</time>
      </trkpt>
      <trkpt lat="46.87382" lon="5.77644">
        <ele>585.2</ele>
        <time>2020-03-07T13:23:25Z</time>
      </trkpt>
      <trkpt lat="46.8738" lon="5.77632">
        <ele>584.9</ele>
        <time>2020-03-07T13:23:27Z</time>
      </trkpt>
      <trkpt lat="46.8738" lon="5.77624">
        <ele>584.6</ele>
        <time>2020-03-07T13:23:29Z</time>
      </trkpt>
      <trkpt lat="46.87381" lon="5.77617">
        <ele>583.8</ele>
        <time>2020-03-07T13:23:34Z</time>
      </trkpt>
      <trkpt lat="46.87382" lon="5.77609">
        <ele>582.3</ele>
        <time>2020-03-07T13:23:42Z</time>
      </trkpt>
      <trkpt lat="46.87381" lon="5.77602">
        <ele>581.8</ele>
        <time>2020-03-07T13:23:46Z</time>
      </trkpt>
      <trkpt lat="46.87381" lon="5.77595">
        <ele>581.1</ele>
        <time>2020-03-07T13:23:53Z</time>
      </trkpt>
      <trkpt lat="46.87382" lon="5.77588">
        <ele>580.7</ele>
        <time>2020-03-07T13:23:57Z</time>
      </trkpt>
      <trkpt lat="46.87385" lon="5.77581">
        <ele>580.7</ele>
        <time>2020-03-07T13:24:04Z</time>
      </trkpt>
      <trkpt lat="46.87386" lon="5.77575">
        <ele>580.8</ele>
        <time>2020-03-07T13:24:08Z</time>
      </trkpt>
      <trkpt lat="46.87388" lon="5.77568">
        <ele>581</ele>
        <time>2020-03-07T13:24:12Z</time>
      </trkpt>
      <trkpt lat="46.87388" lon="5.7756">
        <ele>581.2</ele>
        <time>2020-03-07T13:24:15Z</time>
      </trkpt>
      <trkpt lat="46.87388" lon="5.77554">
        <ele>581.3</ele>
        <time>2020-03-07T13:24:17Z</time>
      </trkpt>
      <trkpt lat="46.87386" lon="5.77547">
        <ele>581.3</ele>
        <time>2020-03-07T13:24:21Z</time>
      </trkpt>
      <trkpt lat="46.87384" lon="5.7754">
        <ele>581.5</ele>
        <time>2020-03-07T13:24:27Z</time>
      </trkpt>
      <trkpt lat="46.87387" lon="5.77534">
        <ele>581.8</ele>
        <time>2020-03-07T13:24:31Z</time>
      </trkpt>
      <trkpt lat="46.8739" lon="5.77527">
        <ele>581.9</ele>
        <time>2020-03-07T13:24:33Z</time>
      </trkpt>
      <trkpt lat="46.87392" lon="5.77519">
        <ele>582.2</ele>
        <time>2020-03-07T13:24:39Z</time>
      </trkpt>
      <trkpt lat="46.87393" lon="5.77512">
        <ele>582.3</ele>
        <time>2020-03-07T13:24:42Z</time>
      </trkpt>
      <trkpt lat="46.87395" lon="5.77506">
        <ele>582.2</ele>
        <time>2020-03-07T13:24:49Z</time>
      </trkpt>
      <trkpt lat="46.87394" lon="5.77498">
        <ele>581.8</ele>
        <time>2020-03-07T13:24:54Z</time>
      </trkpt>
      <trkpt lat="46.87392" lon="5.7749">
        <ele>581.6</ele>
        <time>2020-03-07T13:24:56Z</time>
      </trkpt>
      <trkpt lat="46.87392" lon="5.77483">
        <ele>581.3</ele>
        <time>2020-03-07T13:24:59Z</time>
      </trkpt>
      <trkpt lat="46.87392" lon="5.77475">
        <ele>581.1</ele>
        <time>2020-03-07T13:25:01Z</time>
      </trkpt>
      <trkpt lat="46.87393" lon="5.77469">
        <ele>580.9</ele>
        <time>2020-03-07T13:25:03Z</time>
      </trkpt>
      <trkpt lat="46.87395" lon="5.77463">
        <ele>580.5</ele>
        <time>2020-03-07T13:25:10Z</time>
      </trkpt>
      <trkpt lat="46.87395" lon="5.77452">
        <ele>579.7</ele>
        <time>2020-03-07T13:25:23Z</time>
      </trkpt>
      <trkpt lat="46.87392" lon="5.77447">
        <ele>579.5</ele>
        <time>2020-03-07T13:25:25Z</time>
      </trkpt>
      <trkpt lat="46.8739" lon="5.7744">
        <ele>579</ele>
        <time>2020-03-07T13:25:30Z</time>
      </trkpt>
      <trkpt lat="46.87394" lon="5.7743">
        <ele>577</ele>
        <time>2020-03-07T13:25:44Z</time>
      </trkpt>
      <trkpt lat="46.87397" lon="5.77426">
        <ele>576.5</ele>
        <time>2020-03-07T13:25:48Z</time>
      </trkpt>
      <trkpt lat="46.87402" lon="5.77422">
        <ele>576</ele>
        <time>2020-03-07T13:25:51Z</time>
      </trkpt>
      <trkpt lat="46.87406" lon="5.77417">
        <ele>575.5</ele>
        <time>2020-03-07T13:25:55Z</time>
      </trkpt>
      <trkpt lat="46.8741" lon="5.77412">
        <ele>574.8</ele>
        <time>2020-03-07T13:26:04Z</time>
      </trkpt>
      <trkpt lat="46.87413" lon="5.77406">
        <ele>575</ele>
        <time>2020-03-07T13:26:11Z</time>
      </trkpt>
      <trkpt lat="46.87416" lon="5.774">
        <ele>577.2</ele>
        <time>2020-03-07T13:26:22Z</time>
      </trkpt>
      <trkpt lat="46.8742" lon="5.77395">
        <ele>577.8</ele>
        <time>2020-03-07T13:26:25Z</time>
      </trkpt>
      <trkpt lat="46.87424" lon="5.77391">
        <ele>578.7</ele>
        <time>2020-03-07T13:26:30Z</time>
      </trkpt>
      <trkpt lat="46.87428" lon="5.77386">
        <ele>579.3</ele>
        <time>2020-03-07T13:26:34Z</time>
      </trkpt>
      <trkpt lat="46.87432" lon="5.77383">
        <ele>579.8</ele>
        <time>2020-03-07T13:26:38Z</time>
      </trkpt>
      <trkpt lat="46.87437" lon="5.7738">
        <ele>580</ele>
        <time>2020-03-07T13:26:42Z</time>
      </trkpt>
      <trkpt lat="46.87442" lon="5.77378">
        <ele>580.2</ele>
        <time>2020-03-07T13:26:46Z</time>
      </trkpt>
      <trkpt lat="46.87446" lon="5.77374">
        <ele>580.5</ele>
        <time>2020-03-07T13:26:51Z</time>
      </trkpt>
      <trkpt lat="46.87452" lon="5.7737">
        <ele>580.6</ele>
        <time>2020-03-07T13:26:56Z</time>
      </trkpt>
      <trkpt lat="46.87456" lon="5.77368">
        <ele>581</ele>
        <time>2020-03-07T13:27:02Z</time>
      </trkpt>
      <trkpt lat="46.87462" lon="5.77365">
        <ele>581.1</ele>
        <time>2020-03-07T13:27:05Z</time>
      </trkpt>
      <trkpt lat="46.87466" lon="5.77363">
        <ele>581.1</ele>
        <time>2020-03-07T13:27:09Z</time>
      </trkpt>
      <trkpt lat="46.8747" lon="5.77359">
        <ele>580.9</ele>
        <time>2020-03-07T13:27:15Z</time>
      </trkpt>
      <trkpt lat="46.87475" lon="5.77357">
        <ele>580.5</ele>
        <time>2020-03-07T13:27:19Z</time>
      </trkpt>
      <trkpt lat="46.87479" lon="5.77351">
        <ele>580</ele>
        <time>2020-03-07T13:27:23Z</time>
      </trkpt>
      <trkpt lat="46.87482" lon="5.77345">
        <ele>579.1</ele>
        <time>2020-03-07T13:27:29Z</time>
      </trkpt>
      <trkpt lat="46.87486" lon="5.77341">
        <ele>577.6</ele>
        <time>2020-03-07T13:27:35Z</time>
      </trkpt>
      <trkpt lat="46.87493" lon="5.77338">
        <ele>572.5</ele>
        <time>2020-03-07T13:27:45Z</time>
      </trkpt>
      <trkpt lat="46.87498" lon="5.77336">
        <ele>571.4</ele>
        <time>2020-03-07T13:27:49Z</time>
      </trkpt>
      <trkpt lat="46.87502" lon="5.77332">
        <ele>570.3</ele>
        <time>2020-03-07T13:27:53Z</time>
      </trkpt>
      <trkpt lat="46.87506" lon="5.77327">
        <ele>568.9</ele>
        <time>2020-03-07T13:27:58Z</time>
      </trkpt>
      <trkpt lat="46.8751" lon="5.77323">
        <ele>567.8</ele>
        <time>2020-03-07T13:28:03Z</time>
      </trkpt>
      <trkpt lat="46.87513" lon="5.77317">
        <ele>567.5</ele>
        <time>2020-03-07T13:28:05Z</time>
      </trkpt>
      <trkpt lat="46.87516" lon="5.77312">
        <ele>567.1</ele>
        <time>2020-03-07T13:28:09Z</time>
      </trkpt>
      <trkpt lat="46.8752" lon="5.77308">
        <ele>566.4</ele>
        <time>2020-03-07T13:28:14Z</time>
      </trkpt>
      <trkpt lat="46.87524" lon="5.77303">
        <ele>566.1</ele>
        <time>2020-03-07T13:28:17Z</time>
      </trkpt>
      <trkpt lat="46.87527" lon="5.77298">
        <ele>565.9</ele>
        <time>2020-03-07T13:28:19Z</time>
      </trkpt>
      <trkpt lat="46.87531" lon="5.77293">
        <ele>565.7</ele>
        <time>2020-03-07T13:28:21Z</time>
      </trkpt>
      <trkpt lat="46.87534" lon="5.77286">
        <ele>565.5</ele>
        <time>2020-03-07T13:28:23Z</time>
      </trkpt>
      <trkpt lat="46.87536" lon="5.77267">
        <ele>562.9</ele>
        <time>2020-03-07T13:29:30Z</time>
      </trkpt>
      <trkpt lat="46.87538" lon="5.77259">
        <ele>562.2</ele>
        <time>2020-03-07T13:29:33Z</time>
      </trkpt>
      <trkpt lat="46.87539" lon="5.7725">
        <ele>561.7</ele>
        <time>2020-03-07T13:29:35Z</time>
      </trkpt>
      <trkpt lat="46.8754" lon="5.77243">
        <ele>561.2</ele>
        <time>2020-03-07T13:29:38Z</time>
      </trkpt>
      <trkpt lat="46.87542" lon="5.77236">
        <ele>560.6</ele>
        <time>2020-03-07T13:29:43Z</time>
      </trkpt>
      <trkpt lat="46.8754" lon="5.7723">
        <ele>560.4</ele>
        <time>2020-03-07T13:29:47Z</time>
      </trkpt>
      <trkpt lat="46.87547" lon="5.77199">
        <ele>561.6</ele>
        <time>2020-03-07T13:30:06Z</time>
      </trkpt>
      <trkpt lat="46.87549" lon="5.77193">
        <ele>561.9</ele>
        <time>2020-03-07T13:30:12Z</time>
      </trkpt>
      <trkpt lat="46.87552" lon="5.77187">
        <ele>562.2</ele>
        <time>2020-03-07T13:30:17Z</time>
      </trkpt>
      <trkpt lat="46.87555" lon="5.77182">
        <ele>562.2</ele>
        <time>2020-03-07T13:30:21Z</time>
      </trkpt>
      <trkpt lat="46.8756" lon="5.77171">
        <ele>562.9</ele>
        <time>2020-03-07T13:30:23Z</time>
      </trkpt>
      <trkpt lat="46.87562" lon="5.77166">
        <ele>564.3</ele>
        <time>2020-03-07T13:30:29Z</time>
      </trkpt>
      <trkpt lat="46.87565" lon="5.77161">
        <ele>566.2</ele>
        <time>2020-03-07T13:30:36Z</time>
      </trkpt>
      <trkpt lat="46.87571" lon="5.77156">
        <ele>566.8</ele>
        <time>2020-03-07T13:30:40Z</time>
      </trkpt>
      <trkpt lat="46.87575" lon="5.77152">
        <ele>567</ele>
        <time>2020-03-07T13:30:43Z</time>
      </trkpt>
      <trkpt lat="46.87579" lon="5.77149">
        <ele>567.2</ele>
        <time>2020-03-07T13:30:46Z</time>
      </trkpt>
      <trkpt lat="46.87583" lon="5.77144">
        <ele>567.6</ele>
        <time>2020-03-07T13:30:51Z</time>
      </trkpt>
      <trkpt lat="46.87587" lon="5.7714">
        <ele>567.7</ele>
        <time>2020-03-07T13:30:53Z</time>
      </trkpt>
      <trkpt lat="46.87591" lon="5.77134">
        <ele>567.8</ele>
        <time>2020-03-07T13:30:57Z</time>
      </trkpt>
      <trkpt lat="46.87597" lon="5.7713">
        <ele>568</ele>
        <time>2020-03-07T13:30:59Z</time>
      </trkpt>
      <trkpt lat="46.87601" lon="5.77126">
        <ele>568.2</ele>
        <time>2020-03-07T13:31:01Z</time>
      </trkpt>
      <trkpt lat="46.87605" lon="5.77123">
        <ele>568.7</ele>
        <time>2020-03-07T13:31:04Z</time>
      </trkpt>
      <trkpt lat="46.87606" lon="5.77116">
        <ele>569.3</ele>
        <time>2020-03-07T13:31:07Z</time>
      </trkpt>
      <trkpt lat="46.8761" lon="5.7711">
        <ele>570.1</ele>
        <time>2020-03-07T13:31:12Z</time>
      </trkpt>
      <trkpt lat="46.87613" lon="5.77105">
        <ele>570.6</ele>
        <time>2020-03-07T13:31:16Z</time>
      </trkpt>
      <trkpt lat="46.87616" lon="5.77098">
        <ele>571.2</ele>
        <time>2020-03-07T13:31:21Z</time>
      </trkpt>
      <trkpt lat="46.87618" lon="5.77091">
        <ele>572</ele>
        <time>2020-03-07T13:31:28Z</time>
      </trkpt>
      <trkpt lat="46.87619" lon="5.77084">
        <ele>572.1</ele>
        <time>2020-03-07T13:31:31Z</time>
      </trkpt>
      <trkpt lat="46.87619" lon="5.77077">
        <ele>572.2</ele>
        <time>2020-03-07T13:31:35Z</time>
      </trkpt>
      <trkpt lat="46.87622" lon="5.77071">
        <ele>572.1</ele>
        <time>2020-03-07T13:31:42Z</time>
      </trkpt>
      <trkpt lat="46.87623" lon="5.77064">
        <ele>571.5</ele>
        <time>2020-03-07T13:31:47Z</time>
      </trkpt>
      <trkpt lat="46.87626" lon="5.77058">
        <ele>570.6</ele>
        <time>2020-03-07T13:31:53Z</time>
      </trkpt>
      <trkpt lat="46.87628" lon="5.77052">
        <ele>569.9</ele>
        <time>2020-03-07T13:32:00Z</time>
      </trkpt>
      <trkpt lat="46.87631" lon="5.77045">
        <ele>569.5</ele>
        <time>2020-03-07T13:32:04Z</time>
      </trkpt>
      <trkpt lat="46.87634" lon="5.77039">
        <ele>569.2</ele>
        <time>2020-03-07T13:32:08Z</time>
      </trkpt>
      <trkpt lat="46.87637" lon="5.77033">
        <ele>568.9</ele>
        <time>2020-03-07T13:32:12Z</time>
      </trkpt>
      <trkpt lat="46.8764" lon="5.77027">
        <ele>568.5</ele>
        <time>2020-03-07T13:32:17Z</time>
      </trkpt>
      <trkpt lat="46.87643" lon="5.77021">
        <ele>568.1</ele>
        <time>2020-03-07T13:32:21Z</time>
      </trkpt>
      <trkpt lat="46.87644" lon="5.77014">
        <ele>567.8</ele>
        <time>2020-03-07T13:32:25Z</time>
      </trkpt>
      <trkpt lat="46.87647" lon="5.77007">
        <ele>567.6</ele>
        <time>2020-03-07T13:32:29Z</time>
      </trkpt>
      <trkpt lat="46.8765" lon="5.77002">
        <ele>567.5</ele>
        <time>2020-03-07T13:32:33Z</time>
      </trkpt>
      <trkpt lat="46.87653" lon="5.76995">
        <ele>567.3</ele>
        <time>2020-03-07T13:32:38Z</time>
      </trkpt>
      <trkpt lat="46.87656" lon="5.76989">
        <ele>566.9</ele>
        <time>2020-03-07T13:32:43Z</time>
      </trkpt>
      <trkpt lat="46.87659" lon="5.76984">
        <ele>566.5</ele>
        <time>2020-03-07T13:32:48Z</time>
      </trkpt>
      <trkpt lat="46.87663" lon="5.76978">
        <ele>566</ele>
        <time>2020-03-07T13:32:53Z</time>
      </trkpt>
      <trkpt lat="46.87666" lon="5.76973">
        <ele>565.3</ele>
        <time>2020-03-07T13:32:58Z</time>
      </trkpt>
      <trkpt lat="46.87667" lon="5.76966">
        <ele>564.8</ele>
        <time>2020-03-07T13:33:02Z</time>
      </trkpt>
      <trkpt lat="46.87669" lon="5.76959">
        <ele>564.6</ele>
        <time>2020-03-07T13:33:06Z</time>
      </trkpt>
      <trkpt lat="46.8767" lon="5.76952">
        <ele>564.4</ele>
        <time>2020-03-07T13:33:10Z</time>
      </trkpt>
      <trkpt lat="46.87672" lon="5.76945">
        <ele>564.2</ele>
        <time>2020-03-07T13:33:15Z</time>
      </trkpt>
      <trkpt lat="46.87676" lon="5.7694">
        <ele>563.9</ele>
        <time>2020-03-07T13:33:20Z</time>
      </trkpt>
      <trkpt lat="46.87678" lon="5.76933">
        <ele>563.5</ele>
        <time>2020-03-07T13:33:24Z</time>
      </trkpt>
      <trkpt lat="46.87679" lon="5.76927">
        <ele>563</ele>
        <time>2020-03-07T13:33:27Z</time>
      </trkpt>
      <trkpt lat="46.87682" lon="5.76921">
        <ele>562.3</ele>
        <time>2020-03-07T13:33:31Z</time>
      </trkpt>
      <trkpt lat="46.87684" lon="5.76913">
        <ele>561.8</ele>
        <time>2020-03-07T13:33:35Z</time>
      </trkpt>
      <trkpt lat="46.87685" lon="5.76907">
        <ele>561.5</ele>
        <time>2020-03-07T13:33:39Z</time>
      </trkpt>
      <trkpt lat="46.87688" lon="5.76901">
        <ele>561.3</ele>
        <time>2020-03-07T13:33:43Z</time>
      </trkpt>
      <trkpt lat="46.8769" lon="5.76895">
        <ele>561</ele>
        <time>2020-03-07T13:33:47Z</time>
      </trkpt>
      <trkpt lat="46.87692" lon="5.7689">
        <ele>560.9</ele>
        <time>2020-03-07T13:33:51Z</time>
      </trkpt>
      <trkpt lat="46.87695" lon="5.76883">
        <ele>561</ele>
        <time>2020-03-07T13:33:56Z</time>
      </trkpt>
      <trkpt lat="46.87697" lon="5.76877">
        <ele>560.9</ele>
        <time>2020-03-07T13:34:00Z</time>
      </trkpt>
      <trkpt lat="46.87699" lon="5.76871">
        <ele>560.8</ele>
        <time>2020-03-07T13:34:04Z</time>
      </trkpt>
      <trkpt lat="46.87701" lon="5.76864">
        <ele>561</ele>
        <time>2020-03-07T13:34:08Z</time>
      </trkpt>
      <trkpt lat="46.87703" lon="5.76857">
        <ele>561</ele>
        <time>2020-03-07T13:34:12Z</time>
      </trkpt>
      <trkpt lat="46.87706" lon="5.76851">
        <ele>561.1</ele>
        <time>2020-03-07T13:34:16Z</time>
      </trkpt>
      <trkpt lat="46.87708" lon="5.76845">
        <ele>561.2</ele>
        <time>2020-03-07T13:34:20Z</time>
      </trkpt>
      <trkpt lat="46.87711" lon="5.76839">
        <ele>561.2</ele>
        <time>2020-03-07T13:34:25Z</time>
      </trkpt>
      <trkpt lat="46.87714" lon="5.76834">
        <ele>561.3</ele>
        <time>2020-03-07T13:34:36Z</time>
      </trkpt>
      <trkpt lat="46.87717" lon="5.76828">
        <ele>561.4</ele>
        <time>2020-03-07T13:34:41Z</time>
      </trkpt>
      <trkpt lat="46.8772" lon="5.76821">
        <ele>561.4</ele>
        <time>2020-03-07T13:34:45Z</time>
      </trkpt>
      <trkpt lat="46.87722" lon="5.76814">
        <ele>561.6</ele>
        <time>2020-03-07T13:34:49Z</time>
      </trkpt>
      <trkpt lat="46.87725" lon="5.76808">
        <ele>561.7</ele>
        <time>2020-03-07T13:34:54Z</time>
      </trkpt>
      <trkpt lat="46.87729" lon="5.76802">
        <ele>561.6</ele>
        <time>2020-03-07T13:34:58Z</time>
      </trkpt>
      <trkpt lat="46.87733" lon="5.76798">
        <ele>561.4</ele>
        <time>2020-03-07T13:35:01Z</time>
      </trkpt>
      <trkpt lat="46.87737" lon="5.76793">
        <ele>561.3</ele>
        <time>2020-03-07T13:35:05Z</time>
      </trkpt>
      <trkpt lat="46.87741" lon="5.76789">
        <ele>561.7</ele>
        <time>2020-03-07T13:35:11Z</time>
      </trkpt>
      <trkpt lat="46.87745" lon="5.76783">
        <ele>562.2</ele>
        <time>2020-03-07T13:35:17Z</time>
      </trkpt>
      <trkpt lat="46.87749" lon="5.76778">
        <ele>562.6</ele>
        <time>2020-03-07T13:35:21Z</time>
      </trkpt>
      <trkpt lat="46.87752" lon="5.76773">
        <ele>563</ele>
        <time>2020-03-07T13:35:26Z</time>
      </trkpt>
      <trkpt lat="46.87755" lon="5.76768">
        <ele>563.1</ele>
        <time>2020-03-07T13:35:32Z</time>
      </trkpt>
      <trkpt lat="46.87759" lon="5.76762">
        <ele>563.1</ele>
        <time>2020-03-07T13:35:36Z</time>
      </trkpt>
      <trkpt lat="46.87761" lon="5.76756">
        <ele>563.2</ele>
        <time>2020-03-07T13:35:41Z</time>
      </trkpt>
      <trkpt lat="46.87764" lon="5.76751">
        <ele>563.2</ele>
        <time>2020-03-07T13:35:46Z</time>
      </trkpt>
      <trkpt lat="46.87769" lon="5.76747">
        <ele>563</ele>
        <time>2020-03-07T13:35:50Z</time>
      </trkpt>
      <trkpt lat="46.87773" lon="5.76742">
        <ele>562.8</ele>
        <time>2020-03-07T13:35:54Z</time>
      </trkpt>
      <trkpt lat="46.87775" lon="5.76736">
        <ele>562.6</ele>
        <time>2020-03-07T13:35:58Z</time>
      </trkpt>
      <trkpt lat="46.87778" lon="5.76715">
        <ele>564.1</ele>
        <time>2020-03-07T13:36:25Z</time>
      </trkpt>
      <trkpt lat="46.87781" lon="5.7671">
        <ele>564</ele>
        <time>2020-03-07T13:36:33Z</time>
      </trkpt>
      <trkpt lat="46.87786" lon="5.76709">
        <ele>563.4</ele>
        <time>2020-03-07T13:36:42Z</time>
      </trkpt>
      <trkpt lat="46.8779" lon="5.76704">
        <ele>562</ele>
        <time>2020-03-07T13:36:50Z</time>
      </trkpt>
      <trkpt lat="46.87793" lon="5.76699">
        <ele>561.2</ele>
        <time>2020-03-07T13:36:55Z</time>
      </trkpt>
      <trkpt lat="46.87797" lon="5.76694">
        <ele>560.9</ele>
        <time>2020-03-07T13:37:00Z</time>
      </trkpt>
      <trkpt lat="46.87801" lon="5.76688">
        <ele>560.4</ele>
        <time>2020-03-07T13:37:20Z</time>
      </trkpt>
      <trkpt lat="46.87805" lon="5.76684">
        <ele>560.3</ele>
        <time>2020-03-07T13:37:24Z</time>
      </trkpt>
      <trkpt lat="46.87807" lon="5.76677">
        <ele>560.1</ele>
        <time>2020-03-07T13:37:28Z</time>
      </trkpt>
      <trkpt lat="46.8781" lon="5.76672">
        <ele>559.9</ele>
        <time>2020-03-07T13:37:33Z</time>
      </trkpt>
      <trkpt lat="46.87814" lon="5.76666">
        <ele>559.6</ele>
        <time>2020-03-07T13:37:38Z</time>
      </trkpt>
      <trkpt lat="46.87816" lon="5.7666">
        <ele>559.5</ele>
        <time>2020-03-07T13:37:42Z</time>
      </trkpt>
      <trkpt lat="46.87819" lon="5.76654">
        <ele>559.5</ele>
        <time>2020-03-07T13:37:47Z</time>
      </trkpt>
      <trkpt lat="46.87821" lon="5.76648">
        <ele>559.7</ele>
        <time>2020-03-07T13:37:50Z</time>
      </trkpt>
      <trkpt lat="46.87825" lon="5.76642">
        <ele>560</ele>
        <time>2020-03-07T13:37:55Z</time>
      </trkpt>
      <trkpt lat="46.87829" lon="5.76638">
        <ele>560.4</ele>
        <time>2020-03-07T13:38:00Z</time>
      </trkpt>
      <trkpt lat="46.87832" lon="5.76631">
        <ele>560.7</ele>
        <time>2020-03-07T13:38:06Z</time>
      </trkpt>
      <trkpt lat="46.87834" lon="5.76625">
        <ele>560.9</ele>
        <time>2020-03-07T13:38:10Z</time>
      </trkpt>
      <trkpt lat="46.87837" lon="5.76619">
        <ele>561.2</ele>
        <time>2020-03-07T13:38:14Z</time>
      </trkpt>
      <trkpt lat="46.8784" lon="5.76614">
        <ele>561.7</ele>
        <time>2020-03-07T13:38:19Z</time>
      </trkpt>
      <trkpt lat="46.87843" lon="5.76609">
        <ele>562.5</ele>
        <time>2020-03-07T13:38:24Z</time>
      </trkpt>
      <trkpt lat="46.87846" lon="5.76603">
        <ele>563.5</ele>
        <time>2020-03-07T13:38:29Z</time>
      </trkpt>
      <trkpt lat="46.87848" lon="5.76596">
        <ele>564.7</ele>
        <time>2020-03-07T13:38:34Z</time>
      </trkpt>
      <trkpt lat="46.8785" lon="5.76588">
        <ele>565.5</ele>
        <time>2020-03-07T13:38:38Z</time>
      </trkpt>
      <trkpt lat="46.87853" lon="5.76583">
        <ele>566.1</ele>
        <time>2020-03-07T13:38:42Z</time>
      </trkpt>
      <trkpt lat="46.87856" lon="5.76577">
        <ele>566.3</ele>
        <time>2020-03-07T13:38:46Z</time>
      </trkpt>
      <trkpt lat="46.87858" lon="5.76571">
        <ele>566.5</ele>
        <time>2020-03-07T13:38:51Z</time>
      </trkpt>
      <trkpt lat="46.87861" lon="5.76565">
        <ele>566.6</ele>
        <time>2020-03-07T13:38:56Z</time>
      </trkpt>
      <trkpt lat="46.87865" lon="5.76562">
        <ele>566.6</ele>
        <time>2020-03-07T13:39:00Z</time>
      </trkpt>
      <trkpt lat="46.87869" lon="5.7656">
        <ele>566.6</ele>
        <time>2020-03-07T13:39:05Z</time>
      </trkpt>
      <trkpt lat="46.87873" lon="5.76555">
        <ele>566.6</ele>
        <time>2020-03-07T13:39:09Z</time>
      </trkpt>
      <trkpt lat="46.87876" lon="5.7655">
        <ele>566.7</ele>
        <time>2020-03-07T13:39:14Z</time>
      </trkpt>
      <trkpt lat="46.87878" lon="5.76542">
        <ele>566.9</ele>
        <time>2020-03-07T13:39:19Z</time>
      </trkpt>
      <trkpt lat="46.87877" lon="5.76533">
        <ele>567.1</ele>
        <time>2020-03-07T13:39:22Z</time>
      </trkpt>
      <trkpt lat="46.8787" lon="5.7652">
        <ele>567.2</ele>
        <time>2020-03-07T13:39:32Z</time>
      </trkpt>
      <trkpt lat="46.87866" lon="5.76516">
        <ele>567.2</ele>
        <time>2020-03-07T13:39:37Z</time>
      </trkpt>
      <trkpt lat="46.87866" lon="5.76509">
        <ele>567.1</ele>
        <time>2020-03-07T13:39:51Z</time>
      </trkpt>
      <trkpt lat="46.8787" lon="5.76503">
        <ele>567.2</ele>
        <time>2020-03-07T13:39:55Z</time>
      </trkpt>
      <trkpt lat="46.87875" lon="5.76499">
        <ele>567.6</ele>
        <time>2020-03-07T13:39:59Z</time>
      </trkpt>
      <trkpt lat="46.87888" lon="5.76491">
        <ele>569.8</ele>
        <time>2020-03-07T13:40:12Z</time>
      </trkpt>
      <trkpt lat="46.87892" lon="5.76488">
        <ele>569.9</ele>
        <time>2020-03-07T13:40:15Z</time>
      </trkpt>
      <trkpt lat="46.87897" lon="5.76486">
        <ele>570.1</ele>
        <time>2020-03-07T13:40:19Z</time>
      </trkpt>
      <trkpt lat="46.87901" lon="5.76482">
        <ele>570.2</ele>
        <time>2020-03-07T13:40:24Z</time>
      </trkpt>
      <trkpt lat="46.87905" lon="5.7648">
        <ele>570.1</ele>
        <time>2020-03-07T13:40:30Z</time>
      </trkpt>
      <trkpt lat="46.87909" lon="5.76476">
        <ele>570.6</ele>
        <time>2020-03-07T13:40:37Z</time>
      </trkpt>
      <trkpt lat="46.87914" lon="5.76475">
        <ele>571.1</ele>
        <time>2020-03-07T13:40:43Z</time>
      </trkpt>
      <trkpt lat="46.87919" lon="5.76476">
        <ele>571.4</ele>
        <time>2020-03-07T13:40:47Z</time>
      </trkpt>
      <trkpt lat="46.87924" lon="5.76476">
        <ele>572</ele>
        <time>2020-03-07T13:41:06Z</time>
      </trkpt>
      <trkpt lat="46.87928" lon="5.76474">
        <ele>572.1</ele>
        <time>2020-03-07T13:41:10Z</time>
      </trkpt>
      <trkpt lat="46.87932" lon="5.76472">
        <ele>572.2</ele>
        <time>2020-03-07T13:41:14Z</time>
      </trkpt>
      <trkpt lat="46.87937" lon="5.7647">
        <ele>572.6</ele>
        <time>2020-03-07T13:41:24Z</time>
      </trkpt>
      <trkpt lat="46.87942" lon="5.76471">
        <ele>572.8</ele>
        <time>2020-03-07T13:41:29Z</time>
      </trkpt>
      <trkpt lat="46.87947" lon="5.76472">
        <ele>573</ele>
        <time>2020-03-07T13:41:34Z</time>
      </trkpt>
      <trkpt lat="46.87951" lon="5.76473">
        <ele>573.3</ele>
        <time>2020-03-07T13:41:41Z</time>
      </trkpt>
      <trkpt lat="46.87956" lon="5.7647">
        <ele>573</ele>
        <time>2020-03-07T13:41:47Z</time>
      </trkpt>
      <trkpt lat="46.87961" lon="5.7647">
        <ele>572.7</ele>
        <time>2020-03-07T13:41:51Z</time>
      </trkpt>
      <trkpt lat="46.87966" lon="5.7647">
        <ele>572.2</ele>
        <time>2020-03-07T13:41:56Z</time>
      </trkpt>
      <trkpt lat="46.87971" lon="5.7647">
        <ele>571.7</ele>
        <time>2020-03-07T13:42:00Z</time>
      </trkpt>
      <trkpt lat="46.87976" lon="5.76472">
        <ele>571</ele>
        <time>2020-03-07T13:42:05Z</time>
      </trkpt>
      <trkpt lat="46.8798" lon="5.76474">
        <ele>570.3</ele>
        <time>2020-03-07T13:42:09Z</time>
      </trkpt>
      <trkpt lat="46.87986" lon="5.76475">
        <ele>569.6</ele>
        <time>2020-03-07T13:42:14Z</time>
      </trkpt>
      <trkpt lat="46.87992" lon="5.76476">
        <ele>569.3</ele>
        <time>2020-03-07T13:42:18Z</time>
      </trkpt>
      <trkpt lat="46.87996" lon="5.76478">
        <ele>569.1</ele>
        <time>2020-03-07T13:42:22Z</time>
      </trkpt>
      <trkpt lat="46.88001" lon="5.7648">
        <ele>569.1</ele>
        <time>2020-03-07T13:42:26Z</time>
      </trkpt>
      <trkpt lat="46.88005" lon="5.76481">
        <ele>569.1</ele>
        <time>2020-03-07T13:42:31Z</time>
      </trkpt>
      <trkpt lat="46.8801" lon="5.76481">
        <ele>568.9</ele>
        <time>2020-03-07T13:42:36Z</time>
      </trkpt>
      <trkpt lat="46.88015" lon="5.7648">
        <ele>568</ele>
        <time>2020-03-07T13:42:44Z</time>
      </trkpt>
      <trkpt lat="46.88019" lon="5.76481">
        <ele>567</ele>
        <time>2020-03-07T13:42:51Z</time>
      </trkpt>
      <trkpt lat="46.88024" lon="5.76482">
        <ele>566.4</ele>
        <time>2020-03-07T13:42:56Z</time>
      </trkpt>
      <trkpt lat="46.88029" lon="5.76484">
        <ele>565.3</ele>
        <time>2020-03-07T13:43:03Z</time>
      </trkpt>
      <trkpt lat="46.88033" lon="5.76486">
        <ele>564.3</ele>
        <time>2020-03-07T13:43:08Z</time>
      </trkpt>
      <trkpt lat="46.88038" lon="5.76488">
        <ele>563.3</ele>
        <time>2020-03-07T13:43:13Z</time>
      </trkpt>
      <trkpt lat="46.88043" lon="5.7649">
        <ele>562.5</ele>
        <time>2020-03-07T13:43:17Z</time>
      </trkpt>
      <trkpt lat="46.88047" lon="5.76494">
        <ele>561.4</ele>
        <time>2020-03-07T13:43:21Z</time>
      </trkpt>
      <trkpt lat="46.88052" lon="5.76497">
        <ele>560.5</ele>
        <time>2020-03-07T13:43:26Z</time>
      </trkpt>
      <trkpt lat="46.88057" lon="5.76499">
        <ele>559.8</ele>
        <time>2020-03-07T13:43:30Z</time>
      </trkpt>
      <trkpt lat="46.88061" lon="5.765">
        <ele>559.2</ele>
        <time>2020-03-07T13:43:34Z</time>
      </trkpt>
      <trkpt lat="46.88066" lon="5.76502">
        <ele>558.4</ele>
        <time>2020-03-07T13:43:39Z</time>
      </trkpt>
      <trkpt lat="46.88072" lon="5.76504">
        <ele>557.8</ele>
        <time>2020-03-07T13:43:43Z</time>
      </trkpt>
      <trkpt lat="46.88077" lon="5.76507">
        <ele>556.9</ele>
        <time>2020-03-07T13:43:47Z</time>
      </trkpt>
      <trkpt lat="46.88081" lon="5.76509">
        <ele>556</ele>
        <time>2020-03-07T13:43:54Z</time>
      </trkpt>
      <trkpt lat="46.88086" lon="5.76511">
        <ele>555.4</ele>
        <time>2020-03-07T13:43:59Z</time>
      </trkpt>
      <trkpt lat="46.88091" lon="5.76514">
        <ele>554.8</ele>
        <time>2020-03-07T13:44:04Z</time>
      </trkpt>
      <trkpt lat="46.88096" lon="5.76516">
        <ele>554.3</ele>
        <time>2020-03-07T13:44:10Z</time>
      </trkpt>
      <trkpt lat="46.881" lon="5.76517">
        <ele>553.8</ele>
        <time>2020-03-07T13:44:17Z</time>
      </trkpt>
      <trkpt lat="46.88106" lon="5.76518">
        <ele>553.2</ele>
        <time>2020-03-07T13:44:22Z</time>
      </trkpt>
      <trkpt lat="46.88112" lon="5.7652">
        <ele>552.9</ele>
        <time>2020-03-07T13:44:26Z</time>
      </trkpt>
      <trkpt lat="46.88117" lon="5.76521">
        <ele>552.7</ele>
        <time>2020-03-07T13:44:30Z</time>
      </trkpt>
      <trkpt lat="46.88122" lon="5.76522">
        <ele>552.9</ele>
        <time>2020-03-07T13:44:38Z</time>
      </trkpt>
      <trkpt lat="46.88128" lon="5.76524">
        <ele>553.1</ele>
        <time>2020-03-07T13:44:44Z</time>
      </trkpt>
      <trkpt lat="46.88131" lon="5.76529">
        <ele>553.5</ele>
        <time>2020-03-07T13:44:57Z</time>
      </trkpt>
      <trkpt lat="46.88133" lon="5.76522">
        <ele>552.8</ele>
        <time>2020-03-07T13:45:27Z</time>
      </trkpt>
      <trkpt lat="46.88138" lon="5.76526">
        <ele>552.9</ele>
        <time>2020-03-07T13:46:14Z</time>
      </trkpt>
      <trkpt lat="46.88143" lon="5.76527">
        <ele>552.6</ele>
        <time>2020-03-07T13:46:19Z</time>
      </trkpt>
      <trkpt lat="46.88148" lon="5.76529">
        <ele>552.4</ele>
        <time>2020-03-07T13:46:25Z</time>
      </trkpt>
      <trkpt lat="46.88153" lon="5.7653">
        <ele>552.4</ele>
        <time>2020-03-07T13:46:31Z</time>
      </trkpt>
      <trkpt lat="46.88158" lon="5.76532">
        <ele>552.3</ele>
        <time>2020-03-07T13:46:36Z</time>
      </trkpt>
      <trkpt lat="46.88162" lon="5.76535">
        <ele>552.1</ele>
        <time>2020-03-07T13:46:41Z</time>
      </trkpt>
      <trkpt lat="46.88167" lon="5.76539">
        <ele>552</ele>
        <time>2020-03-07T13:46:47Z</time>
      </trkpt>
      <trkpt lat="46.88171" lon="5.76543">
        <ele>552.1</ele>
        <time>2020-03-07T13:46:52Z</time>
      </trkpt>
      <trkpt lat="46.88175" lon="5.76547">
        <ele>552</ele>
        <time>2020-03-07T13:46:58Z</time>
      </trkpt>
      <trkpt lat="46.88179" lon="5.76552">
        <ele>552</ele>
        <time>2020-03-07T13:47:02Z</time>
      </trkpt>
      <trkpt lat="46.88183" lon="5.76555">
        <ele>551.9</ele>
        <time>2020-03-07T13:47:07Z</time>
      </trkpt>
      <trkpt lat="46.88187" lon="5.76558">
        <ele>551.6</ele>
        <time>2020-03-07T13:47:12Z</time>
      </trkpt>
      <trkpt lat="46.88191" lon="5.76561">
        <ele>551.5</ele>
        <time>2020-03-07T13:47:16Z</time>
      </trkpt>
      <trkpt lat="46.88195" lon="5.76566">
        <ele>551.4</ele>
        <time>2020-03-07T13:47:20Z</time>
      </trkpt>
      <trkpt lat="46.88199" lon="5.76572">
        <ele>551</ele>
        <time>2020-03-07T13:47:24Z</time>
      </trkpt>
      <trkpt lat="46.88203" lon="5.76575">
        <ele>550.6</ele>
        <time>2020-03-07T13:47:27Z</time>
      </trkpt>
      <trkpt lat="46.88208" lon="5.76577">
        <ele>549.9</ele>
        <time>2020-03-07T13:47:32Z</time>
      </trkpt>
      <trkpt lat="46.88214" lon="5.76577">
        <ele>548.8</ele>
        <time>2020-03-07T13:47:39Z</time>
      </trkpt>
      <trkpt lat="46.88218" lon="5.7658">
        <ele>548.3</ele>
        <time>2020-03-07T13:47:42Z</time>
      </trkpt>
      <trkpt lat="46.88223" lon="5.76581">
        <ele>547.5</ele>
        <time>2020-03-07T13:47:46Z</time>
      </trkpt>
      <trkpt lat="46.88227" lon="5.76583">
        <ele>546.3</ele>
        <time>2020-03-07T13:47:52Z</time>
      </trkpt>
      <trkpt lat="46.88232" lon="5.76585">
        <ele>544.7</ele>
        <time>2020-03-07T13:48:00Z</time>
      </trkpt>
      <trkpt lat="46.88231" lon="5.76592">
        <ele>542</ele>
        <time>2020-03-07T13:48:16Z</time>
      </trkpt>
      <trkpt lat="46.88243" lon="5.76604">
        <ele>538.7</ele>
        <time>2020-03-07T13:48:40Z</time>
      </trkpt>
      <trkpt lat="46.88248" lon="5.76603">
        <ele>538.7</ele>
        <time>2020-03-07T13:48:45Z</time>
      </trkpt>
      <trkpt lat="46.88252" lon="5.76601">
        <ele>538.1</ele>
        <time>2020-03-07T13:48:51Z</time>
      </trkpt>
      <trkpt lat="46.88257" lon="5.76603">
        <ele>537.4</ele>
        <time>2020-03-07T13:48:55Z</time>
      </trkpt>
      <trkpt lat="46.88262" lon="5.76605">
        <ele>535.8</ele>
        <time>2020-03-07T13:49:04Z</time>
      </trkpt>
      <trkpt lat="46.88276" lon="5.76609">
        <ele>533.4</ele>
        <time>2020-03-07T13:49:19Z</time>
      </trkpt>
      <trkpt lat="46.88281" lon="5.7661">
        <ele>533.4</ele>
        <time>2020-03-07T13:49:25Z</time>
      </trkpt>
      <trkpt lat="46.88285" lon="5.76612">
        <ele>533.3</ele>
        <time>2020-03-07T13:49:29Z</time>
      </trkpt>
      <trkpt lat="46.8829" lon="5.76615">
        <ele>533</ele>
        <time>2020-03-07T13:49:34Z</time>
      </trkpt>
      <trkpt lat="46.88296" lon="5.76617">
        <ele>532.9</ele>
        <time>2020-03-07T13:49:39Z</time>
      </trkpt>
      <trkpt lat="46.88301" lon="5.76619">
        <ele>532.7</ele>
        <time>2020-03-07T13:49:43Z</time>
      </trkpt>
      <trkpt lat="46.88306" lon="5.76621">
        <ele>532.5</ele>
        <time>2020-03-07T13:49:49Z</time>
      </trkpt>
      <trkpt lat="46.88311" lon="5.76623">
        <ele>532.2</ele>
        <time>2020-03-07T13:49:54Z</time>
      </trkpt>
      <trkpt lat="46.88316" lon="5.76625">
        <ele>531.6</ele>
        <time>2020-03-07T13:50:00Z</time>
      </trkpt>
      <trkpt lat="46.88329" lon="5.76629">
        <ele>528.8</ele>
        <time>2020-03-07T13:50:12Z</time>
      </trkpt>
      <trkpt lat="46.88338" lon="5.76631">
        <ele>526.2</ele>
        <time>2020-03-07T13:50:25Z</time>
      </trkpt>
      <trkpt lat="46.88342" lon="5.7663">
        <ele>525.1</ele>
        <time>2020-03-07T13:50:33Z</time>
      </trkpt>
      <trkpt lat="46.88347" lon="5.7663">
        <ele>524.8</ele>
        <time>2020-03-07T13:50:37Z</time>
      </trkpt>
      <trkpt lat="46.88352" lon="5.76628">
        <ele>524.6</ele>
        <time>2020-03-07T13:50:43Z</time>
      </trkpt>
      <trkpt lat="46.88358" lon="5.76627">
        <ele>524.5</ele>
        <time>2020-03-07T13:50:47Z</time>
      </trkpt>
      <trkpt lat="46.88363" lon="5.76624">
        <ele>524.4</ele>
        <time>2020-03-07T13:50:50Z</time>
      </trkpt>
      <trkpt lat="46.88368" lon="5.76621">
        <ele>524.2</ele>
        <time>2020-03-07T13:50:54Z</time>
      </trkpt>
      <trkpt lat="46.88373" lon="5.76619">
        <ele>524</ele>
        <time>2020-03-07T13:50:57Z</time>
      </trkpt>
      <trkpt lat="46.88378" lon="5.76618">
        <ele>523.5</ele>
        <time>2020-03-07T13:51:02Z</time>
      </trkpt>
      <trkpt lat="46.88382" lon="5.76616">
        <ele>522.8</ele>
        <time>2020-03-07T13:51:08Z</time>
      </trkpt>
      <trkpt lat="46.88387" lon="5.76614">
        <ele>522</ele>
        <time>2020-03-07T13:51:15Z</time>
      </trkpt>
      <trkpt lat="46.88392" lon="5.7661">
        <ele>521.2</ele>
        <time>2020-03-07T13:51:23Z</time>
      </trkpt>
      <trkpt lat="46.88397" lon="5.76609">
        <ele>521</ele>
        <time>2020-03-07T13:51:26Z</time>
      </trkpt>
      <trkpt lat="46.88401" lon="5.76608">
        <ele>520.7</ele>
        <time>2020-03-07T13:51:30Z</time>
      </trkpt>
      <trkpt lat="46.88407" lon="5.76608">
        <ele>520.2</ele>
        <time>2020-03-07T13:51:36Z</time>
      </trkpt>
      <trkpt lat="46.88411" lon="5.76605">
        <ele>519.5</ele>
        <time>2020-03-07T13:51:42Z</time>
      </trkpt>
      <trkpt lat="46.88419" lon="5.76602">
        <ele>518.6</ele>
        <time>2020-03-07T13:51:53Z</time>
      </trkpt>
      <trkpt lat="46.88425" lon="5.76601">
        <ele>518.4</ele>
        <time>2020-03-07T13:51:57Z</time>
      </trkpt>
      <trkpt lat="46.8843" lon="5.76599">
        <ele>518.1</ele>
        <time>2020-03-07T13:52:01Z</time>
      </trkpt>
      <trkpt lat="46.88435" lon="5.76599">
        <ele>517.7</ele>
        <time>2020-03-07T13:52:05Z</time>
      </trkpt>
      <trkpt lat="46.8844" lon="5.76598">
        <ele>517.2</ele>
        <time>2020-03-07T13:52:09Z</time>
      </trkpt>
      <trkpt lat="46.88444" lon="5.76597">
        <ele>516.4</ele>
        <time>2020-03-07T13:52:15Z</time>
      </trkpt>
      <trkpt lat="46.88449" lon="5.76596">
        <ele>515.8</ele>
        <time>2020-03-07T13:52:19Z</time>
      </trkpt>
      <trkpt lat="46.88454" lon="5.76595">
        <ele>515.4</ele>
        <time>2020-03-07T13:52:22Z</time>
      </trkpt>
      <trkpt lat="46.88459" lon="5.76594">
        <ele>514.9</ele>
        <time>2020-03-07T13:52:26Z</time>
      </trkpt>
      <trkpt lat="46.88464" lon="5.76594">
        <ele>514.1</ele>
        <time>2020-03-07T13:52:35Z</time>
      </trkpt>
      <trkpt lat="46.8847" lon="5.76594">
        <ele>513.6</ele>
        <time>2020-03-07T13:52:40Z</time>
      </trkpt>
      <trkpt lat="46.88474" lon="5.76595">
        <ele>513.2</ele>
        <time>2020-03-07T13:52:45Z</time>
      </trkpt>
      <trkpt lat="46.88479" lon="5.76595">
        <ele>512.5</ele>
        <time>2020-03-07T13:52:51Z</time>
      </trkpt>
      <trkpt lat="46.88484" lon="5.76596">
        <ele>511.9</ele>
        <time>2020-03-07T13:52:55Z</time>
      </trkpt>
      <trkpt lat="46.88489" lon="5.76595">
        <ele>511.2</ele>
        <time>2020-03-07T13:52:59Z</time>
      </trkpt>
      <trkpt lat="46.88494" lon="5.76595">
        <ele>510.8</ele>
        <time>2020-03-07T13:53:02Z</time>
      </trkpt>
      <trkpt lat="46.885" lon="5.76594">
        <ele>510.4</ele>
        <time>2020-03-07T13:53:06Z</time>
      </trkpt>
      <trkpt lat="46.88505" lon="5.76594">
        <ele>510</ele>
        <time>2020-03-07T13:53:09Z</time>
      </trkpt>
      <trkpt lat="46.8851" lon="5.76593">
        <ele>509.8</ele>
        <time>2020-03-07T13:53:12Z</time>
      </trkpt>
      <trkpt lat="46.88516" lon="5.76592">
        <ele>509.4</ele>
        <time>2020-03-07T13:53:16Z</time>
      </trkpt>
      <trkpt lat="46.88521" lon="5.76592">
        <ele>508.9</ele>
        <time>2020-03-07T13:53:20Z</time>
      </trkpt>
      <trkpt lat="46.88526" lon="5.76592">
        <ele>508.3</ele>
        <time>2020-03-07T13:53:25Z</time>
      </trkpt>
      <trkpt lat="46.88531" lon="5.76594">
        <ele>507.9</ele>
        <time>2020-03-07T13:53:30Z</time>
      </trkpt>
      <trkpt lat="46.88535" lon="5.76595">
        <ele>507.6</ele>
        <time>2020-03-07T13:53:35Z</time>
      </trkpt>
      <trkpt lat="46.8854" lon="5.76594">
        <ele>507.4</ele>
        <time>2020-03-07T13:53:40Z</time>
      </trkpt>
      <trkpt lat="46.88545" lon="5.76591">
        <ele>507.1</ele>
        <time>2020-03-07T13:53:44Z</time>
      </trkpt>
      <trkpt lat="46.88549" lon="5.76588">
        <ele>506.8</ele>
        <time>2020-03-07T13:53:48Z</time>
      </trkpt>
      <trkpt lat="46.88553" lon="5.76585">
        <ele>501.5</ele>
        <time>2020-03-07T13:54:52Z</time>
      </trkpt>
      <trkpt lat="46.88558" lon="5.76585">
        <ele>501.4</ele>
        <time>2020-03-07T13:55:12Z</time>
      </trkpt>
      <trkpt lat="46.88563" lon="5.76585">
        <ele>500.9</ele>
        <time>2020-03-07T13:56:07Z</time>
      </trkpt>
      <trkpt lat="46.88567" lon="5.76587">
        <ele>500.9</ele>
        <time>2020-03-07T13:56:11Z</time>
      </trkpt>
      <trkpt lat="46.88572" lon="5.76588">
        <ele>501</ele>
        <time>2020-03-07T13:56:15Z</time>
      </trkpt>
      <trkpt lat="46.88578" lon="5.76589">
        <ele>501.1</ele>
        <time>2020-03-07T13:56:20Z</time>
      </trkpt>
      <trkpt lat="46.88583" lon="5.76592">
        <ele>501.1</ele>
        <time>2020-03-07T13:56:23Z</time>
      </trkpt>
      <trkpt lat="46.88588" lon="5.76593">
        <ele>501.1</ele>
        <time>2020-03-07T13:56:27Z</time>
      </trkpt>
      <trkpt lat="46.88592" lon="5.76595">
        <ele>500.7</ele>
        <time>2020-03-07T13:56:33Z</time>
      </trkpt>
      <trkpt lat="46.88596" lon="5.7659">
        <ele>500.7</ele>
        <time>2020-03-07T13:56:51Z</time>
      </trkpt>
      <trkpt lat="46.88601" lon="5.76589">
        <ele>500.6</ele>
        <time>2020-03-07T13:56:57Z</time>
      </trkpt>
      <trkpt lat="46.88606" lon="5.76586">
        <ele>500.3</ele>
        <time>2020-03-07T13:57:03Z</time>
      </trkpt>
      <trkpt lat="46.8861" lon="5.76583">
        <ele>500.2</ele>
        <time>2020-03-07T13:57:10Z</time>
      </trkpt>
      <trkpt lat="46.88614" lon="5.76578">
        <ele>500.3</ele>
        <time>2020-03-07T13:57:16Z</time>
      </trkpt>
      <trkpt lat="46.88617" lon="5.76573">
        <ele>500.5</ele>
        <time>2020-03-07T13:57:21Z</time>
      </trkpt>
      <trkpt lat="46.8862" lon="5.76568">
        <ele>500.4</ele>
        <time>2020-03-07T13:57:26Z</time>
      </trkpt>
      <trkpt lat="46.88624" lon="5.76565">
        <ele>500.1</ele>
        <time>2020-03-07T13:57:35Z</time>
      </trkpt>
      <trkpt lat="46.88629" lon="5.76567">
        <ele>499.7</ele>
        <time>2020-03-07T13:57:41Z</time>
      </trkpt>
      <trkpt lat="46.88634" lon="5.76569">
        <ele>499.2</ele>
        <time>2020-03-07T13:57:48Z</time>
      </trkpt>
      <trkpt lat="46.88639" lon="5.76571">
        <ele>498.7</ele>
        <time>2020-03-07T13:57:53Z</time>
      </trkpt>
      <trkpt lat="46.88644" lon="5.76574">
        <ele>498.1</ele>
        <time>2020-03-07T13:57:58Z</time>
      </trkpt>
      <trkpt lat="46.88648" lon="5.76576">
        <ele>497.3</ele>
        <time>2020-03-07T13:58:04Z</time>
      </trkpt>
      <trkpt lat="46.88653" lon="5.76579">
        <ele>495.8</ele>
        <time>2020-03-07T13:58:12Z</time>
      </trkpt>
      <trkpt lat="46.88658" lon="5.76581">
        <ele>494.4</ele>
        <time>2020-03-07T13:58:20Z</time>
      </trkpt>
      <trkpt lat="46.88663" lon="5.76582">
        <ele>494</ele>
        <time>2020-03-07T13:58:26Z</time>
      </trkpt>
      <trkpt lat="46.88667" lon="5.76585">
        <ele>493.8</ele>
        <time>2020-03-07T13:58:31Z</time>
      </trkpt>
      <trkpt lat="46.88671" lon="5.76587">
        <ele>493.4</ele>
        <time>2020-03-07T13:58:38Z</time>
      </trkpt>
      <trkpt lat="46.88676" lon="5.76591">
        <ele>493</ele>
        <time>2020-03-07T13:58:42Z</time>
      </trkpt>
      <trkpt lat="46.88681" lon="5.76592">
        <ele>492.5</ele>
        <time>2020-03-07T13:58:46Z</time>
      </trkpt>
      <trkpt lat="46.88685" lon="5.76594">
        <ele>491.9</ele>
        <time>2020-03-07T13:58:50Z</time>
      </trkpt>
      <trkpt lat="46.8869" lon="5.76596">
        <ele>491.4</ele>
        <time>2020-03-07T13:58:54Z</time>
      </trkpt>
      <trkpt lat="46.88694" lon="5.76599">
        <ele>490.7</ele>
        <time>2020-03-07T13:58:59Z</time>
      </trkpt>
      <trkpt lat="46.88699" lon="5.76602">
        <ele>489.6</ele>
        <time>2020-03-07T13:59:04Z</time>
      </trkpt>
      <trkpt lat="46.88703" lon="5.76605">
        <ele>488.8</ele>
        <time>2020-03-07T13:59:08Z</time>
      </trkpt>
      <trkpt lat="46.88707" lon="5.76608">
        <ele>487.9</ele>
        <time>2020-03-07T13:59:13Z</time>
      </trkpt>
      <trkpt lat="46.88711" lon="5.76612">
        <ele>487.2</ele>
        <time>2020-03-07T13:59:17Z</time>
      </trkpt>
      <trkpt lat="46.88716" lon="5.76614">
        <ele>486.5</ele>
        <time>2020-03-07T13:59:21Z</time>
      </trkpt>
      <trkpt lat="46.8872" lon="5.76616">
        <ele>485.9</ele>
        <time>2020-03-07T13:59:26Z</time>
      </trkpt>
      <trkpt lat="46.88725" lon="5.76615">
        <ele>485.1</ele>
        <time>2020-03-07T13:59:33Z</time>
      </trkpt>
      <trkpt lat="46.88729" lon="5.76616">
        <ele>484.1</ele>
        <time>2020-03-07T13:59:39Z</time>
      </trkpt>
      <trkpt lat="46.88734" lon="5.76618">
        <ele>483</ele>
        <time>2020-03-07T13:59:46Z</time>
      </trkpt>
      <trkpt lat="46.88739" lon="5.76619">
        <ele>482.2</ele>
        <time>2020-03-07T13:59:53Z</time>
      </trkpt>
      <trkpt lat="46.88744" lon="5.7662">
        <ele>481.6</ele>
        <time>2020-03-07T13:59:59Z</time>
      </trkpt>
      <trkpt lat="46.8875" lon="5.76622">
        <ele>480.9</ele>
        <time>2020-03-07T14:00:03Z</time>
      </trkpt>
      <trkpt lat="46.88755" lon="5.76624">
        <ele>480.2</ele>
        <time>2020-03-07T14:00:07Z</time>
      </trkpt>
      <trkpt lat="46.8876" lon="5.76626">
        <ele>479.3</ele>
        <time>2020-03-07T14:00:11Z</time>
      </trkpt>
      <trkpt lat="46.88765" lon="5.76629">
        <ele>478.2</ele>
        <time>2020-03-07T14:00:16Z</time>
      </trkpt>
      <trkpt lat="46.88768" lon="5.76634">
        <ele>476.9</ele>
        <time>2020-03-07T14:00:22Z</time>
      </trkpt>
      <trkpt lat="46.88772" lon="5.76639">
        <ele>476</ele>
        <time>2020-03-07T14:00:27Z</time>
      </trkpt>
      <trkpt lat="46.88774" lon="5.76646">
        <ele>475.2</ele>
        <time>2020-03-07T14:00:32Z</time>
      </trkpt>
      <trkpt lat="46.88777" lon="5.76652">
        <ele>474.4</ele>
        <time>2020-03-07T14:00:37Z</time>
      </trkpt>
      <trkpt lat="46.88778" lon="5.76659">
        <ele>473.4</ele>
        <time>2020-03-07T14:00:43Z</time>
      </trkpt>
      <trkpt lat="46.88777" lon="5.76667">
        <ele>472.6</ele>
        <time>2020-03-07T14:00:49Z</time>
      </trkpt>
      <trkpt lat="46.88777" lon="5.76673">
        <ele>472.1</ele>
        <time>2020-03-07T14:00:54Z</time>
      </trkpt>
      <trkpt lat="46.88777" lon="5.7668">
        <ele>471.4</ele>
        <time>2020-03-07T14:00:59Z</time>
      </trkpt>
      <trkpt lat="46.88776" lon="5.76687">
        <ele>470.6</ele>
        <time>2020-03-07T14:01:05Z</time>
      </trkpt>
      <trkpt lat="46.88776" lon="5.76694">
        <ele>469.3</ele>
        <time>2020-03-07T14:01:12Z</time>
      </trkpt>
      <trkpt lat="46.88777" lon="5.76701">
        <ele>468.3</ele>
        <time>2020-03-07T14:01:17Z</time>
      </trkpt>
      <trkpt lat="46.88779" lon="5.76708">
        <ele>467</ele>
        <time>2020-03-07T14:01:23Z</time>
      </trkpt>
      <trkpt lat="46.88782" lon="5.76714">
        <ele>466.1</ele>
        <time>2020-03-07T14:01:28Z</time>
      </trkpt>
      <trkpt lat="46.88782" lon="5.76721">
        <ele>465</ele>
        <time>2020-03-07T14:01:34Z</time>
      </trkpt>
      <trkpt lat="46.8878" lon="5.76728">
        <ele>463.8</ele>
        <time>2020-03-07T14:01:40Z</time>
      </trkpt>
      <trkpt lat="46.88779" lon="5.76735">
        <ele>462.6</ele>
        <time>2020-03-07T14:01:47Z</time>
      </trkpt>
      <trkpt lat="46.88778" lon="5.76742">
        <ele>461.4</ele>
        <time>2020-03-07T14:01:53Z</time>
      </trkpt>
      <trkpt lat="46.88777" lon="5.76749">
        <ele>459.7</ele>
        <time>2020-03-07T14:02:00Z</time>
      </trkpt>
      <trkpt lat="46.88779" lon="5.76755">
        <ele>457.9</ele>
        <time>2020-03-07T14:02:07Z</time>
      </trkpt>
      <trkpt lat="46.88783" lon="5.76761">
        <ele>457.1</ele>
        <time>2020-03-07T14:02:11Z</time>
      </trkpt>
      <trkpt lat="46.88787" lon="5.76765">
        <ele>456.2</ele>
        <time>2020-03-07T14:02:17Z</time>
      </trkpt>
      <trkpt lat="46.88791" lon="5.76768">
        <ele>455.3</ele>
        <time>2020-03-07T14:02:23Z</time>
      </trkpt>
      <trkpt lat="46.88796" lon="5.76771">
        <ele>454.6</ele>
        <time>2020-03-07T14:02:32Z</time>
      </trkpt>
      <trkpt lat="46.888" lon="5.76771">
        <ele>453.9</ele>
        <time>2020-03-07T14:02:38Z</time>
      </trkpt>
      <trkpt lat="46.88806" lon="5.7677">
        <ele>453.1</ele>
        <time>2020-03-07T14:02:45Z</time>
      </trkpt>
      <trkpt lat="46.8881" lon="5.76767">
        <ele>452.3</ele>
        <time>2020-03-07T14:02:55Z</time>
      </trkpt>
      <trkpt lat="46.88813" lon="5.76762">
        <ele>451.7</ele>
        <time>2020-03-07T14:03:01Z</time>
      </trkpt>
      <trkpt lat="46.88816" lon="5.76758">
        <ele>450.7</ele>
        <time>2020-03-07T14:03:08Z</time>
      </trkpt>
      <trkpt lat="46.8882" lon="5.76753">
        <ele>449.6</ele>
        <time>2020-03-07T14:03:17Z</time>
      </trkpt>
      <trkpt lat="46.88824" lon="5.7675">
        <ele>448.5</ele>
        <time>2020-03-07T14:03:25Z</time>
      </trkpt>
      <trkpt lat="46.88829" lon="5.76749">
        <ele>446.6</ele>
        <time>2020-03-07T14:03:52Z</time>
      </trkpt>
      <trkpt lat="46.88834" lon="5.76749">
        <ele>445.8</ele>
        <time>2020-03-07T14:03:58Z</time>
      </trkpt>
      <trkpt lat="46.88838" lon="5.76746">
        <ele>444.9</ele>
        <time>2020-03-07T14:04:02Z</time>
      </trkpt>
      <trkpt lat="46.88843" lon="5.76747">
        <ele>443.2</ele>
        <time>2020-03-07T14:04:08Z</time>
      </trkpt>
      <trkpt lat="46.88848" lon="5.7675">
        <ele>441.2</ele>
        <time>2020-03-07T14:04:15Z</time>
      </trkpt>
      <trkpt lat="46.88851" lon="5.76756">
        <ele>439.9</ele>
        <time>2020-03-07T14:04:20Z</time>
      </trkpt>
      <trkpt lat="46.88854" lon="5.76762">
        <ele>439</ele>
        <time>2020-03-07T14:04:24Z</time>
      </trkpt>
      <trkpt lat="46.88856" lon="5.76768">
        <ele>438</ele>
        <time>2020-03-07T14:04:30Z</time>
      </trkpt>
      <trkpt lat="46.88856" lon="5.76774">
        <ele>437</ele>
        <time>2020-03-07T14:04:44Z</time>
      </trkpt>
      <trkpt lat="46.88858" lon="5.76781">
        <ele>436.3</ele>
        <time>2020-03-07T14:04:52Z</time>
      </trkpt>
      <trkpt lat="46.88861" lon="5.76787">
        <ele>435.5</ele>
        <time>2020-03-07T14:04:57Z</time>
      </trkpt>
      <trkpt lat="46.88863" lon="5.76794">
        <ele>434.5</ele>
        <time>2020-03-07T14:05:02Z</time>
      </trkpt>
      <trkpt lat="46.88866" lon="5.76799">
        <ele>433.8</ele>
        <time>2020-03-07T14:05:06Z</time>
      </trkpt>
      <trkpt lat="46.88868" lon="5.76806">
        <ele>432.8</ele>
        <time>2020-03-07T14:05:11Z</time>
      </trkpt>
      <trkpt lat="46.8887" lon="5.76813">
        <ele>432.3</ele>
        <time>2020-03-07T14:05:15Z</time>
      </trkpt>
      <trkpt lat="46.88872" lon="5.76819">
        <ele>431.4</ele>
        <time>2020-03-07T14:05:21Z</time>
      </trkpt>
      <trkpt lat="46.88874" lon="5.76826">
        <ele>430.7</ele>
        <time>2020-03-07T14:05:26Z</time>
      </trkpt>
      <trkpt lat="46.88876" lon="5.76832">
        <ele>429.9</ele>
        <time>2020-03-07T14:05:32Z</time>
      </trkpt>
      <trkpt lat="46.88877" lon="5.76839">
        <ele>429.5</ele>
        <time>2020-03-07T14:05:37Z</time>
      </trkpt>
      <trkpt lat="46.88879" lon="5.76845">
        <ele>429.3</ele>
        <time>2020-03-07T14:05:40Z</time>
      </trkpt>
      <trkpt lat="46.88882" lon="5.76851">
        <ele>428.9</ele>
        <time>2020-03-07T14:05:44Z</time>
      </trkpt>
      <trkpt lat="46.88883" lon="5.76859">
        <ele>427.9</ele>
        <time>2020-03-07T14:05:50Z</time>
      </trkpt>
      <trkpt lat="46.88885" lon="5.76865">
        <ele>427</ele>
        <time>2020-03-07T14:05:56Z</time>
      </trkpt>
      <trkpt lat="46.88885" lon="5.76873">
        <ele>426</ele>
        <time>2020-03-07T14:06:04Z</time>
      </trkpt>
      <trkpt lat="46.88887" lon="5.76879">
        <ele>425.6</ele>
        <time>2020-03-07T14:06:09Z</time>
      </trkpt>
      <trkpt lat="46.88889" lon="5.76886">
        <ele>425.4</ele>
        <time>2020-03-07T14:06:14Z</time>
      </trkpt>
      <trkpt lat="46.88891" lon="5.76891">
        <ele>425.4</ele>
        <time>2020-03-07T14:06:18Z</time>
      </trkpt>
      <trkpt lat="46.88894" lon="5.76897">
        <ele>425.6</ele>
        <time>2020-03-07T14:06:24Z</time>
      </trkpt>
      <trkpt lat="46.88896" lon="5.76903">
        <ele>425.5</ele>
        <time>2020-03-07T14:06:28Z</time>
      </trkpt>
      <trkpt lat="46.88898" lon="5.7691">
        <ele>425.2</ele>
        <time>2020-03-07T14:06:33Z</time>
      </trkpt>
      <trkpt lat="46.88899" lon="5.76916">
        <ele>424.8</ele>
        <time>2020-03-07T14:06:39Z</time>
      </trkpt>
      <trkpt lat="46.88901" lon="5.76924">
        <ele>424</ele>
        <time>2020-03-07T14:06:45Z</time>
      </trkpt>
      <trkpt lat="46.88904" lon="5.76929">
        <ele>423.4</ele>
        <time>2020-03-07T14:06:50Z</time>
      </trkpt>
      <trkpt lat="46.88905" lon="5.76935">
        <ele>422.9</ele>
        <time>2020-03-07T14:06:55Z</time>
      </trkpt>
      <trkpt lat="46.8891" lon="5.76947">
        <ele>421.2</ele>
        <time>2020-03-07T14:07:06Z</time>
      </trkpt>
      <trkpt lat="46.88915" lon="5.76951">
        <ele>420.7</ele>
        <time>2020-03-07T14:07:09Z</time>
      </trkpt>
      <trkpt lat="46.88918" lon="5.76957">
        <ele>419.7</ele>
        <time>2020-03-07T14:07:14Z</time>
      </trkpt>
      <trkpt lat="46.88921" lon="5.76963">
        <ele>418.9</ele>
        <time>2020-03-07T14:07:19Z</time>
      </trkpt>
      <trkpt lat="46.88924" lon="5.76969">
        <ele>418.2</ele>
        <time>2020-03-07T14:07:25Z</time>
      </trkpt>
      <trkpt lat="46.88928" lon="5.76975">
        <ele>417.9</ele>
        <time>2020-03-07T14:07:29Z</time>
      </trkpt>
      <trkpt lat="46.8893" lon="5.76981">
        <ele>417.5</ele>
        <time>2020-03-07T14:07:34Z</time>
      </trkpt>
      <trkpt lat="46.88931" lon="5.76989">
        <ele>417.3</ele>
        <time>2020-03-07T14:07:40Z</time>
      </trkpt>
      <trkpt lat="46.88931" lon="5.76996">
        <ele>417.2</ele>
        <time>2020-03-07T14:07:44Z</time>
      </trkpt>
      <trkpt lat="46.88931" lon="5.77002">
        <ele>417.2</ele>
        <time>2020-03-07T14:07:49Z</time>
      </trkpt>
      <trkpt lat="46.88931" lon="5.77009">
        <ele>417.3</ele>
        <time>2020-03-07T14:07:55Z</time>
      </trkpt>
      <trkpt lat="46.88934" lon="5.77016">
        <ele>417.7</ele>
        <time>2020-03-07T14:08:02Z</time>
      </trkpt>
      <trkpt lat="46.88937" lon="5.77021">
        <ele>418.5</ele>
        <time>2020-03-07T14:08:10Z</time>
      </trkpt>
      <trkpt lat="46.88938" lon="5.77028">
        <ele>419.2</ele>
        <time>2020-03-07T14:08:18Z</time>
      </trkpt>
      <trkpt lat="46.88939" lon="5.77036">
        <ele>419.8</ele>
        <time>2020-03-07T14:08:23Z</time>
      </trkpt>
      <trkpt lat="46.88939" lon="5.77043">
        <ele>420.4</ele>
        <time>2020-03-07T14:08:29Z</time>
      </trkpt>
      <trkpt lat="46.88939" lon="5.7705">
        <ele>421.1</ele>
        <time>2020-03-07T14:08:35Z</time>
      </trkpt>
      <trkpt lat="46.88936" lon="5.77054">
        <ele>421.3</ele>
        <time>2020-03-07T14:08:44Z</time>
      </trkpt>
      <trkpt lat="46.88931" lon="5.77057">
        <ele>421</ele>
        <time>2020-03-07T14:08:55Z</time>
      </trkpt>
      <trkpt lat="46.88935" lon="5.77063">
        <ele>422.6</ele>
        <time>2020-03-07T14:09:48Z</time>
      </trkpt>
      <trkpt lat="46.88939" lon="5.77067">
        <ele>423.8</ele>
        <time>2020-03-07T14:09:55Z</time>
      </trkpt>
      <trkpt lat="46.88943" lon="5.77072">
        <ele>425</ele>
        <time>2020-03-07T14:10:01Z</time>
      </trkpt>
      <trkpt lat="46.8896" lon="5.77084">
        <ele>427.6</ele>
        <time>2020-03-07T14:10:10Z</time>
      </trkpt>
      <trkpt lat="46.88964" lon="5.77088">
        <ele>428.7</ele>
        <time>2020-03-07T14:10:15Z</time>
      </trkpt>
      <trkpt lat="46.88965" lon="5.77094">
        <ele>431.5</ele>
        <time>2020-03-07T14:10:26Z</time>
      </trkpt>
      <trkpt lat="46.88966" lon="5.77102">
        <ele>435.8</ele>
        <time>2020-03-07T14:10:42Z</time>
      </trkpt>
      <trkpt lat="46.8897" lon="5.7711">
        <ele>436.9</ele>
        <time>2020-03-07T14:10:46Z</time>
      </trkpt>
      <trkpt lat="46.88973" lon="5.77116">
        <ele>438</ele>
        <time>2020-03-07T14:10:50Z</time>
      </trkpt>
      <trkpt lat="46.88974" lon="5.77123">
        <ele>439.5</ele>
        <time>2020-03-07T14:10:56Z</time>
      </trkpt>
      <trkpt lat="46.88976" lon="5.77129">
        <ele>440.2</ele>
        <time>2020-03-07T14:11:00Z</time>
      </trkpt>
      <trkpt lat="46.88979" lon="5.77134">
        <ele>441.1</ele>
        <time>2020-03-07T14:11:05Z</time>
      </trkpt>
      <trkpt lat="46.8898" lon="5.77141">
        <ele>442.1</ele>
        <time>2020-03-07T14:11:11Z</time>
      </trkpt>
      <trkpt lat="46.8898" lon="5.77148">
        <ele>442.7</ele>
        <time>2020-03-07T14:11:17Z</time>
      </trkpt>
      <trkpt lat="46.88982" lon="5.77154">
        <ele>443.3</ele>
        <time>2020-03-07T14:11:22Z</time>
      </trkpt>
      <trkpt lat="46.88984" lon="5.77161">
        <ele>444.1</ele>
        <time>2020-03-07T14:11:28Z</time>
      </trkpt>
      <trkpt lat="46.88983" lon="5.77168">
        <ele>444.7</ele>
        <time>2020-03-07T14:11:33Z</time>
      </trkpt>
      <trkpt lat="46.88984" lon="5.77175">
        <ele>445.3</ele>
        <time>2020-03-07T14:11:38Z</time>
      </trkpt>
      <trkpt lat="46.88985" lon="5.77181">
        <ele>445.8</ele>
        <time>2020-03-07T14:11:45Z</time>
      </trkpt>
      <trkpt lat="46.88985" lon="5.77189">
        <ele>446</ele>
        <time>2020-03-07T14:11:53Z</time>
      </trkpt>
      <trkpt lat="46.88986" lon="5.77195">
        <ele>446.1</ele>
        <time>2020-03-07T14:12:00Z</time>
      </trkpt>
      <trkpt lat="46.88986" lon="5.77203">
        <ele>446</ele>
        <time>2020-03-07T14:12:07Z</time>
      </trkpt>
      <trkpt lat="46.88988" lon="5.77216">
        <ele>445.9</ele>
        <time>2020-03-07T14:12:17Z</time>
      </trkpt>
      <trkpt lat="46.88989" lon="5.77223">
        <ele>445.7</ele>
        <time>2020-03-07T14:12:22Z</time>
      </trkpt>
      <trkpt lat="46.8899" lon="5.7723">
        <ele>445.7</ele>
        <time>2020-03-07T14:12:28Z</time>
      </trkpt>
      <trkpt lat="46.88992" lon="5.77237">
        <ele>445.2</ele>
        <time>2020-03-07T14:12:37Z</time>
      </trkpt>
      <trkpt lat="46.88994" lon="5.77243">
        <ele>444.7</ele>
        <time>2020-03-07T14:12:43Z</time>
      </trkpt>
      <trkpt lat="46.88999" lon="5.77245">
        <ele>444.7</ele>
        <time>2020-03-07T14:12:53Z</time>
      </trkpt>
      <trkpt lat="46.89004" lon="5.77243">
        <ele>445.1</ele>
        <time>2020-03-07T14:12:59Z</time>
      </trkpt>
      <trkpt lat="46.89009" lon="5.77243">
        <ele>445.4</ele>
        <time>2020-03-07T14:13:03Z</time>
      </trkpt>
      <trkpt lat="46.89013" lon="5.77248">
        <ele>446.1</ele>
        <time>2020-03-07T14:13:07Z</time>
      </trkpt>
      <trkpt lat="46.89017" lon="5.77251">
        <ele>447.1</ele>
        <time>2020-03-07T14:13:13Z</time>
      </trkpt>
      <trkpt lat="46.89007" lon="5.77261">
        <ele>451</ele>
        <time>2020-03-07T14:13:32Z</time>
      </trkpt>
      <trkpt lat="46.89012" lon="5.77259">
        <ele>453.6</ele>
        <time>2020-03-07T14:13:54Z</time>
      </trkpt>
      <trkpt lat="46.89014" lon="5.77264">
        <ele>457.9</ele>
        <time>2020-03-07T14:14:16Z</time>
      </trkpt>
      <trkpt lat="46.89016" lon="5.7727">
        <ele>458.8</ele>
        <time>2020-03-07T14:14:24Z</time>
      </trkpt>
      <trkpt lat="46.89017" lon="5.77277">
        <ele>458.9</ele>
        <time>2020-03-07T14:14:31Z</time>
      </trkpt>
      <trkpt lat="46.89017" lon="5.77285">
        <ele>458.4</ele>
        <time>2020-03-07T14:14:38Z</time>
      </trkpt>
      <trkpt lat="46.89017" lon="5.77291">
        <ele>458</ele>
        <time>2020-03-07T14:14:43Z</time>
      </trkpt>
      <trkpt lat="46.89017" lon="5.77298">
        <ele>457.5</ele>
        <time>2020-03-07T14:14:48Z</time>
      </trkpt>
      <trkpt lat="46.89018" lon="5.77305">
        <ele>457.2</ele>
        <time>2020-03-07T14:14:54Z</time>
      </trkpt>
      <trkpt lat="46.89021" lon="5.77311">
        <ele>456.9</ele>
        <time>2020-03-07T14:15:02Z</time>
      </trkpt>
      <trkpt lat="46.89022" lon="5.77319">
        <ele>456.7</ele>
        <time>2020-03-07T14:15:09Z</time>
      </trkpt>
      <trkpt lat="46.89024" lon="5.77325">
        <ele>456.5</ele>
        <time>2020-03-07T14:15:15Z</time>
      </trkpt>
      <trkpt lat="46.89026" lon="5.77331">
        <ele>456.4</ele>
        <time>2020-03-07T14:15:19Z</time>
      </trkpt>
      <trkpt lat="46.89028" lon="5.77338">
        <ele>456.2</ele>
        <time>2020-03-07T14:15:25Z</time>
      </trkpt>
      <trkpt lat="46.89029" lon="5.77345">
        <ele>456.2</ele>
        <time>2020-03-07T14:15:33Z</time>
      </trkpt>
      <trkpt lat="46.89027" lon="5.77352">
        <ele>456.5</ele>
        <time>2020-03-07T14:15:39Z</time>
      </trkpt>
      <trkpt lat="46.89028" lon="5.77358">
        <ele>456.9</ele>
        <time>2020-03-07T14:15:44Z</time>
      </trkpt>
      <trkpt lat="46.8903" lon="5.77366">
        <ele>457.1</ele>
        <time>2020-03-07T14:15:48Z</time>
      </trkpt>
      <trkpt lat="46.89033" lon="5.77373">
        <ele>457.3</ele>
        <time>2020-03-07T14:15:52Z</time>
      </trkpt>
      <trkpt lat="46.89036" lon="5.77379">
        <ele>457.4</ele>
        <time>2020-03-07T14:15:57Z</time>
      </trkpt>
      <trkpt lat="46.89039" lon="5.77385">
        <ele>457.6</ele>
        <time>2020-03-07T14:16:05Z</time>
      </trkpt>
      <trkpt lat="46.89041" lon="5.77391">
        <ele>457.5</ele>
        <time>2020-03-07T14:16:10Z</time>
      </trkpt>
      <trkpt lat="46.89044" lon="5.77398">
        <ele>457.6</ele>
        <time>2020-03-07T14:16:15Z</time>
      </trkpt>
      <trkpt lat="46.89044" lon="5.77405">
        <ele>458</ele>
        <time>2020-03-07T14:16:22Z</time>
      </trkpt>
      <trkpt lat="46.89044" lon="5.77413">
        <ele>458.2</ele>
        <time>2020-03-07T14:16:30Z</time>
      </trkpt>
      <trkpt lat="46.89044" lon="5.7742">
        <ele>457.9</ele>
        <time>2020-03-07T14:16:38Z</time>
      </trkpt>
      <trkpt lat="46.89044" lon="5.77426">
        <ele>457.8</ele>
        <time>2020-03-07T14:16:49Z</time>
      </trkpt>
      <trkpt lat="46.89045" lon="5.77434">
        <ele>457.6</ele>
        <time>2020-03-07T14:16:55Z</time>
      </trkpt>
      <trkpt lat="46.89046" lon="5.77441">
        <ele>457.7</ele>
        <time>2020-03-07T14:17:00Z</time>
      </trkpt>
      <trkpt lat="46.89048" lon="5.77448">
        <ele>457.8</ele>
        <time>2020-03-07T14:17:05Z</time>
      </trkpt>
      <trkpt lat="46.89052" lon="5.77477">
        <ele>458.5</ele>
        <time>2020-03-07T14:17:17Z</time>
      </trkpt>
      <trkpt lat="46.89058" lon="5.77493">
        <ele>460.8</ele>
        <time>2020-03-07T14:17:29Z</time>
      </trkpt>
      <trkpt lat="46.89059" lon="5.775">
        <ele>461.8</ele>
        <time>2020-03-07T14:17:37Z</time>
      </trkpt>
      <trkpt lat="46.89065" lon="5.77509">
        <ele>462.4</ele>
        <time>2020-03-07T14:17:52Z</time>
      </trkpt>
      <trkpt lat="46.89066" lon="5.77516">
        <ele>462.2</ele>
        <time>2020-03-07T14:18:01Z</time>
      </trkpt>
      <trkpt lat="46.89068" lon="5.77522">
        <ele>461.9</ele>
        <time>2020-03-07T14:18:11Z</time>
      </trkpt>
      <trkpt lat="46.89071" lon="5.77529">
        <ele>462</ele>
        <time>2020-03-07T14:18:16Z</time>
      </trkpt>
      <trkpt lat="46.89075" lon="5.77536">
        <ele>462.3</ele>
        <time>2020-03-07T14:18:20Z</time>
      </trkpt>
      <trkpt lat="46.89079" lon="5.7754">
        <ele>462.5</ele>
        <time>2020-03-07T14:18:24Z</time>
      </trkpt>
      <trkpt lat="46.89082" lon="5.77546">
        <ele>463.4</ele>
        <time>2020-03-07T14:18:32Z</time>
      </trkpt>
      <trkpt lat="46.89085" lon="5.77552">
        <ele>464</ele>
        <time>2020-03-07T14:18:38Z</time>
      </trkpt>
      <trkpt lat="46.89088" lon="5.77558">
        <ele>464.1</ele>
        <time>2020-03-07T14:18:44Z</time>
      </trkpt>
      <trkpt lat="46.8909" lon="5.77564">
        <ele>464.2</ele>
        <time>2020-03-07T14:18:50Z</time>
      </trkpt>
      <trkpt lat="46.89093" lon="5.7757">
        <ele>464.2</ele>
        <time>2020-03-07T14:18:57Z</time>
      </trkpt>
      <trkpt lat="46.89095" lon="5.77576">
        <ele>464</ele>
        <time>2020-03-07T14:19:02Z</time>
      </trkpt>
      <trkpt lat="46.89098" lon="5.77582">
        <ele>463.8</ele>
        <time>2020-03-07T14:19:08Z</time>
      </trkpt>
      <trkpt lat="46.89101" lon="5.77587">
        <ele>463.9</ele>
        <time>2020-03-07T14:19:14Z</time>
      </trkpt>
      <trkpt lat="46.89104" lon="5.77593">
        <ele>463.8</ele>
        <time>2020-03-07T14:19:20Z</time>
      </trkpt>
      <trkpt lat="46.89107" lon="5.77597">
        <ele>463.6</ele>
        <time>2020-03-07T14:19:25Z</time>
      </trkpt>
      <trkpt lat="46.8911" lon="5.77603">
        <ele>463.4</ele>
        <time>2020-03-07T14:19:29Z</time>
      </trkpt>
      <trkpt lat="46.89114" lon="5.77608">
        <ele>463.2</ele>
        <time>2020-03-07T14:19:33Z</time>
      </trkpt>
      <trkpt lat="46.89116" lon="5.77615">
        <ele>462.9</ele>
        <time>2020-03-07T14:19:38Z</time>
      </trkpt>
      <trkpt lat="46.8912" lon="5.77627">
        <ele>461.3</ele>
        <time>2020-03-07T14:19:53Z</time>
      </trkpt>
      <trkpt lat="46.89123" lon="5.77632">
        <ele>460.8</ele>
        <time>2020-03-07T14:19:58Z</time>
      </trkpt>
      <trkpt lat="46.89142" lon="5.77691">
        <ele>459.9</ele>
        <time>2020-03-07T14:21:16Z</time>
      </trkpt>
      <trkpt lat="46.89145" lon="5.77696">
        <ele>460.5</ele>
        <time>2020-03-07T14:21:22Z</time>
      </trkpt>
      <trkpt lat="46.89148" lon="5.77701">
        <ele>461</ele>
        <time>2020-03-07T14:21:25Z</time>
      </trkpt>
      <trkpt lat="46.89152" lon="5.77705">
        <ele>461.5</ele>
        <time>2020-03-07T14:21:29Z</time>
      </trkpt>
      <trkpt lat="46.89154" lon="5.77712">
        <ele>462.6</ele>
        <time>2020-03-07T14:21:36Z</time>
      </trkpt>
      <trkpt lat="46.89158" lon="5.77718">
        <ele>463.4</ele>
        <time>2020-03-07T14:21:40Z</time>
      </trkpt>
      <trkpt lat="46.89161" lon="5.77725">
        <ele>464.2</ele>
        <time>2020-03-07T14:21:43Z</time>
      </trkpt>
      <trkpt lat="46.89164" lon="5.77734">
        <ele>465</ele>
        <time>2020-03-07T14:21:46Z</time>
      </trkpt>
      <trkpt lat="46.89168" lon="5.77748">
        <ele>465.6</ele>
        <time>2020-03-07T14:21:48Z</time>
      </trkpt>
      <trkpt lat="46.8917" lon="5.77754">
        <ele>466</ele>
        <time>2020-03-07T14:21:50Z</time>
      </trkpt>
      <trkpt lat="46.89172" lon="5.77761">
        <ele>466.9</ele>
        <time>2020-03-07T14:21:54Z</time>
      </trkpt>
      <trkpt lat="46.89175" lon="5.77768">
        <ele>467.7</ele>
        <time>2020-03-07T14:21:59Z</time>
      </trkpt>
      <trkpt lat="46.89177" lon="5.77774">
        <ele>468</ele>
        <time>2020-03-07T14:22:04Z</time>
      </trkpt>
      <trkpt lat="46.89181" lon="5.77779">
        <ele>467.9</ele>
        <time>2020-03-07T14:22:10Z</time>
      </trkpt>
      <trkpt lat="46.89182" lon="5.77786">
        <ele>467.1</ele>
        <time>2020-03-07T14:22:21Z</time>
      </trkpt>
      <trkpt lat="46.89183" lon="5.77801">
        <ele>465.5</ele>
        <time>2020-03-07T14:22:33Z</time>
      </trkpt>
      <trkpt lat="46.89185" lon="5.77815">
        <ele>466.1</ele>
        <time>2020-03-07T14:22:46Z</time>
      </trkpt>
      <trkpt lat="46.89186" lon="5.77823">
        <ele>466.5</ele>
        <time>2020-03-07T14:22:50Z</time>
      </trkpt>
      <trkpt lat="46.89187" lon="5.7783">
        <ele>467.3</ele>
        <time>2020-03-07T14:22:56Z</time>
      </trkpt>
      <trkpt lat="46.89186" lon="5.77836">
        <ele>467.7</ele>
        <time>2020-03-07T14:23:02Z</time>
      </trkpt>
      <trkpt lat="46.89187" lon="5.77844">
        <ele>469.3</ele>
        <time>2020-03-07T14:23:13Z</time>
      </trkpt>
      <trkpt lat="46.89187" lon="5.7785">
        <ele>470.6</ele>
        <time>2020-03-07T14:23:18Z</time>
      </trkpt>
      <trkpt lat="46.89191" lon="5.7787">
        <ele>474.9</ele>
        <time>2020-03-07T14:24:20Z</time>
      </trkpt>
      <trkpt lat="46.89196" lon="5.77873">
        <ele>475.1</ele>
        <time>2020-03-07T14:24:25Z</time>
      </trkpt>
      <trkpt lat="46.89198" lon="5.7788">
        <ele>475.3</ele>
        <time>2020-03-07T14:24:28Z</time>
      </trkpt>
      <trkpt lat="46.89201" lon="5.77887">
        <ele>475.7</ele>
        <time>2020-03-07T14:24:35Z</time>
      </trkpt>
      <trkpt lat="46.89204" lon="5.77893">
        <ele>475.8</ele>
        <time>2020-03-07T14:24:45Z</time>
      </trkpt>
      <trkpt lat="46.89206" lon="5.77899">
        <ele>476.3</ele>
        <time>2020-03-07T14:24:56Z</time>
      </trkpt>
      <trkpt lat="46.89208" lon="5.77907">
        <ele>477</ele>
        <time>2020-03-07T14:25:07Z</time>
      </trkpt>
      <trkpt lat="46.89212" lon="5.77914">
        <ele>477.5</ele>
        <time>2020-03-07T14:25:11Z</time>
      </trkpt>
      <trkpt lat="46.89215" lon="5.77921">
        <ele>477.7</ele>
        <time>2020-03-07T14:25:13Z</time>
      </trkpt>
      <trkpt lat="46.89217" lon="5.77927">
        <ele>478.3</ele>
        <time>2020-03-07T14:25:18Z</time>
      </trkpt>
      <trkpt lat="46.89219" lon="5.77934">
        <ele>479.1</ele>
        <time>2020-03-07T14:25:24Z</time>
      </trkpt>
      <trkpt lat="46.89222" lon="5.77941">
        <ele>479.4</ele>
        <time>2020-03-07T14:25:27Z</time>
      </trkpt>
      <trkpt lat="46.89227" lon="5.77949">
        <ele>479.6</ele>
        <time>2020-03-07T14:25:29Z</time>
      </trkpt>
      <trkpt lat="46.89232" lon="5.77956">
        <ele>479.8</ele>
        <time>2020-03-07T14:25:31Z</time>
      </trkpt>
      <trkpt lat="46.89237" lon="5.77964">
        <ele>480</ele>
        <time>2020-03-07T14:25:33Z</time>
      </trkpt>
      <trkpt lat="46.8924" lon="5.77969">
        <ele>480.2</ele>
        <time>2020-03-07T14:25:35Z</time>
      </trkpt>
      <trkpt lat="46.89244" lon="5.77976">
        <ele>480.4</ele>
        <time>2020-03-07T14:25:38Z</time>
      </trkpt>
      <trkpt lat="46.89248" lon="5.77981">
        <ele>480.5</ele>
        <time>2020-03-07T14:25:42Z</time>
      </trkpt>
      <trkpt lat="46.8925" lon="5.77987">
        <ele>480.6</ele>
        <time>2020-03-07T14:25:47Z</time>
      </trkpt>
      <trkpt lat="46.89253" lon="5.77991">
        <ele>480.6</ele>
        <time>2020-03-07T14:25:52Z</time>
      </trkpt>
      <trkpt lat="46.89258" lon="5.77995">
        <ele>480.1</ele>
        <time>2020-03-07T14:25:59Z</time>
      </trkpt>
      <trkpt lat="46.89261" lon="5.78">
        <ele>479.6</ele>
        <time>2020-03-07T14:26:05Z</time>
      </trkpt>
      <trkpt lat="46.89264" lon="5.78006">
        <ele>479.1</ele>
        <time>2020-03-07T14:26:08Z</time>
      </trkpt>
      <trkpt lat="46.89268" lon="5.7801">
        <ele>478.1</ele>
        <time>2020-03-07T14:26:13Z</time>
      </trkpt>
      <trkpt lat="46.89268" lon="5.78017">
        <ele>477.4</ele>
        <time>2020-03-07T14:26:18Z</time>
      </trkpt>
      <trkpt lat="46.89269" lon="5.78023">
        <ele>476.7</ele>
        <time>2020-03-07T14:26:22Z</time>
      </trkpt>
      <trkpt lat="46.89282" lon="5.7803">
        <ele>472.2</ele>
        <time>2020-03-07T14:26:35Z</time>
      </trkpt>
      <trkpt lat="46.89291" lon="5.78029">
        <ele>469.1</ele>
        <time>2020-03-07T14:26:51Z</time>
      </trkpt>
      <trkpt lat="46.89296" lon="5.78029">
        <ele>468.1</ele>
        <time>2020-03-07T14:27:00Z</time>
      </trkpt>
      <trkpt lat="46.89298" lon="5.78035">
        <ele>466.8</ele>
        <time>2020-03-07T14:27:07Z</time>
      </trkpt>
      <trkpt lat="46.89303" lon="5.78035">
        <ele>465.7</ele>
        <time>2020-03-07T14:27:12Z</time>
      </trkpt>
      <trkpt lat="46.89302" lon="5.78029">
        <ele>463.3</ele>
        <time>2020-03-07T14:27:25Z</time>
      </trkpt>
      <trkpt lat="46.89299" lon="5.78023">
        <ele>463.4</ele>
        <time>2020-03-07T14:27:31Z</time>
      </trkpt>
      <trkpt lat="46.89304" lon="5.78021">
        <ele>464.1</ele>
        <time>2020-03-07T14:27:50Z</time>
      </trkpt>
      <trkpt lat="46.89307" lon="5.78016">
        <ele>462.9</ele>
        <time>2020-03-07T14:28:03Z</time>
      </trkpt>
      <trkpt lat="46.89311" lon="5.78023">
        <ele>457.1</ele>
        <time>2020-03-07T14:28:27Z</time>
      </trkpt>
      <trkpt lat="46.89321" lon="5.7804">
        <ele>447.1</ele>
        <time>2020-03-07T14:28:52Z</time>
      </trkpt>
      <trkpt lat="46.89326" lon="5.78044">
        <ele>445.4</ele>
        <time>2020-03-07T14:28:56Z</time>
      </trkpt>
      <trkpt lat="46.8933" lon="5.78048">
        <ele>443.8</ele>
        <time>2020-03-07T14:29:00Z</time>
      </trkpt>
      <trkpt lat="46.89349" lon="5.78059">
        <ele>434.9</ele>
        <time>2020-03-07T14:30:05Z</time>
      </trkpt>
      <trkpt lat="46.89355" lon="5.78058">
        <ele>434.5</ele>
        <time>2020-03-07T14:30:07Z</time>
      </trkpt>
      <trkpt lat="46.89359" lon="5.78057">
        <ele>431.8</ele>
        <time>2020-03-07T14:30:32Z</time>
      </trkpt>
      <trkpt lat="46.89364" lon="5.78052">
        <ele>430.7</ele>
        <time>2020-03-07T14:30:38Z</time>
      </trkpt>
      <trkpt lat="46.89374" lon="5.78045">
        <ele>431.8</ele>
        <time>2020-03-07T14:30:52Z</time>
      </trkpt>
      <trkpt lat="46.89377" lon="5.78039">
        <ele>433.2</ele>
        <time>2020-03-07T14:30:57Z</time>
      </trkpt>
      <trkpt lat="46.89381" lon="5.78034">
        <ele>433.8</ele>
        <time>2020-03-07T14:31:00Z</time>
      </trkpt>
      <trkpt lat="46.89385" lon="5.78029">
        <ele>434.4</ele>
        <time>2020-03-07T14:31:07Z</time>
      </trkpt>
      <trkpt lat="46.89391" lon="5.78026">
        <ele>433.8</ele>
        <time>2020-03-07T14:31:16Z</time>
      </trkpt>
      <trkpt lat="46.89396" lon="5.78022">
        <ele>433</ele>
        <time>2020-03-07T14:31:21Z</time>
      </trkpt>
      <trkpt lat="46.894" lon="5.78019">
        <ele>431.8</ele>
        <time>2020-03-07T14:31:26Z</time>
      </trkpt>
      <trkpt lat="46.89405" lon="5.78016">
        <ele>430.5</ele>
        <time>2020-03-07T14:31:31Z</time>
      </trkpt>
      <trkpt lat="46.89409" lon="5.78013">
        <ele>429.1</ele>
        <time>2020-03-07T14:31:36Z</time>
      </trkpt>
      <trkpt lat="46.89414" lon="5.7801">
        <ele>428.1</ele>
        <time>2020-03-07T14:31:39Z</time>
      </trkpt>
      <trkpt lat="46.89418" lon="5.78006">
        <ele>426.8</ele>
        <time>2020-03-07T14:31:43Z</time>
      </trkpt>
      <trkpt lat="46.89423" lon="5.78003">
        <ele>425</ele>
        <time>2020-03-07T14:31:48Z</time>
      </trkpt>
      <trkpt lat="46.89428" lon="5.77998">
        <ele>423.9</ele>
        <time>2020-03-07T14:31:52Z</time>
      </trkpt>
      <trkpt lat="46.89432" lon="5.77994">
        <ele>423.1</ele>
        <time>2020-03-07T14:31:56Z</time>
      </trkpt>
      <trkpt lat="46.89435" lon="5.7799">
        <ele>422.2</ele>
        <time>2020-03-07T14:32:01Z</time>
      </trkpt>
      <trkpt lat="46.89437" lon="5.77983">
        <ele>421</ele>
        <time>2020-03-07T14:32:07Z</time>
      </trkpt>
      <trkpt lat="46.89441" lon="5.77978">
        <ele>420</ele>
        <time>2020-03-07T14:32:12Z</time>
      </trkpt>
      <trkpt lat="46.89445" lon="5.77975">
        <ele>418.6</ele>
        <time>2020-03-07T14:32:18Z</time>
      </trkpt>
      <trkpt lat="46.89449" lon="5.7797">
        <ele>416.8</ele>
        <time>2020-03-07T14:32:24Z</time>
      </trkpt>
      <trkpt lat="46.89453" lon="5.77967">
        <ele>415.9</ele>
        <time>2020-03-07T14:32:28Z</time>
      </trkpt>
      <trkpt lat="46.89457" lon="5.77964">
        <ele>415.3</ele>
        <time>2020-03-07T14:32:31Z</time>
      </trkpt>
      <trkpt lat="46.89462" lon="5.7796">
        <ele>414.3</ele>
        <time>2020-03-07T14:32:35Z</time>
      </trkpt>
      <trkpt lat="46.89467" lon="5.77956">
        <ele>413.6</ele>
        <time>2020-03-07T14:32:38Z</time>
      </trkpt>
      <trkpt lat="46.89471" lon="5.77952">
        <ele>412.4</ele>
        <time>2020-03-07T14:32:43Z</time>
      </trkpt>
      <trkpt lat="46.89483" lon="5.77939">
        <ele>409.2</ele>
        <time>2020-03-07T14:33:01Z</time>
      </trkpt>
      <trkpt lat="46.89488" lon="5.77934">
        <ele>408.9</ele>
        <time>2020-03-07T14:33:05Z</time>
      </trkpt>
      <trkpt lat="46.89492" lon="5.77928">
        <ele>408.7</ele>
        <time>2020-03-07T14:33:08Z</time>
      </trkpt>
      <trkpt lat="46.89494" lon="5.77921">
        <ele>408.5</ele>
        <time>2020-03-07T14:33:11Z</time>
      </trkpt>
      <trkpt lat="46.89495" lon="5.77915">
        <ele>408.5</ele>
        <time>2020-03-07T14:33:14Z</time>
      </trkpt>
      <trkpt lat="46.89498" lon="5.77909">
        <ele>408.6</ele>
        <time>2020-03-07T14:33:18Z</time>
      </trkpt>
      <trkpt lat="46.89503" lon="5.77905">
        <ele>409.2</ele>
        <time>2020-03-07T14:33:23Z</time>
      </trkpt>
      <trkpt lat="46.89507" lon="5.77902">
        <ele>409.7</ele>
        <time>2020-03-07T14:33:28Z</time>
      </trkpt>
      <trkpt lat="46.89512" lon="5.779">
        <ele>410</ele>
        <time>2020-03-07T14:33:34Z</time>
      </trkpt>
      <trkpt lat="46.89517" lon="5.77899">
        <ele>410.5</ele>
        <time>2020-03-07T14:33:40Z</time>
      </trkpt>
      <trkpt lat="46.89522" lon="5.77896">
        <ele>412.8</ele>
        <time>2020-03-07T14:33:52Z</time>
      </trkpt>
      <trkpt lat="46.89527" lon="5.77897">
        <ele>414.9</ele>
        <time>2020-03-07T14:34:08Z</time>
      </trkpt>
      <trkpt lat="46.89531" lon="5.77895">
        <ele>416.3</ele>
        <time>2020-03-07T14:34:16Z</time>
      </trkpt>
      <trkpt lat="46.89536" lon="5.77893">
        <ele>416.7</ele>
        <time>2020-03-07T14:34:21Z</time>
      </trkpt>
      <trkpt lat="46.8954" lon="5.77891">
        <ele>417</ele>
        <time>2020-03-07T14:34:26Z</time>
      </trkpt>
      <trkpt lat="46.89545" lon="5.77889">
        <ele>417.2</ele>
        <time>2020-03-07T14:34:30Z</time>
      </trkpt>
      <trkpt lat="46.89549" lon="5.77887">
        <ele>417.3</ele>
        <time>2020-03-07T14:34:34Z</time>
      </trkpt>
      <trkpt lat="46.89553" lon="5.77883">
        <ele>417</ele>
        <time>2020-03-07T14:34:40Z</time>
      </trkpt>
      <trkpt lat="46.89557" lon="5.77877">
        <ele>416.9</ele>
        <time>2020-03-07T14:34:46Z</time>
      </trkpt>
      <trkpt lat="46.8956" lon="5.77872">
        <ele>416.6</ele>
        <time>2020-03-07T14:34:52Z</time>
      </trkpt>
      <trkpt lat="46.89565" lon="5.77868">
        <ele>415.9</ele>
        <time>2020-03-07T14:34:59Z</time>
      </trkpt>
      <trkpt lat="46.89569" lon="5.77864">
        <ele>415.4</ele>
        <time>2020-03-07T14:35:04Z</time>
      </trkpt>
      <trkpt lat="46.89574" lon="5.77861">
        <ele>414.8</ele>
        <time>2020-03-07T14:35:10Z</time>
      </trkpt>
      <trkpt lat="46.89579" lon="5.77856">
        <ele>414.1</ele>
        <time>2020-03-07T14:35:15Z</time>
      </trkpt>
      <trkpt lat="46.89582" lon="5.77851">
        <ele>413.4</ele>
        <time>2020-03-07T14:35:19Z</time>
      </trkpt>
      <trkpt lat="46.89585" lon="5.77845">
        <ele>412.8</ele>
        <time>2020-03-07T14:35:23Z</time>
      </trkpt>
      <trkpt lat="46.89589" lon="5.7784">
        <ele>412.4</ele>
        <time>2020-03-07T14:35:26Z</time>
      </trkpt>
      <trkpt lat="46.89593" lon="5.77836">
        <ele>411.9</ele>
        <time>2020-03-07T14:35:31Z</time>
      </trkpt>
      <trkpt lat="46.89596" lon="5.7783">
        <ele>411.4</ele>
        <time>2020-03-07T14:35:35Z</time>
      </trkpt>
      <trkpt lat="46.89598" lon="5.77824">
        <ele>410.9</ele>
        <time>2020-03-07T14:35:38Z</time>
      </trkpt>
      <trkpt lat="46.896" lon="5.77818">
        <ele>410.4</ele>
        <time>2020-03-07T14:35:42Z</time>
      </trkpt>
      <trkpt lat="46.896" lon="5.7781">
        <ele>409.5</ele>
        <time>2020-03-07T14:35:48Z</time>
      </trkpt>
      <trkpt lat="46.89603" lon="5.77795">
        <ele>407.5</ele>
        <time>2020-03-07T14:36:03Z</time>
      </trkpt>
      <trkpt lat="46.89603" lon="5.77788">
        <ele>407.6</ele>
        <time>2020-03-07T14:36:12Z</time>
      </trkpt>
      <trkpt lat="46.89606" lon="5.77779">
        <ele>407.6</ele>
        <time>2020-03-07T14:36:17Z</time>
      </trkpt>
      <trkpt lat="46.89608" lon="5.77771">
        <ele>407.3</ele>
        <time>2020-03-07T14:36:21Z</time>
      </trkpt>
      <trkpt lat="46.89608" lon="5.77763">
        <ele>406.6</ele>
        <time>2020-03-07T14:36:25Z</time>
      </trkpt>
      <trkpt lat="46.89608" lon="5.77756">
        <ele>405.7</ele>
        <time>2020-03-07T14:36:30Z</time>
      </trkpt>
      <trkpt lat="46.89607" lon="5.77748">
        <ele>404.6</ele>
        <time>2020-03-07T14:36:35Z</time>
      </trkpt>
      <trkpt lat="46.89607" lon="5.77741">
        <ele>403</ele>
        <time>2020-03-07T14:36:46Z</time>
      </trkpt>
      <trkpt lat="46.89607" lon="5.77734">
        <ele>402.6</ele>
        <time>2020-03-07T14:36:49Z</time>
      </trkpt>
      <trkpt lat="46.89607" lon="5.77727">
        <ele>402.3</ele>
        <time>2020-03-07T14:36:52Z</time>
      </trkpt>
      <trkpt lat="46.89607" lon="5.7772">
        <ele>402.1</ele>
        <time>2020-03-07T14:36:55Z</time>
      </trkpt>
      <trkpt lat="46.89606" lon="5.77713">
        <ele>402.1</ele>
        <time>2020-03-07T14:36:57Z</time>
      </trkpt>
      <trkpt lat="46.89606" lon="5.77706">
        <ele>402.3</ele>
        <time>2020-03-07T14:37:00Z</time>
      </trkpt>
      <trkpt lat="46.89605" lon="5.77699">
        <ele>402.7</ele>
        <time>2020-03-07T14:37:07Z</time>
      </trkpt>
      <trkpt lat="46.89604" lon="5.77692">
        <ele>402.5</ele>
        <time>2020-03-07T14:37:13Z</time>
      </trkpt>
      <trkpt lat="46.89602" lon="5.77686">
        <ele>402.4</ele>
        <time>2020-03-07T14:37:17Z</time>
      </trkpt>
      <trkpt lat="46.89599" lon="5.7768">
        <ele>402.4</ele>
        <time>2020-03-07T14:37:22Z</time>
      </trkpt>
      <trkpt lat="46.89597" lon="5.77673">
        <ele>402.4</ele>
        <time>2020-03-07T14:37:27Z</time>
      </trkpt>
      <trkpt lat="46.896" lon="5.77667">
        <ele>402.5</ele>
        <time>2020-03-07T14:37:34Z</time>
      </trkpt>
      <trkpt lat="46.89603" lon="5.77663">
        <ele>403.3</ele>
        <time>2020-03-07T14:37:42Z</time>
      </trkpt>
      <trkpt lat="46.89598" lon="5.7766">
        <ele>403.6</ele>
        <time>2020-03-07T14:37:57Z</time>
      </trkpt>
      <trkpt lat="46.89594" lon="5.77664">
        <ele>403.1</ele>
        <time>2020-03-07T14:38:03Z</time>
      </trkpt>
      <trkpt lat="46.89592" lon="5.77672">
        <ele>402.7</ele>
        <time>2020-03-07T14:38:07Z</time>
      </trkpt>
      <trkpt lat="46.896" lon="5.77681">
        <ele>405.3</ele>
        <time>2020-03-07T14:40:20Z</time>
      </trkpt>
      <trkpt lat="46.896" lon="5.77689">
        <ele>405.8</ele>
        <time>2020-03-07T14:40:27Z</time>
      </trkpt>
      <trkpt lat="46.89602" lon="5.77697">
        <ele>406.3</ele>
        <time>2020-03-07T14:40:31Z</time>
      </trkpt>
      <trkpt lat="46.89605" lon="5.77703">
        <ele>406.9</ele>
        <time>2020-03-07T14:40:35Z</time>
      </trkpt>
      <trkpt lat="46.89609" lon="5.7771">
        <ele>407.6</ele>
        <time>2020-03-07T14:40:39Z</time>
      </trkpt>
      <trkpt lat="46.89612" lon="5.77717">
        <ele>408.5</ele>
        <time>2020-03-07T14:40:43Z</time>
      </trkpt>
      <trkpt lat="46.89615" lon="5.77722">
        <ele>409.1</ele>
        <time>2020-03-07T14:40:46Z</time>
      </trkpt>
      <trkpt lat="46.89617" lon="5.77728">
        <ele>409.7</ele>
        <time>2020-03-07T14:40:49Z</time>
      </trkpt>
      <trkpt lat="46.89619" lon="5.77734">
        <ele>410.3</ele>
        <time>2020-03-07T14:40:53Z</time>
      </trkpt>
      <trkpt lat="46.89619" lon="5.77741">
        <ele>410.5</ele>
        <time>2020-03-07T14:40:59Z</time>
      </trkpt>
      <trkpt lat="46.89616" lon="5.77747">
        <ele>410.3</ele>
        <time>2020-03-07T14:41:08Z</time>
      </trkpt>
      <trkpt lat="46.89616" lon="5.77754">
        <ele>410.7</ele>
        <time>2020-03-07T14:41:14Z</time>
      </trkpt>
      <trkpt lat="46.89615" lon="5.77761">
        <ele>412.1</ele>
        <time>2020-03-07T14:41:21Z</time>
      </trkpt>
      <trkpt lat="46.89614" lon="5.77769">
        <ele>412.8</ele>
        <time>2020-03-07T14:41:26Z</time>
      </trkpt>
      <trkpt lat="46.89613" lon="5.77776">
        <ele>413.1</ele>
        <time>2020-03-07T14:41:30Z</time>
      </trkpt>
      <trkpt lat="46.8961" lon="5.77781">
        <ele>413.4</ele>
        <time>2020-03-07T14:41:36Z</time>
      </trkpt>
      <trkpt lat="46.89607" lon="5.77787">
        <ele>413.7</ele>
        <time>2020-03-07T14:41:40Z</time>
      </trkpt>
      <trkpt lat="46.89604" lon="5.77792">
        <ele>413.6</ele>
        <time>2020-03-07T14:41:44Z</time>
      </trkpt>
      <trkpt lat="46.89599" lon="5.7781">
        <ele>413.8</ele>
        <time>2020-03-07T14:41:57Z</time>
      </trkpt>
      <trkpt lat="46.89598" lon="5.77818">
        <ele>414.1</ele>
        <time>2020-03-07T14:42:02Z</time>
      </trkpt>
      <trkpt lat="46.89598" lon="5.77825">
        <ele>414.3</ele>
        <time>2020-03-07T14:42:09Z</time>
      </trkpt>
      <trkpt lat="46.89595" lon="5.77831">
        <ele>415</ele>
        <time>2020-03-07T14:42:30Z</time>
      </trkpt>
      <trkpt lat="46.89591" lon="5.77834">
        <ele>420.9</ele>
        <time>2020-03-07T14:43:52Z</time>
      </trkpt>
      <trkpt lat="46.89591" lon="5.77842">
        <ele>421</ele>
        <time>2020-03-07T14:43:57Z</time>
      </trkpt>
      <trkpt lat="46.89591" lon="5.77849">
        <ele>421.5</ele>
        <time>2020-03-07T14:44:00Z</time>
      </trkpt>
      <trkpt lat="46.8959" lon="5.77855">
        <ele>422.5</ele>
        <time>2020-03-07T14:44:04Z</time>
      </trkpt>
      <trkpt lat="46.89586" lon="5.77864">
        <ele>424.5</ele>
        <time>2020-03-07T14:44:10Z</time>
      </trkpt>
      <trkpt lat="46.89583" lon="5.77869">
        <ele>426</ele>
        <time>2020-03-07T14:44:15Z</time>
      </trkpt>
      <trkpt lat="46.89578" lon="5.77873">
        <ele>427</ele>
        <time>2020-03-07T14:44:23Z</time>
      </trkpt>
      <trkpt lat="46.89573" lon="5.77878">
        <ele>427.2</ele>
        <time>2020-03-07T14:44:28Z</time>
      </trkpt>
      <trkpt lat="46.89568" lon="5.77882">
        <ele>427.5</ele>
        <time>2020-03-07T14:44:31Z</time>
      </trkpt>
      <trkpt lat="46.89564" lon="5.77885">
        <ele>428.3</ele>
        <time>2020-03-07T14:44:42Z</time>
      </trkpt>
      <trkpt lat="46.8956" lon="5.77886">
        <ele>426.9</ele>
        <time>2020-03-07T14:45:00Z</time>
      </trkpt>
      <trkpt lat="46.89555" lon="5.77888">
        <ele>423.7</ele>
        <time>2020-03-07T14:45:13Z</time>
      </trkpt>
      <trkpt lat="46.89548" lon="5.77891">
        <ele>422.1</ele>
        <time>2020-03-07T14:45:23Z</time>
      </trkpt>
      <trkpt lat="46.89544" lon="5.77894">
        <ele>422</ele>
        <time>2020-03-07T14:45:26Z</time>
      </trkpt>
      <trkpt lat="46.8954" lon="5.77897">
        <ele>421.8</ele>
        <time>2020-03-07T14:45:31Z</time>
      </trkpt>
      <trkpt lat="46.89534" lon="5.77902">
        <ele>421.7</ele>
        <time>2020-03-07T14:45:36Z</time>
      </trkpt>
      <trkpt lat="46.89527" lon="5.7791">
        <ele>421.6</ele>
        <time>2020-03-07T14:45:38Z</time>
      </trkpt>
      <trkpt lat="46.89522" lon="5.77914">
        <ele>421.5</ele>
        <time>2020-03-07T14:45:40Z</time>
      </trkpt>
      <trkpt lat="46.89518" lon="5.77919">
        <ele>421.3</ele>
        <time>2020-03-07T14:45:43Z</time>
      </trkpt>
      <trkpt lat="46.89515" lon="5.77925">
        <ele>421.2</ele>
        <time>2020-03-07T14:45:46Z</time>
      </trkpt>
      <trkpt lat="46.8951" lon="5.7793">
        <ele>421.1</ele>
        <time>2020-03-07T14:45:50Z</time>
      </trkpt>
      <trkpt lat="46.89506" lon="5.77933">
        <ele>421</ele>
        <time>2020-03-07T14:45:53Z</time>
      </trkpt>
      <trkpt lat="46.89501" lon="5.77936">
        <ele>420.9</ele>
        <time>2020-03-07T14:45:58Z</time>
      </trkpt>
      <trkpt lat="46.89495" lon="5.77941">
        <ele>421</ele>
        <time>2020-03-07T14:46:03Z</time>
      </trkpt>
      <trkpt lat="46.89491" lon="5.77947">
        <ele>421.1</ele>
        <time>2020-03-07T14:46:05Z</time>
      </trkpt>
      <trkpt lat="46.89486" lon="5.77952">
        <ele>421.2</ele>
        <time>2020-03-07T14:46:07Z</time>
      </trkpt>
      <trkpt lat="46.8948" lon="5.77956">
        <ele>421.4</ele>
        <time>2020-03-07T14:46:09Z</time>
      </trkpt>
      <trkpt lat="46.89476" lon="5.7796">
        <ele>421.6</ele>
        <time>2020-03-07T14:46:11Z</time>
      </trkpt>
      <trkpt lat="46.89472" lon="5.77965">
        <ele>422.4</ele>
        <time>2020-03-07T14:46:21Z</time>
      </trkpt>
      <trkpt lat="46.89468" lon="5.77969">
        <ele>422.6</ele>
        <time>2020-03-07T14:46:23Z</time>
      </trkpt>
      <trkpt lat="46.89464" lon="5.77973">
        <ele>422.9</ele>
        <time>2020-03-07T14:46:25Z</time>
      </trkpt>
      <trkpt lat="46.89461" lon="5.77978">
        <ele>423.1</ele>
        <time>2020-03-07T14:46:28Z</time>
      </trkpt>
      <trkpt lat="46.89457" lon="5.77983">
        <ele>423.5</ele>
        <time>2020-03-07T14:46:33Z</time>
      </trkpt>
      <trkpt lat="46.89453" lon="5.77983">
        <ele>423.6</ele>
        <time>2020-03-07T14:46:45Z</time>
      </trkpt>
      <trkpt lat="46.89449" lon="5.77987">
        <ele>423.9</ele>
        <time>2020-03-07T14:46:53Z</time>
      </trkpt>
      <trkpt lat="46.89446" lon="5.77993">
        <ele>424.4</ele>
        <time>2020-03-07T14:47:03Z</time>
      </trkpt>
      <trkpt lat="46.89442" lon="5.77998">
        <ele>424.3</ele>
        <time>2020-03-07T14:47:07Z</time>
      </trkpt>
      <trkpt lat="46.89438" lon="5.78002">
        <ele>424</ele>
        <time>2020-03-07T14:47:12Z</time>
      </trkpt>
      <trkpt lat="46.89434" lon="5.78006">
        <ele>423.6</ele>
        <time>2020-03-07T14:47:20Z</time>
      </trkpt>
      <trkpt lat="46.89429" lon="5.78008">
        <ele>423.1</ele>
        <time>2020-03-07T14:47:26Z</time>
      </trkpt>
      <trkpt lat="46.89425" lon="5.7801">
        <ele>422.4</ele>
        <time>2020-03-07T14:47:36Z</time>
      </trkpt>
      <trkpt lat="46.89421" lon="5.78015">
        <ele>422.1</ele>
        <time>2020-03-07T14:47:44Z</time>
      </trkpt>
      <trkpt lat="46.89418" lon="5.78019">
        <ele>423</ele>
        <time>2020-03-07T14:47:56Z</time>
      </trkpt>
      <trkpt lat="46.89415" lon="5.78026">
        <ele>424.3</ele>
        <time>2020-03-07T14:48:01Z</time>
      </trkpt>
      <trkpt lat="46.89414" lon="5.78032">
        <ele>426.6</ele>
        <time>2020-03-07T14:48:09Z</time>
      </trkpt>
      <trkpt lat="46.89409" lon="5.78044">
        <ele>428.5</ele>
        <time>2020-03-07T14:48:14Z</time>
      </trkpt>
      <trkpt lat="46.89404" lon="5.78054">
        <ele>429.4</ele>
        <time>2020-03-07T14:48:16Z</time>
      </trkpt>
      <trkpt lat="46.894" lon="5.78062">
        <ele>430.3</ele>
        <time>2020-03-07T14:48:18Z</time>
      </trkpt>
      <trkpt lat="46.89397" lon="5.78068">
        <ele>431.2</ele>
        <time>2020-03-07T14:48:20Z</time>
      </trkpt>
      <trkpt lat="46.89394" lon="5.78073">
        <ele>432.9</ele>
        <time>2020-03-07T14:48:24Z</time>
      </trkpt>
      <trkpt lat="46.89382" lon="5.78097">
        <ele>440.4</ele>
        <time>2020-03-07T14:48:46Z</time>
      </trkpt>
      <trkpt lat="46.89377" lon="5.78114">
        <ele>441.3</ele>
        <time>2020-03-07T14:48:56Z</time>
      </trkpt>
      <trkpt lat="46.89374" lon="5.78119">
        <ele>441.6</ele>
        <time>2020-03-07T14:49:00Z</time>
      </trkpt>
      <trkpt lat="46.89369" lon="5.78141">
        <ele>445.1</ele>
        <time>2020-03-07T14:49:20Z</time>
      </trkpt>
      <trkpt lat="46.89366" lon="5.78147">
        <ele>445.5</ele>
        <time>2020-03-07T14:49:26Z</time>
      </trkpt>
      <trkpt lat="46.89362" lon="5.7816">
        <ele>446.6</ele>
        <time>2020-03-07T14:49:38Z</time>
      </trkpt>
      <trkpt lat="46.89355" lon="5.78177">
        <ele>448.7</ele>
        <time>2020-03-07T14:49:53Z</time>
      </trkpt>
      <trkpt lat="46.89351" lon="5.78182">
        <ele>449.1</ele>
        <time>2020-03-07T14:49:57Z</time>
      </trkpt>
      <trkpt lat="46.89348" lon="5.78188">
        <ele>449.8</ele>
        <time>2020-03-07T14:50:02Z</time>
      </trkpt>
      <trkpt lat="46.89345" lon="5.78195">
        <ele>450.3</ele>
        <time>2020-03-07T14:50:07Z</time>
      </trkpt>
      <trkpt lat="46.8934" lon="5.78209">
        <ele>451.6</ele>
        <time>2020-03-07T14:50:18Z</time>
      </trkpt>
      <trkpt lat="46.89341" lon="5.78216">
        <ele>452.3</ele>
        <time>2020-03-07T14:50:25Z</time>
      </trkpt>
      <trkpt lat="46.89341" lon="5.78224">
        <ele>452.7</ele>
        <time>2020-03-07T14:50:31Z</time>
      </trkpt>
      <trkpt lat="46.89339" lon="5.7823">
        <ele>453</ele>
        <time>2020-03-07T14:50:36Z</time>
      </trkpt>
      <trkpt lat="46.89337" lon="5.78237">
        <ele>453.4</ele>
        <time>2020-03-07T14:50:42Z</time>
      </trkpt>
      <trkpt lat="46.89335" lon="5.78243">
        <ele>454.2</ele>
        <time>2020-03-07T14:50:50Z</time>
      </trkpt>
      <trkpt lat="46.89327" lon="5.78259">
        <ele>457.6</ele>
        <time>2020-03-07T14:51:09Z</time>
      </trkpt>
      <trkpt lat="46.89324" lon="5.78264">
        <ele>457.9</ele>
        <time>2020-03-07T14:51:13Z</time>
      </trkpt>
      <trkpt lat="46.89321" lon="5.78269">
        <ele>457.9</ele>
        <time>2020-03-07T14:51:20Z</time>
      </trkpt>
      <trkpt lat="46.89317" lon="5.78273">
        <ele>458</ele>
        <time>2020-03-07T14:51:25Z</time>
      </trkpt>
      <trkpt lat="46.89312" lon="5.78273">
        <ele>458.5</ele>
        <time>2020-03-07T14:51:32Z</time>
      </trkpt>
      <trkpt lat="46.89307" lon="5.78271">
        <ele>458.7</ele>
        <time>2020-03-07T14:51:37Z</time>
      </trkpt>
      <trkpt lat="46.89302" lon="5.78269">
        <ele>458.8</ele>
        <time>2020-03-07T14:51:40Z</time>
      </trkpt>
      <trkpt lat="46.89297" lon="5.78268">
        <ele>458.7</ele>
        <time>2020-03-07T14:51:43Z</time>
      </trkpt>
      <trkpt lat="46.89292" lon="5.78267">
        <ele>458.6</ele>
        <time>2020-03-07T14:51:46Z</time>
      </trkpt>
      <trkpt lat="46.89287" lon="5.78267">
        <ele>458.2</ele>
        <time>2020-03-07T14:51:51Z</time>
      </trkpt>
      <trkpt lat="46.89282" lon="5.78267">
        <ele>458</ele>
        <time>2020-03-07T14:51:54Z</time>
      </trkpt>
      <trkpt lat="46.89276" lon="5.78267">
        <ele>457.4</ele>
        <time>2020-03-07T14:52:00Z</time>
      </trkpt>
      <trkpt lat="46.89251" lon="5.78255">
        <ele>457.3</ele>
        <time>2020-03-07T14:52:26Z</time>
      </trkpt>
      <trkpt lat="46.89247" lon="5.78252">
        <ele>457.4</ele>
        <time>2020-03-07T14:52:29Z</time>
      </trkpt>
      <trkpt lat="46.89242" lon="5.78251">
        <ele>457.6</ele>
        <time>2020-03-07T14:52:36Z</time>
      </trkpt>
      <trkpt lat="46.89237" lon="5.78254">
        <ele>457.3</ele>
        <time>2020-03-07T14:52:39Z</time>
      </trkpt>
      <trkpt lat="46.89232" lon="5.78256">
        <ele>456.7</ele>
        <time>2020-03-07T14:52:49Z</time>
      </trkpt>
      <trkpt lat="46.89228" lon="5.78257">
        <ele>457.1</ele>
        <time>2020-03-07T14:52:54Z</time>
      </trkpt>
      <trkpt lat="46.89223" lon="5.78257">
        <ele>458.9</ele>
        <time>2020-03-07T14:53:04Z</time>
      </trkpt>
      <trkpt lat="46.89218" lon="5.78258">
        <ele>459.7</ele>
        <time>2020-03-07T14:53:09Z</time>
      </trkpt>
      <trkpt lat="46.89213" lon="5.78259">
        <ele>460.2</ele>
        <time>2020-03-07T14:53:13Z</time>
      </trkpt>
      <trkpt lat="46.89207" lon="5.7826">
        <ele>460.5</ele>
        <time>2020-03-07T14:53:16Z</time>
      </trkpt>
      <trkpt lat="46.89203" lon="5.78261">
        <ele>460.8</ele>
        <time>2020-03-07T14:53:20Z</time>
      </trkpt>
      <trkpt lat="46.8919" lon="5.78258">
        <ele>461.3</ele>
        <time>2020-03-07T14:53:32Z</time>
      </trkpt>
      <trkpt lat="46.89184" lon="5.78257">
        <ele>461</ele>
        <time>2020-03-07T14:53:40Z</time>
      </trkpt>
      <trkpt lat="46.89174" lon="5.78253">
        <ele>459.4</ele>
        <time>2020-03-07T14:53:59Z</time>
      </trkpt>
      <trkpt lat="46.89169" lon="5.78253">
        <ele>459.6</ele>
        <time>2020-03-07T14:54:04Z</time>
      </trkpt>
      <trkpt lat="46.89159" lon="5.78261">
        <ele>459.9</ele>
        <time>2020-03-07T14:54:53Z</time>
      </trkpt>
      <trkpt lat="46.89154" lon="5.78267">
        <ele>459.6</ele>
        <time>2020-03-07T14:54:55Z</time>
      </trkpt>
      <trkpt lat="46.8915" lon="5.78274">
        <ele>459.4</ele>
        <time>2020-03-07T14:54:57Z</time>
      </trkpt>
      <trkpt lat="46.89146" lon="5.78279">
        <ele>459.3</ele>
        <time>2020-03-07T14:54:59Z</time>
      </trkpt>
      <trkpt lat="46.89141" lon="5.78283">
        <ele>459.3</ele>
        <time>2020-03-07T14:55:03Z</time>
      </trkpt>
      <trkpt lat="46.89145" lon="5.78292">
        <ele>465</ele>
        <time>2020-03-07T14:55:41Z</time>
      </trkpt>
      <trkpt lat="46.89146" lon="5.78299">
        <ele>466.4</ele>
        <time>2020-03-07T14:55:46Z</time>
      </trkpt>
      <trkpt lat="46.89146" lon="5.78306">
        <ele>467.4</ele>
        <time>2020-03-07T14:55:49Z</time>
      </trkpt>
      <trkpt lat="46.89145" lon="5.78326">
        <ele>471.8</ele>
        <time>2020-03-07T14:56:02Z</time>
      </trkpt>
      <trkpt lat="46.89147" lon="5.78349">
        <ele>475.6</ele>
        <time>2020-03-07T14:56:16Z</time>
      </trkpt>
      <trkpt lat="46.8915" lon="5.78355">
        <ele>476.6</ele>
        <time>2020-03-07T14:56:20Z</time>
      </trkpt>
      <trkpt lat="46.89153" lon="5.78362">
        <ele>478.4</ele>
        <time>2020-03-07T14:56:25Z</time>
      </trkpt>
      <trkpt lat="46.89154" lon="5.78369">
        <ele>479.9</ele>
        <time>2020-03-07T14:56:29Z</time>
      </trkpt>
      <trkpt lat="46.89156" lon="5.78376">
        <ele>481.2</ele>
        <time>2020-03-07T14:56:32Z</time>
      </trkpt>
      <trkpt lat="46.89159" lon="5.78382">
        <ele>482.4</ele>
        <time>2020-03-07T14:56:35Z</time>
      </trkpt>
      <trkpt lat="46.89161" lon="5.78387">
        <ele>483.4</ele>
        <time>2020-03-07T14:56:38Z</time>
      </trkpt>
      <trkpt lat="46.89165" lon="5.78395">
        <ele>484.3</ele>
        <time>2020-03-07T14:56:42Z</time>
      </trkpt>
      <trkpt lat="46.89167" lon="5.78402">
        <ele>485.3</ele>
        <time>2020-03-07T14:56:47Z</time>
      </trkpt>
      <trkpt lat="46.89168" lon="5.78408">
        <ele>486.9</ele>
        <time>2020-03-07T14:56:56Z</time>
      </trkpt>
      <trkpt lat="46.89169" lon="5.78417">
        <ele>486.9</ele>
        <time>2020-03-07T14:57:12Z</time>
      </trkpt>
      <trkpt lat="46.89169" lon="5.78426">
        <ele>496</ele>
        <time>2020-03-07T14:58:47Z</time>
      </trkpt>
      <trkpt lat="46.8917" lon="5.78432">
        <ele>494.7</ele>
        <time>2020-03-07T14:58:51Z</time>
      </trkpt>
      <trkpt lat="46.89172" lon="5.7844">
        <ele>493.8</ele>
        <time>2020-03-07T14:58:55Z</time>
      </trkpt>
      <trkpt lat="46.89174" lon="5.78448">
        <ele>492.8</ele>
        <time>2020-03-07T14:59:00Z</time>
      </trkpt>
      <trkpt lat="46.89176" lon="5.78455">
        <ele>492.2</ele>
        <time>2020-03-07T14:59:05Z</time>
      </trkpt>
      <trkpt lat="46.89177" lon="5.78462">
        <ele>492.2</ele>
        <time>2020-03-07T14:59:12Z</time>
      </trkpt>
      <trkpt lat="46.89179" lon="5.78469">
        <ele>492.5</ele>
        <time>2020-03-07T14:59:15Z</time>
      </trkpt>
      <trkpt lat="46.89178" lon="5.78476">
        <ele>493</ele>
        <time>2020-03-07T14:59:19Z</time>
      </trkpt>
      <trkpt lat="46.8918" lon="5.78483">
        <ele>493.6</ele>
        <time>2020-03-07T14:59:23Z</time>
      </trkpt>
      <trkpt lat="46.89182" lon="5.78489">
        <ele>494.1</ele>
        <time>2020-03-07T14:59:28Z</time>
      </trkpt>
      <trkpt lat="46.89185" lon="5.78494">
        <ele>494.4</ele>
        <time>2020-03-07T14:59:31Z</time>
      </trkpt>
      <trkpt lat="46.89188" lon="5.785">
        <ele>495.1</ele>
        <time>2020-03-07T14:59:35Z</time>
      </trkpt>
      <trkpt lat="46.8919" lon="5.78506">
        <ele>495.6</ele>
        <time>2020-03-07T14:59:38Z</time>
      </trkpt>
      <trkpt lat="46.89192" lon="5.78513">
        <ele>496.1</ele>
        <time>2020-03-07T14:59:41Z</time>
      </trkpt>
      <trkpt lat="46.89194" lon="5.7852">
        <ele>496.6</ele>
        <time>2020-03-07T14:59:45Z</time>
      </trkpt>
      <trkpt lat="46.89196" lon="5.78526">
        <ele>497.3</ele>
        <time>2020-03-07T14:59:50Z</time>
      </trkpt>
      <trkpt lat="46.89197" lon="5.78533">
        <ele>497.6</ele>
        <time>2020-03-07T14:59:55Z</time>
      </trkpt>
      <trkpt lat="46.89202" lon="5.78553">
        <ele>497.3</ele>
        <time>2020-03-07T15:00:14Z</time>
      </trkpt>
      <trkpt lat="46.89202" lon="5.7856">
        <ele>496.5</ele>
        <time>2020-03-07T15:00:19Z</time>
      </trkpt>
      <trkpt lat="46.89202" lon="5.78568">
        <ele>495.6</ele>
        <time>2020-03-07T15:00:24Z</time>
      </trkpt>
      <trkpt lat="46.89204" lon="5.78582">
        <ele>493.2</ele>
        <time>2020-03-07T15:00:34Z</time>
      </trkpt>
      <trkpt lat="46.89207" lon="5.78588">
        <ele>493</ele>
        <time>2020-03-07T15:00:38Z</time>
      </trkpt>
      <trkpt lat="46.89209" lon="5.78594">
        <ele>492.9</ele>
        <time>2020-03-07T15:00:41Z</time>
      </trkpt>
      <trkpt lat="46.89211" lon="5.78602">
        <ele>492.9</ele>
        <time>2020-03-07T15:00:45Z</time>
      </trkpt>
      <trkpt lat="46.89212" lon="5.78609">
        <ele>493</ele>
        <time>2020-03-07T15:00:48Z</time>
      </trkpt>
      <trkpt lat="46.89212" lon="5.78616">
        <ele>493.1</ele>
        <time>2020-03-07T15:00:52Z</time>
      </trkpt>
      <trkpt lat="46.89212" lon="5.78623">
        <ele>493.2</ele>
        <time>2020-03-07T15:00:56Z</time>
      </trkpt>
      <trkpt lat="46.89212" lon="5.7863">
        <ele>493.2</ele>
        <time>2020-03-07T15:01:00Z</time>
      </trkpt>
      <trkpt lat="46.89214" lon="5.78637">
        <ele>493.3</ele>
        <time>2020-03-07T15:01:07Z</time>
      </trkpt>
      <trkpt lat="46.89215" lon="5.78645">
        <ele>493.3</ele>
        <time>2020-03-07T15:01:13Z</time>
      </trkpt>
      <trkpt lat="46.89217" lon="5.78651">
        <ele>493.2</ele>
        <time>2020-03-07T15:01:17Z</time>
      </trkpt>
      <trkpt lat="46.8922" lon="5.78656">
        <ele>493</ele>
        <time>2020-03-07T15:01:20Z</time>
      </trkpt>
      <trkpt lat="46.89224" lon="5.78661">
        <ele>492.7</ele>
        <time>2020-03-07T15:01:23Z</time>
      </trkpt>
      <trkpt lat="46.89227" lon="5.78667">
        <ele>492.1</ele>
        <time>2020-03-07T15:01:29Z</time>
      </trkpt>
      <trkpt lat="46.89229" lon="5.78674">
        <ele>491.7</ele>
        <time>2020-03-07T15:01:34Z</time>
      </trkpt>
      <trkpt lat="46.89236" lon="5.78694">
        <ele>490.7</ele>
        <time>2020-03-07T15:01:50Z</time>
      </trkpt>
      <trkpt lat="46.89245" lon="5.78711">
        <ele>488.2</ele>
        <time>2020-03-07T15:02:03Z</time>
      </trkpt>
      <trkpt lat="46.89248" lon="5.78715">
        <ele>488.1</ele>
        <time>2020-03-07T15:02:07Z</time>
      </trkpt>
      <trkpt lat="46.89258" lon="5.78743">
        <ele>486.9</ele>
        <time>2020-03-07T15:02:27Z</time>
      </trkpt>
      <trkpt lat="46.89259" lon="5.7875">
        <ele>486.9</ele>
        <time>2020-03-07T15:02:30Z</time>
      </trkpt>
      <trkpt lat="46.89259" lon="5.78756">
        <ele>487</ele>
        <time>2020-03-07T15:02:33Z</time>
      </trkpt>
      <trkpt lat="46.89261" lon="5.78764">
        <ele>487.2</ele>
        <time>2020-03-07T15:02:40Z</time>
      </trkpt>
      <trkpt lat="46.89265" lon="5.78769">
        <ele>487.3</ele>
        <time>2020-03-07T15:02:43Z</time>
      </trkpt>
      <trkpt lat="46.89268" lon="5.78777">
        <ele>487.8</ele>
        <time>2020-03-07T15:02:47Z</time>
      </trkpt>
      <trkpt lat="46.89269" lon="5.78787">
        <ele>488.6</ele>
        <time>2020-03-07T15:02:51Z</time>
      </trkpt>
      <trkpt lat="46.89269" lon="5.78794">
        <ele>489.7</ele>
        <time>2020-03-07T15:02:55Z</time>
      </trkpt>
      <trkpt lat="46.89265" lon="5.78801">
        <ele>490.1</ele>
        <time>2020-03-07T15:02:57Z</time>
      </trkpt>
      <trkpt lat="46.89266" lon="5.7881">
        <ele>490.6</ele>
        <time>2020-03-07T15:02:59Z</time>
      </trkpt>
      <trkpt lat="46.89267" lon="5.78817">
        <ele>491</ele>
        <time>2020-03-07T15:03:01Z</time>
      </trkpt>
      <trkpt lat="46.89268" lon="5.78824">
        <ele>492</ele>
        <time>2020-03-07T15:03:06Z</time>
      </trkpt>
      <trkpt lat="46.89269" lon="5.78831">
        <ele>492.8</ele>
        <time>2020-03-07T15:03:13Z</time>
      </trkpt>
      <trkpt lat="46.89271" lon="5.78837">
        <ele>493.4</ele>
        <time>2020-03-07T15:03:18Z</time>
      </trkpt>
      <trkpt lat="46.89273" lon="5.78843">
        <ele>493.9</ele>
        <time>2020-03-07T15:03:25Z</time>
      </trkpt>
      <trkpt lat="46.89271" lon="5.78849">
        <ele>494.2</ele>
        <time>2020-03-07T15:03:28Z</time>
      </trkpt>
      <trkpt lat="46.89271" lon="5.78857">
        <ele>494.5</ele>
        <time>2020-03-07T15:03:32Z</time>
      </trkpt>
      <trkpt lat="46.8927" lon="5.78864">
        <ele>494.7</ele>
        <time>2020-03-07T15:03:35Z</time>
      </trkpt>
      <trkpt lat="46.8927" lon="5.78872">
        <ele>495</ele>
        <time>2020-03-07T15:03:39Z</time>
      </trkpt>
      <trkpt lat="46.89272" lon="5.78879">
        <ele>495.2</ele>
        <time>2020-03-07T15:03:42Z</time>
      </trkpt>
      <trkpt lat="46.89274" lon="5.78886">
        <ele>495.7</ele>
        <time>2020-03-07T15:03:46Z</time>
      </trkpt>
      <trkpt lat="46.89283" lon="5.78899">
        <ele>497.2</ele>
        <time>2020-03-07T15:03:59Z</time>
      </trkpt>
      <trkpt lat="46.89287" lon="5.78901">
        <ele>497.1</ele>
        <time>2020-03-07T15:04:04Z</time>
      </trkpt>
      <trkpt lat="46.89291" lon="5.78906">
        <ele>496.5</ele>
        <time>2020-03-07T15:04:11Z</time>
      </trkpt>
      <trkpt lat="46.89294" lon="5.78912">
        <ele>496</ele>
        <time>2020-03-07T15:04:17Z</time>
      </trkpt>
      <trkpt lat="46.89298" lon="5.78916">
        <ele>495.7</ele>
        <time>2020-03-07T15:04:24Z</time>
      </trkpt>
      <trkpt lat="46.89302" lon="5.78918">
        <ele>496</ele>
        <time>2020-03-07T15:04:31Z</time>
      </trkpt>
      <trkpt lat="46.89307" lon="5.78921">
        <ele>495.6</ele>
        <time>2020-03-07T15:04:40Z</time>
      </trkpt>
      <trkpt lat="46.89316" lon="5.78925">
        <ele>492.8</ele>
        <time>2020-03-07T15:04:54Z</time>
      </trkpt>
      <trkpt lat="46.89321" lon="5.78927">
        <ele>492</ele>
        <time>2020-03-07T15:04:59Z</time>
      </trkpt>
      <trkpt lat="46.89326" lon="5.78929">
        <ele>491.5</ele>
        <time>2020-03-07T15:05:02Z</time>
      </trkpt>
      <trkpt lat="46.8933" lon="5.78933">
        <ele>491.2</ele>
        <time>2020-03-07T15:05:09Z</time>
      </trkpt>
      <trkpt lat="46.89334" lon="5.78938">
        <ele>491.5</ele>
        <time>2020-03-07T15:05:16Z</time>
      </trkpt>
      <trkpt lat="46.89338" lon="5.78943">
        <ele>491.6</ele>
        <time>2020-03-07T15:05:20Z</time>
      </trkpt>
      <trkpt lat="46.8934" lon="5.78949">
        <ele>491.7</ele>
        <time>2020-03-07T15:05:23Z</time>
      </trkpt>
      <trkpt lat="46.89342" lon="5.78956">
        <ele>491.9</ele>
        <time>2020-03-07T15:05:29Z</time>
      </trkpt>
      <trkpt lat="46.8935" lon="5.78959">
        <ele>491.5</ele>
        <time>2020-03-07T15:05:39Z</time>
      </trkpt>
      <trkpt lat="46.89354" lon="5.78962">
        <ele>490.9</ele>
        <time>2020-03-07T15:05:48Z</time>
      </trkpt>
      <trkpt lat="46.89357" lon="5.78968">
        <ele>490.8</ele>
        <time>2020-03-07T15:05:55Z</time>
      </trkpt>
      <trkpt lat="46.89356" lon="5.78976">
        <ele>490.9</ele>
        <time>2020-03-07T15:05:59Z</time>
      </trkpt>
      <trkpt lat="46.89358" lon="5.78983">
        <ele>491.2</ele>
        <time>2020-03-07T15:06:02Z</time>
      </trkpt>
      <trkpt lat="46.89359" lon="5.78991">
        <ele>491.8</ele>
        <time>2020-03-07T15:06:06Z</time>
      </trkpt>
      <trkpt lat="46.89359" lon="5.78998">
        <ele>492.4</ele>
        <time>2020-03-07T15:06:11Z</time>
      </trkpt>
      <trkpt lat="46.89361" lon="5.79005">
        <ele>493</ele>
        <time>2020-03-07T15:06:17Z</time>
      </trkpt>
      <trkpt lat="46.89358" lon="5.79011">
        <ele>493.2</ele>
        <time>2020-03-07T15:06:23Z</time>
      </trkpt>
      <trkpt lat="46.89356" lon="5.79019">
        <ele>493.7</ele>
        <time>2020-03-07T15:06:28Z</time>
      </trkpt>
      <trkpt lat="46.89357" lon="5.79026">
        <ele>494.4</ele>
        <time>2020-03-07T15:06:32Z</time>
      </trkpt>
      <trkpt lat="46.89355" lon="5.79033">
        <ele>495.4</ele>
        <time>2020-03-07T15:06:37Z</time>
      </trkpt>
      <trkpt lat="46.89353" lon="5.7904">
        <ele>496</ele>
        <time>2020-03-07T15:06:40Z</time>
      </trkpt>
      <trkpt lat="46.89352" lon="5.79047">
        <ele>497</ele>
        <time>2020-03-07T15:06:44Z</time>
      </trkpt>
      <trkpt lat="46.8936" lon="5.79068">
        <ele>500.1</ele>
        <time>2020-03-07T15:06:55Z</time>
      </trkpt>
      <trkpt lat="46.89364" lon="5.79074">
        <ele>500.7</ele>
        <time>2020-03-07T15:07:01Z</time>
      </trkpt>
      <trkpt lat="46.89365" lon="5.79081">
        <ele>500.8</ele>
        <time>2020-03-07T15:07:06Z</time>
      </trkpt>
      <trkpt lat="46.89363" lon="5.79087">
        <ele>500.6</ele>
        <time>2020-03-07T15:07:12Z</time>
      </trkpt>
      <trkpt lat="46.89364" lon="5.79096">
        <ele>500.1</ele>
        <time>2020-03-07T15:07:19Z</time>
      </trkpt>
      <trkpt lat="46.89367" lon="5.79102">
        <ele>499.8</ele>
        <time>2020-03-07T15:07:25Z</time>
      </trkpt>
      <trkpt lat="46.8937" lon="5.79107">
        <ele>499.3</ele>
        <time>2020-03-07T15:07:32Z</time>
      </trkpt>
      <trkpt lat="46.89374" lon="5.79111">
        <ele>499.1</ele>
        <time>2020-03-07T15:07:35Z</time>
      </trkpt>
      <trkpt lat="46.89378" lon="5.79116">
        <ele>498.8</ele>
        <time>2020-03-07T15:07:38Z</time>
      </trkpt>
      <trkpt lat="46.8938" lon="5.79121">
        <ele>498.5</ele>
        <time>2020-03-07T15:07:42Z</time>
      </trkpt>
      <trkpt lat="46.89382" lon="5.79128">
        <ele>498.1</ele>
        <time>2020-03-07T15:07:48Z</time>
      </trkpt>
      <trkpt lat="46.89385" lon="5.79135">
        <ele>497.7</ele>
        <time>2020-03-07T15:07:53Z</time>
      </trkpt>
      <trkpt lat="46.89386" lon="5.79142">
        <ele>497.7</ele>
        <time>2020-03-07T15:08:00Z</time>
      </trkpt>
      <trkpt lat="46.89387" lon="5.7915">
        <ele>497.7</ele>
        <time>2020-03-07T15:08:05Z</time>
      </trkpt>
      <trkpt lat="46.89388" lon="5.79157">
        <ele>497.7</ele>
        <time>2020-03-07T15:08:09Z</time>
      </trkpt>
      <trkpt lat="46.89387" lon="5.79165">
        <ele>497.4</ele>
        <time>2020-03-07T15:08:14Z</time>
      </trkpt>
      <trkpt lat="46.89384" lon="5.79171">
        <ele>497.3</ele>
        <time>2020-03-07T15:08:20Z</time>
      </trkpt>
      <trkpt lat="46.89384" lon="5.79178">
        <ele>497.4</ele>
        <time>2020-03-07T15:08:27Z</time>
      </trkpt>
      <trkpt lat="46.89383" lon="5.79184">
        <ele>497.3</ele>
        <time>2020-03-07T15:08:33Z</time>
      </trkpt>
      <trkpt lat="46.89381" lon="5.79191">
        <ele>497.5</ele>
        <time>2020-03-07T15:08:38Z</time>
      </trkpt>
      <trkpt lat="46.89382" lon="5.79199">
        <ele>497.6</ele>
        <time>2020-03-07T15:08:41Z</time>
      </trkpt>
      <trkpt lat="46.89384" lon="5.79207">
        <ele>497.9</ele>
        <time>2020-03-07T15:08:45Z</time>
      </trkpt>
      <trkpt lat="46.89386" lon="5.79214">
        <ele>498.4</ele>
        <time>2020-03-07T15:08:49Z</time>
      </trkpt>
      <trkpt lat="46.89387" lon="5.79221">
        <ele>498.8</ele>
        <time>2020-03-07T15:08:53Z</time>
      </trkpt>
      <trkpt lat="46.8939" lon="5.79226">
        <ele>498.8</ele>
        <time>2020-03-07T15:08:56Z</time>
      </trkpt>
      <trkpt lat="46.89392" lon="5.79232">
        <ele>498.8</ele>
        <time>2020-03-07T15:09:03Z</time>
      </trkpt>
      <trkpt lat="46.89396" lon="5.79237">
        <ele>498.6</ele>
        <time>2020-03-07T15:09:08Z</time>
      </trkpt>
      <trkpt lat="46.89397" lon="5.79244">
        <ele>498.2</ele>
        <time>2020-03-07T15:09:13Z</time>
      </trkpt>
      <trkpt lat="46.894" lon="5.7925">
        <ele>498.1</ele>
        <time>2020-03-07T15:09:18Z</time>
      </trkpt>
      <trkpt lat="46.89403" lon="5.79257">
        <ele>498.1</ele>
        <time>2020-03-07T15:09:23Z</time>
      </trkpt>
      <trkpt lat="46.89405" lon="5.79262">
        <ele>498.3</ele>
        <time>2020-03-07T15:09:28Z</time>
      </trkpt>
      <trkpt lat="46.89409" lon="5.7927">
        <ele>498.6</ele>
        <time>2020-03-07T15:09:33Z</time>
      </trkpt>
      <trkpt lat="46.8941" lon="5.79276">
        <ele>498.9</ele>
        <time>2020-03-07T15:09:38Z</time>
      </trkpt>
      <trkpt lat="46.89413" lon="5.79282">
        <ele>498.6</ele>
        <time>2020-03-07T15:09:49Z</time>
      </trkpt>
      <trkpt lat="46.8941" lon="5.79288">
        <ele>496.9</ele>
        <time>2020-03-07T15:10:06Z</time>
      </trkpt>
      <trkpt lat="46.89402" lon="5.79297">
        <ele>495.3</ele>
        <time>2020-03-07T15:10:28Z</time>
      </trkpt>
      <trkpt lat="46.89397" lon="5.79299">
        <ele>495.2</ele>
        <time>2020-03-07T15:10:33Z</time>
      </trkpt>
      <trkpt lat="46.89392" lon="5.79302">
        <ele>495</ele>
        <time>2020-03-07T15:10:39Z</time>
      </trkpt>
      <trkpt lat="46.89388" lon="5.79305">
        <ele>494.7</ele>
        <time>2020-03-07T15:10:44Z</time>
      </trkpt>
      <trkpt lat="46.89383" lon="5.79307">
        <ele>493.7</ele>
        <time>2020-03-07T15:10:55Z</time>
      </trkpt>
      <trkpt lat="46.89378" lon="5.79306">
        <ele>493.1</ele>
        <time>2020-03-07T15:11:03Z</time>
      </trkpt>
      <trkpt lat="46.89374" lon="5.79305">
        <ele>492.6</ele>
        <time>2020-03-07T15:11:10Z</time>
      </trkpt>
      <trkpt lat="46.89369" lon="5.79306">
        <ele>493.1</ele>
        <time>2020-03-07T15:11:21Z</time>
      </trkpt>
      <trkpt lat="46.89364" lon="5.79305">
        <ele>494.2</ele>
        <time>2020-03-07T15:11:30Z</time>
      </trkpt>
      <trkpt lat="46.89359" lon="5.79305">
        <ele>494.8</ele>
        <time>2020-03-07T15:11:39Z</time>
      </trkpt>
      <trkpt lat="46.89354" lon="5.79303">
        <ele>494.7</ele>
        <time>2020-03-07T15:11:47Z</time>
      </trkpt>
      <trkpt lat="46.8935" lon="5.79302">
        <ele>494.2</ele>
        <time>2020-03-07T15:11:58Z</time>
      </trkpt>
      <trkpt lat="46.89329" lon="5.79312">
        <ele>502.4</ele>
        <time>2020-03-07T15:14:51Z</time>
      </trkpt>
      <trkpt lat="46.89321" lon="5.79315">
        <ele>506.2</ele>
        <time>2020-03-07T15:15:39Z</time>
      </trkpt>
      <trkpt lat="46.89317" lon="5.79319">
        <ele>507.5</ele>
        <time>2020-03-07T15:15:47Z</time>
      </trkpt>
      <trkpt lat="46.89313" lon="5.79319">
        <ele>508.7</ele>
        <time>2020-03-07T15:15:53Z</time>
      </trkpt>
      <trkpt lat="46.893" lon="5.79314">
        <ele>510.7</ele>
        <time>2020-03-07T15:16:27Z</time>
      </trkpt>
      <trkpt lat="46.89284" lon="5.79323">
        <ele>514</ele>
        <time>2020-03-07T15:16:54Z</time>
      </trkpt>
      <trkpt lat="46.89278" lon="5.79325">
        <ele>514.6</ele>
        <time>2020-03-07T15:16:57Z</time>
      </trkpt>
      <trkpt lat="46.89274" lon="5.79327">
        <ele>515</ele>
        <time>2020-03-07T15:16:59Z</time>
      </trkpt>
      <trkpt lat="46.89268" lon="5.79328">
        <ele>515.5</ele>
        <time>2020-03-07T15:17:02Z</time>
      </trkpt>
      <trkpt lat="46.89263" lon="5.79326">
        <ele>516</ele>
        <time>2020-03-07T15:17:05Z</time>
      </trkpt>
      <trkpt lat="46.89258" lon="5.79326">
        <ele>516.5</ele>
        <time>2020-03-07T15:17:09Z</time>
      </trkpt>
      <trkpt lat="46.89254" lon="5.79326">
        <ele>516.8</ele>
        <time>2020-03-07T15:17:12Z</time>
      </trkpt>
      <trkpt lat="46.89249" lon="5.79327">
        <ele>517.5</ele>
        <time>2020-03-07T15:17:18Z</time>
      </trkpt>
      <trkpt lat="46.89244" lon="5.79327">
        <ele>518.8</ele>
        <time>2020-03-07T15:17:26Z</time>
      </trkpt>
      <trkpt lat="46.8924" lon="5.79326">
        <ele>520</ele>
        <time>2020-03-07T15:17:36Z</time>
      </trkpt>
      <trkpt lat="46.89235" lon="5.79328">
        <ele>520.7</ele>
        <time>2020-03-07T15:17:42Z</time>
      </trkpt>
      <trkpt lat="46.89231" lon="5.79331">
        <ele>522.4</ele>
        <time>2020-03-07T15:17:58Z</time>
      </trkpt>
      <trkpt lat="46.89227" lon="5.79335">
        <ele>524.8</ele>
        <time>2020-03-07T15:18:12Z</time>
      </trkpt>
      <trkpt lat="46.89226" lon="5.79341">
        <ele>526.1</ele>
        <time>2020-03-07T15:18:20Z</time>
      </trkpt>
      <trkpt lat="46.89221" lon="5.79345">
        <ele>527.5</ele>
        <time>2020-03-07T15:18:30Z</time>
      </trkpt>
      <trkpt lat="46.89217" lon="5.79348">
        <ele>529</ele>
        <time>2020-03-07T15:18:45Z</time>
      </trkpt>
      <trkpt lat="46.89213" lon="5.79351">
        <ele>536</ele>
        <time>2020-03-07T15:21:27Z</time>
      </trkpt>
      <trkpt lat="46.89208" lon="5.79352">
        <ele>536.3</ele>
        <time>2020-03-07T15:21:31Z</time>
      </trkpt>
      <trkpt lat="46.89203" lon="5.79353">
        <ele>536.4</ele>
        <time>2020-03-07T15:21:46Z</time>
      </trkpt>
      <trkpt lat="46.89196" lon="5.79369">
        <ele>534.8</ele>
        <time>2020-03-07T15:22:48Z</time>
      </trkpt>
      <trkpt lat="46.89177" lon="5.79369">
        <ele>523.6</ele>
        <time>2020-03-07T15:24:23Z</time>
      </trkpt>
      <trkpt lat="46.89169" lon="5.79378">
        <ele>522.6</ele>
        <time>2020-03-07T15:24:36Z</time>
      </trkpt>
      <trkpt lat="46.89159" lon="5.79399">
        <ele>515.7</ele>
        <time>2020-03-07T15:25:52Z</time>
      </trkpt>
      <trkpt lat="46.89156" lon="5.79404">
        <ele>515.7</ele>
        <time>2020-03-07T15:26:02Z</time>
      </trkpt>
      <trkpt lat="46.89154" lon="5.7941">
        <ele>515.3</ele>
        <time>2020-03-07T15:26:09Z</time>
      </trkpt>
      <trkpt lat="46.89145" lon="5.7942">
        <ele>517.9</ele>
        <time>2020-03-07T15:26:45Z</time>
      </trkpt>
      <trkpt lat="46.89142" lon="5.79425">
        <ele>517.7</ele>
        <time>2020-03-07T15:26:50Z</time>
      </trkpt>
      <trkpt lat="46.89139" lon="5.79429">
        <ele>517.6</ele>
        <time>2020-03-07T15:26:56Z</time>
      </trkpt>
      <trkpt lat="46.8913" lon="5.79442">
        <ele>517.9</ele>
        <time>2020-03-07T15:27:17Z</time>
      </trkpt>
      <trkpt lat="46.89123" lon="5.79461">
        <ele>517.1</ele>
        <time>2020-03-07T15:27:41Z</time>
      </trkpt>
      <trkpt lat="46.89115" lon="5.79472">
        <ele>517.9</ele>
        <time>2020-03-07T15:28:05Z</time>
      </trkpt>
      <trkpt lat="46.8911" lon="5.79481">
        <ele>517.6</ele>
        <time>2020-03-07T15:28:48Z</time>
      </trkpt>
      <trkpt lat="46.89103" lon="5.79499">
        <ele>510.5</ele>
        <time>2020-03-07T15:29:10Z</time>
      </trkpt>
      <trkpt lat="46.89096" lon="5.79506">
        <ele>510.9</ele>
        <time>2020-03-07T15:29:32Z</time>
      </trkpt>
      <trkpt lat="46.89092" lon="5.7951">
        <ele>512</ele>
        <time>2020-03-07T15:29:43Z</time>
      </trkpt>
      <trkpt lat="46.89087" lon="5.79514">
        <ele>512.5</ele>
        <time>2020-03-07T15:29:47Z</time>
      </trkpt>
      <trkpt lat="46.89082" lon="5.79517">
        <ele>513.3</ele>
        <time>2020-03-07T15:29:53Z</time>
      </trkpt>
      <trkpt lat="46.8907" lon="5.79525">
        <ele>515.3</ele>
        <time>2020-03-07T15:30:05Z</time>
      </trkpt>
      <trkpt lat="46.89058" lon="5.79535">
        <ele>516</ele>
        <time>2020-03-07T15:30:16Z</time>
      </trkpt>
      <trkpt lat="46.89054" lon="5.79539">
        <ele>515.7</ele>
        <time>2020-03-07T15:30:22Z</time>
      </trkpt>
      <trkpt lat="46.89035" lon="5.79552">
        <ele>516.5</ele>
        <time>2020-03-07T15:31:00Z</time>
      </trkpt>
      <trkpt lat="46.8903" lon="5.79553">
        <ele>516.5</ele>
        <time>2020-03-07T15:31:07Z</time>
      </trkpt>
      <trkpt lat="46.89019" lon="5.79561">
        <ele>517.3</ele>
        <time>2020-03-07T15:31:35Z</time>
      </trkpt>
      <trkpt lat="46.89014" lon="5.79561">
        <ele>517.4</ele>
        <time>2020-03-07T15:31:38Z</time>
      </trkpt>
      <trkpt lat="46.89009" lon="5.7956">
        <ele>517.3</ele>
        <time>2020-03-07T15:31:43Z</time>
      </trkpt>
      <trkpt lat="46.89003" lon="5.79556">
        <ele>517.1</ele>
        <time>2020-03-07T15:31:47Z</time>
      </trkpt>
      <trkpt lat="46.88998" lon="5.79553">
        <ele>517</ele>
        <time>2020-03-07T15:31:49Z</time>
      </trkpt>
      <trkpt lat="46.88992" lon="5.79553">
        <ele>516.9</ele>
        <time>2020-03-07T15:31:52Z</time>
      </trkpt>
      <trkpt lat="46.88988" lon="5.79557">
        <ele>516.9</ele>
        <time>2020-03-07T15:32:00Z</time>
      </trkpt>
      <trkpt lat="46.88983" lon="5.79559">
        <ele>517</ele>
        <time>2020-03-07T15:32:04Z</time>
      </trkpt>
      <trkpt lat="46.8898" lon="5.79564">
        <ele>517.1</ele>
        <time>2020-03-07T15:32:13Z</time>
      </trkpt>
      <trkpt lat="46.88976" lon="5.79568">
        <ele>517</ele>
        <time>2020-03-07T15:32:17Z</time>
      </trkpt>
      <trkpt lat="46.88973" lon="5.79573">
        <ele>517.1</ele>
        <time>2020-03-07T15:32:22Z</time>
      </trkpt>
      <trkpt lat="46.88969" lon="5.79578">
        <ele>517</ele>
        <time>2020-03-07T15:32:29Z</time>
      </trkpt>
      <trkpt lat="46.88964" lon="5.79583">
        <ele>517</ele>
        <time>2020-03-07T15:32:37Z</time>
      </trkpt>
      <trkpt lat="46.8896" lon="5.79587">
        <ele>517.1</ele>
        <time>2020-03-07T15:32:43Z</time>
      </trkpt>
      <trkpt lat="46.88956" lon="5.79591">
        <ele>517.2</ele>
        <time>2020-03-07T15:32:46Z</time>
      </trkpt>
      <trkpt lat="46.88951" lon="5.79594">
        <ele>517.3</ele>
        <time>2020-03-07T15:32:49Z</time>
      </trkpt>
      <trkpt lat="46.88947" lon="5.79599">
        <ele>517.2</ele>
        <time>2020-03-07T15:32:52Z</time>
      </trkpt>
      <trkpt lat="46.8894" lon="5.79606">
        <ele>518.5</ele>
        <time>2020-03-07T15:33:08Z</time>
      </trkpt>
      <trkpt lat="46.88935" lon="5.7961">
        <ele>519.4</ele>
        <time>2020-03-07T15:33:15Z</time>
      </trkpt>
      <trkpt lat="46.8893" lon="5.79615">
        <ele>519.6</ele>
        <time>2020-03-07T15:33:17Z</time>
      </trkpt>
      <trkpt lat="46.88925" lon="5.79618">
        <ele>519.8</ele>
        <time>2020-03-07T15:33:19Z</time>
      </trkpt>
      <trkpt lat="46.88921" lon="5.79622">
        <ele>520.1</ele>
        <time>2020-03-07T15:33:22Z</time>
      </trkpt>
      <trkpt lat="46.88917" lon="5.79627">
        <ele>520.6</ele>
        <time>2020-03-07T15:33:27Z</time>
      </trkpt>
      <trkpt lat="46.88914" lon="5.79632">
        <ele>521.5</ele>
        <time>2020-03-07T15:33:36Z</time>
      </trkpt>
      <trkpt lat="46.88911" lon="5.79637">
        <ele>523.2</ele>
        <time>2020-03-07T15:33:56Z</time>
      </trkpt>
      <trkpt lat="46.88908" lon="5.79642">
        <ele>523.3</ele>
        <time>2020-03-07T15:34:01Z</time>
      </trkpt>
      <trkpt lat="46.88904" lon="5.79646">
        <ele>523.3</ele>
        <time>2020-03-07T15:34:05Z</time>
      </trkpt>
      <trkpt lat="46.88901" lon="5.79651">
        <ele>523.1</ele>
        <time>2020-03-07T15:34:10Z</time>
      </trkpt>
      <trkpt lat="46.88897" lon="5.79654">
        <ele>522.2</ele>
        <time>2020-03-07T15:34:17Z</time>
      </trkpt>
      <trkpt lat="46.88892" lon="5.79657">
        <ele>521.5</ele>
        <time>2020-03-07T15:34:24Z</time>
      </trkpt>
      <trkpt lat="46.88886" lon="5.79661">
        <ele>520.2</ele>
        <time>2020-03-07T15:34:37Z</time>
      </trkpt>
      <trkpt lat="46.88882" lon="5.79665">
        <ele>521</ele>
        <time>2020-03-07T15:34:57Z</time>
      </trkpt>
      <trkpt lat="46.88868" lon="5.79681">
        <ele>521.3</ele>
        <time>2020-03-07T15:35:09Z</time>
      </trkpt>
      <trkpt lat="46.88863" lon="5.7968">
        <ele>521.3</ele>
        <time>2020-03-07T15:35:11Z</time>
      </trkpt>
      <trkpt lat="46.88856" lon="5.7968">
        <ele>521.2</ele>
        <time>2020-03-07T15:35:13Z</time>
      </trkpt>
      <trkpt lat="46.88851" lon="5.79679">
        <ele>521</ele>
        <time>2020-03-07T15:35:16Z</time>
      </trkpt>
      <trkpt lat="46.88845" lon="5.79681">
        <ele>520.3</ele>
        <time>2020-03-07T15:35:28Z</time>
      </trkpt>
      <trkpt lat="46.88837" lon="5.79683">
        <ele>520.3</ele>
        <time>2020-03-07T15:36:09Z</time>
      </trkpt>
      <trkpt lat="46.88832" lon="5.79685">
        <ele>519.8</ele>
        <time>2020-03-07T15:36:13Z</time>
      </trkpt>
      <trkpt lat="46.88803" lon="5.79709">
        <ele>515.4</ele>
        <time>2020-03-07T15:37:10Z</time>
      </trkpt>
      <trkpt lat="46.88782" lon="5.7972">
        <ele>514.8</ele>
        <time>2020-03-07T15:37:48Z</time>
      </trkpt>
      <trkpt lat="46.88763" lon="5.79727">
        <ele>513.8</ele>
        <time>2020-03-07T15:38:21Z</time>
      </trkpt>
      <trkpt lat="46.88741" lon="5.79722">
        <ele>513.8</ele>
        <time>2020-03-07T15:39:01Z</time>
      </trkpt>
      <trkpt lat="46.88729" lon="5.79726">
        <ele>514.6</ele>
        <time>2020-03-07T15:39:20Z</time>
      </trkpt>
      <trkpt lat="46.88724" lon="5.79726">
        <ele>515.2</ele>
        <time>2020-03-07T15:39:28Z</time>
      </trkpt>
      <trkpt lat="46.88719" lon="5.79727">
        <ele>515.4</ele>
        <time>2020-03-07T15:39:31Z</time>
      </trkpt>
      <trkpt lat="46.88714" lon="5.79728">
        <ele>515.7</ele>
        <time>2020-03-07T15:39:41Z</time>
      </trkpt>
      <trkpt lat="46.88706" lon="5.79727">
        <ele>516.5</ele>
        <time>2020-03-07T15:39:53Z</time>
      </trkpt>
      <trkpt lat="46.88699" lon="5.79725">
        <ele>516.4</ele>
        <time>2020-03-07T15:39:56Z</time>
      </trkpt>
      <trkpt lat="46.88695" lon="5.79722">
        <ele>516.3</ele>
        <time>2020-03-07T15:39:58Z</time>
      </trkpt>
      <trkpt lat="46.88688" lon="5.79719">
        <ele>516</ele>
        <time>2020-03-07T15:40:01Z</time>
      </trkpt>
      <trkpt lat="46.88681" lon="5.79718">
        <ele>515.6</ele>
        <time>2020-03-07T15:40:03Z</time>
      </trkpt>
      <trkpt lat="46.88658" lon="5.79719">
        <ele>515.4</ele>
        <time>2020-03-07T15:42:24Z</time>
      </trkpt>
      <trkpt lat="46.88659" lon="5.79723">
        <ele>519.3</ele>
        <time>2020-03-07T15:43:26Z</time>
      </trkpt>
      <trkpt lat="46.88655" lon="5.79715">
        <ele>519.9</ele>
        <time>2020-03-07T15:44:19Z</time>
      </trkpt>
      <trkpt lat="46.88651" lon="5.79705">
        <ele>520.7</ele>
        <time>2020-03-07T15:44:57Z</time>
      </trkpt>
      <trkpt lat="46.88635" lon="5.79687">
        <ele>527.3</ele>
        <time>2020-03-07T15:46:10Z</time>
      </trkpt>
      <trkpt lat="46.88626" lon="5.7967">
        <ele>530.9</ele>
        <time>2020-03-07T15:46:27Z</time>
      </trkpt>
      <trkpt lat="46.88623" lon="5.79664">
        <ele>531.3</ele>
        <time>2020-03-07T15:46:32Z</time>
      </trkpt>
      <trkpt lat="46.88607" lon="5.79666">
        <ele>536.1</ele>
        <time>2020-03-07T15:47:43Z</time>
      </trkpt>
      <trkpt lat="46.88588" lon="5.79666">
        <ele>543.7</ele>
        <time>2020-03-07T15:49:34Z</time>
      </trkpt>
      <trkpt lat="46.88549" lon="5.79667">
        <ele>553.1</ele>
        <time>2020-03-07T15:50:49Z</time>
      </trkpt>
      <trkpt lat="46.88545" lon="5.79665">
        <ele>553.6</ele>
        <time>2020-03-07T15:50:51Z</time>
      </trkpt>
      <trkpt lat="46.8854" lon="5.79664">
        <ele>555.6</ele>
        <time>2020-03-07T15:51:00Z</time>
      </trkpt>
      <trkpt lat="46.88536" lon="5.79665">
        <ele>557.4</ele>
        <time>2020-03-07T15:51:10Z</time>
      </trkpt>
      <trkpt lat="46.88517" lon="5.7966">
        <ele>561.5</ele>
        <time>2020-03-07T15:51:41Z</time>
      </trkpt>
      <trkpt lat="46.88509" lon="5.79666">
        <ele>563.2</ele>
        <time>2020-03-07T15:52:09Z</time>
      </trkpt>
      <trkpt lat="46.88489" lon="5.79673">
        <ele>566.4</ele>
        <time>2020-03-07T15:53:31Z</time>
      </trkpt>
      <trkpt lat="46.88485" lon="5.79672">
        <ele>566.6</ele>
        <time>2020-03-07T15:53:41Z</time>
      </trkpt>
      <trkpt lat="46.8848" lon="5.79668">
        <ele>566.7</ele>
        <time>2020-03-07T15:53:47Z</time>
      </trkpt>
      <trkpt lat="46.88476" lon="5.79666">
        <ele>566.7</ele>
        <time>2020-03-07T15:53:52Z</time>
      </trkpt>
      <trkpt lat="46.88469" lon="5.79663">
        <ele>566.6</ele>
        <time>2020-03-07T15:53:56Z</time>
      </trkpt>
      <trkpt lat="46.88463" lon="5.79654">
        <ele>566.1</ele>
        <time>2020-03-07T15:54:14Z</time>
      </trkpt>
      <trkpt lat="46.88458" lon="5.7965">
        <ele>565.9</ele>
        <time>2020-03-07T15:54:18Z</time>
      </trkpt>
      <trkpt lat="46.88455" lon="5.79647">
        <ele>566</ele>
        <time>2020-03-07T15:54:22Z</time>
      </trkpt>
      <trkpt lat="46.8845" lon="5.79642">
        <ele>566.6</ele>
        <time>2020-03-07T15:54:26Z</time>
      </trkpt>
      <trkpt lat="46.88447" lon="5.79632">
        <ele>567</ele>
        <time>2020-03-07T15:54:28Z</time>
      </trkpt>
      <trkpt lat="46.88443" lon="5.79622">
        <ele>567.6</ele>
        <time>2020-03-07T15:54:30Z</time>
      </trkpt>
      <trkpt lat="46.88439" lon="5.79615">
        <ele>568.1</ele>
        <time>2020-03-07T15:54:32Z</time>
      </trkpt>
      <trkpt lat="46.88435" lon="5.79611">
        <ele>568.7</ele>
        <time>2020-03-07T15:54:34Z</time>
      </trkpt>
      <trkpt lat="46.8843" lon="5.79607">
        <ele>569.7</ele>
        <time>2020-03-07T15:54:39Z</time>
      </trkpt>
      <trkpt lat="46.88426" lon="5.79604">
        <ele>571.2</ele>
        <time>2020-03-07T15:54:50Z</time>
      </trkpt>
      <trkpt lat="46.88422" lon="5.79596">
        <ele>571.3</ele>
        <time>2020-03-07T15:55:07Z</time>
      </trkpt>
      <trkpt lat="46.88418" lon="5.79591">
        <ele>571.2</ele>
        <time>2020-03-07T15:55:09Z</time>
      </trkpt>
      <trkpt lat="46.88415" lon="5.79586">
        <ele>571.1</ele>
        <time>2020-03-07T15:55:13Z</time>
      </trkpt>
      <trkpt lat="46.88412" lon="5.79582">
        <ele>571</ele>
        <time>2020-03-07T15:55:18Z</time>
      </trkpt>
      <trkpt lat="46.88409" lon="5.79576">
        <ele>571.1</ele>
        <time>2020-03-07T15:55:21Z</time>
      </trkpt>
      <trkpt lat="46.88407" lon="5.7957">
        <ele>571.2</ele>
        <time>2020-03-07T15:55:26Z</time>
      </trkpt>
      <trkpt lat="46.88406" lon="5.79563">
        <ele>570.9</ele>
        <time>2020-03-07T15:55:34Z</time>
      </trkpt>
      <trkpt lat="46.88404" lon="5.79557">
        <ele>569.5</ele>
        <time>2020-03-07T15:55:42Z</time>
      </trkpt>
      <trkpt lat="46.88401" lon="5.7955">
        <ele>569</ele>
        <time>2020-03-07T15:55:46Z</time>
      </trkpt>
      <trkpt lat="46.88397" lon="5.79545">
        <ele>568.8</ele>
        <time>2020-03-07T15:55:53Z</time>
      </trkpt>
      <trkpt lat="46.88392" lon="5.79546">
        <ele>569.7</ele>
        <time>2020-03-07T15:56:14Z</time>
      </trkpt>
      <trkpt lat="46.88387" lon="5.79548">
        <ele>570.9</ele>
        <time>2020-03-07T15:56:22Z</time>
      </trkpt>
      <trkpt lat="46.88382" lon="5.7955">
        <ele>571.7</ele>
        <time>2020-03-07T15:56:27Z</time>
      </trkpt>
      <trkpt lat="46.88378" lon="5.79549">
        <ele>572.2</ele>
        <time>2020-03-07T15:56:45Z</time>
      </trkpt>
      <trkpt lat="46.88373" lon="5.79549">
        <ele>571.5</ele>
        <time>2020-03-07T15:56:55Z</time>
      </trkpt>
      <trkpt lat="46.88368" lon="5.79546">
        <ele>570.2</ele>
        <time>2020-03-07T15:57:04Z</time>
      </trkpt>
      <trkpt lat="46.88363" lon="5.79545">
        <ele>569.7</ele>
        <time>2020-03-07T15:57:07Z</time>
      </trkpt>
      <trkpt lat="46.88358" lon="5.79542">
        <ele>568.3</ele>
        <time>2020-03-07T15:57:14Z</time>
      </trkpt>
      <trkpt lat="46.88353" lon="5.79539">
        <ele>566.8</ele>
        <time>2020-03-07T15:57:21Z</time>
      </trkpt>
      <trkpt lat="46.88338" lon="5.79536">
        <ele>564</ele>
        <time>2020-03-07T15:57:35Z</time>
      </trkpt>
      <trkpt lat="46.88333" lon="5.79534">
        <ele>563.7</ele>
        <time>2020-03-07T15:57:39Z</time>
      </trkpt>
      <trkpt lat="46.88327" lon="5.79534">
        <ele>563.2</ele>
        <time>2020-03-07T15:57:43Z</time>
      </trkpt>
      <trkpt lat="46.88321" lon="5.79536">
        <ele>563</ele>
        <time>2020-03-07T15:57:46Z</time>
      </trkpt>
      <trkpt lat="46.88304" lon="5.79537">
        <ele>562.9</ele>
        <time>2020-03-07T15:58:10Z</time>
      </trkpt>
      <trkpt lat="46.88292" lon="5.79538">
        <ele>561.7</ele>
        <time>2020-03-07T15:58:28Z</time>
      </trkpt>
      <trkpt lat="46.88288" lon="5.79539">
        <ele>560.9</ele>
        <time>2020-03-07T15:58:34Z</time>
      </trkpt>
      <trkpt lat="46.88282" lon="5.7954">
        <ele>560.1</ele>
        <time>2020-03-07T15:58:38Z</time>
      </trkpt>
      <trkpt lat="46.88277" lon="5.7954">
        <ele>558.9</ele>
        <time>2020-03-07T15:58:43Z</time>
      </trkpt>
      <trkpt lat="46.88272" lon="5.7954">
        <ele>557.9</ele>
        <time>2020-03-07T15:58:47Z</time>
      </trkpt>
      <trkpt lat="46.88267" lon="5.79542">
        <ele>557.1</ele>
        <time>2020-03-07T15:58:52Z</time>
      </trkpt>
      <trkpt lat="46.88247" lon="5.79548">
        <ele>556.7</ele>
        <time>2020-03-07T15:59:13Z</time>
      </trkpt>
      <trkpt lat="46.88241" lon="5.79549">
        <ele>557</ele>
        <time>2020-03-07T15:59:16Z</time>
      </trkpt>
      <trkpt lat="46.88235" lon="5.79548">
        <ele>557.4</ele>
        <time>2020-03-07T15:59:19Z</time>
      </trkpt>
      <trkpt lat="46.8823" lon="5.79548">
        <ele>558</ele>
        <time>2020-03-07T15:59:23Z</time>
      </trkpt>
      <trkpt lat="46.88225" lon="5.79551">
        <ele>558.1</ele>
        <time>2020-03-07T15:59:25Z</time>
      </trkpt>
      <trkpt lat="46.88218" lon="5.79555">
        <ele>558.3</ele>
        <time>2020-03-07T15:59:27Z</time>
      </trkpt>
      <trkpt lat="46.88213" lon="5.79556">
        <ele>558.4</ele>
        <time>2020-03-07T15:59:29Z</time>
      </trkpt>
      <trkpt lat="46.88208" lon="5.79558">
        <ele>558.2</ele>
        <time>2020-03-07T15:59:34Z</time>
      </trkpt>
      <trkpt lat="46.88194" lon="5.79562">
        <ele>558.3</ele>
        <time>2020-03-07T15:59:55Z</time>
      </trkpt>
      <trkpt lat="46.88164" lon="5.79558">
        <ele>562.3</ele>
        <time>2020-03-07T16:00:21Z</time>
      </trkpt>
      <trkpt lat="46.88155" lon="5.7957">
        <ele>562.2</ele>
        <time>2020-03-07T16:00:43Z</time>
      </trkpt>
      <trkpt lat="46.88145" lon="5.79591">
        <ele>561.5</ele>
        <time>2020-03-07T16:01:02Z</time>
      </trkpt>
      <trkpt lat="46.88123" lon="5.79604">
        <ele>562.8</ele>
        <time>2020-03-07T16:01:19Z</time>
      </trkpt>
      <trkpt lat="46.88111" lon="5.79606">
        <ele>562.1</ele>
        <time>2020-03-07T16:01:28Z</time>
      </trkpt>
      <trkpt lat="46.88106" lon="5.79606">
        <ele>561.7</ele>
        <time>2020-03-07T16:01:32Z</time>
      </trkpt>
      <trkpt lat="46.88101" lon="5.79606">
        <ele>560.9</ele>
        <time>2020-03-07T16:01:37Z</time>
      </trkpt>
      <trkpt lat="46.88095" lon="5.79609">
        <ele>559.9</ele>
        <time>2020-03-07T16:01:43Z</time>
      </trkpt>
      <trkpt lat="46.8809" lon="5.79609">
        <ele>559.3</ele>
        <time>2020-03-07T16:01:47Z</time>
      </trkpt>
      <trkpt lat="46.88085" lon="5.79607">
        <ele>558.2</ele>
        <time>2020-03-07T16:01:55Z</time>
      </trkpt>
      <trkpt lat="46.8808" lon="5.79605">
        <ele>557.8</ele>
        <time>2020-03-07T16:01:58Z</time>
      </trkpt>
      <trkpt lat="46.88075" lon="5.79605">
        <ele>557.6</ele>
        <time>2020-03-07T16:02:01Z</time>
      </trkpt>
      <trkpt lat="46.88069" lon="5.79604">
        <ele>557.5</ele>
        <time>2020-03-07T16:02:03Z</time>
      </trkpt>
      <trkpt lat="46.88062" lon="5.79602">
        <ele>557.4</ele>
        <time>2020-03-07T16:02:05Z</time>
      </trkpt>
      <trkpt lat="46.88057" lon="5.79601">
        <ele>557.1</ele>
        <time>2020-03-07T16:02:09Z</time>
      </trkpt>
      <trkpt lat="46.88051" lon="5.796">
        <ele>556.9</ele>
        <time>2020-03-07T16:02:17Z</time>
      </trkpt>
      <trkpt lat="46.88046" lon="5.79598">
        <ele>557</ele>
        <time>2020-03-07T16:02:21Z</time>
      </trkpt>
      <trkpt lat="46.88041" lon="5.79597">
        <ele>557.3</ele>
        <time>2020-03-07T16:02:25Z</time>
      </trkpt>
      <trkpt lat="46.88036" lon="5.79597">
        <ele>557.4</ele>
        <time>2020-03-07T16:02:27Z</time>
      </trkpt>
      <trkpt lat="46.88031" lon="5.79597">
        <ele>557.6</ele>
        <time>2020-03-07T16:02:32Z</time>
      </trkpt>
      <trkpt lat="46.88026" lon="5.79598">
        <ele>558.4</ele>
        <time>2020-03-07T16:02:47Z</time>
      </trkpt>
      <trkpt lat="46.88022" lon="5.796">
        <ele>558.9</ele>
        <time>2020-03-07T16:02:51Z</time>
      </trkpt>
      <trkpt lat="46.88012" lon="5.79601">
        <ele>560.2</ele>
        <time>2020-03-07T16:03:01Z</time>
      </trkpt>
      <trkpt lat="46.88" lon="5.79598">
        <ele>560.5</ele>
        <time>2020-03-07T16:03:20Z</time>
      </trkpt>
      <trkpt lat="46.87995" lon="5.796">
        <ele>560.5</ele>
        <time>2020-03-07T16:03:27Z</time>
      </trkpt>
      <trkpt lat="46.87988" lon="5.796">
        <ele>560.3</ele>
        <time>2020-03-07T16:03:30Z</time>
      </trkpt>
      <trkpt lat="46.87983" lon="5.79601">
        <ele>560.1</ele>
        <time>2020-03-07T16:03:33Z</time>
      </trkpt>
      <trkpt lat="46.87977" lon="5.79601">
        <ele>559.8</ele>
        <time>2020-03-07T16:03:36Z</time>
      </trkpt>
      <trkpt lat="46.87955" lon="5.79608">
        <ele>561.5</ele>
        <time>2020-03-07T16:03:59Z</time>
      </trkpt>
      <trkpt lat="46.87948" lon="5.79609">
        <ele>562.4</ele>
        <time>2020-03-07T16:04:05Z</time>
      </trkpt>
      <trkpt lat="46.87943" lon="5.79612">
        <ele>563.3</ele>
        <time>2020-03-07T16:04:10Z</time>
      </trkpt>
      <trkpt lat="46.87938" lon="5.79611">
        <ele>563.7</ele>
        <time>2020-03-07T16:04:13Z</time>
      </trkpt>
      <trkpt lat="46.87933" lon="5.7961">
        <ele>563.8</ele>
        <time>2020-03-07T16:04:16Z</time>
      </trkpt>
      <trkpt lat="46.87928" lon="5.79609">
        <ele>564</ele>
        <time>2020-03-07T16:04:22Z</time>
      </trkpt>
      <trkpt lat="46.8792" lon="5.79614">
        <ele>563.4</ele>
        <time>2020-03-07T16:04:40Z</time>
      </trkpt>
      <trkpt lat="46.87901" lon="5.79634">
        <ele>564.6</ele>
        <time>2020-03-07T16:05:36Z</time>
      </trkpt>
      <trkpt lat="46.879" lon="5.79641">
        <ele>565.4</ele>
        <time>2020-03-07T16:05:40Z</time>
      </trkpt>
      <trkpt lat="46.87899" lon="5.79647">
        <ele>566.2</ele>
        <time>2020-03-07T16:05:44Z</time>
      </trkpt>
      <trkpt lat="46.87893" lon="5.79659">
        <ele>567.5</ele>
        <time>2020-03-07T16:06:03Z</time>
      </trkpt>
      <trkpt lat="46.87894" lon="5.79666">
        <ele>567.7</ele>
        <time>2020-03-07T16:06:13Z</time>
      </trkpt>
      <trkpt lat="46.8789" lon="5.79684">
        <ele>564.9</ele>
        <time>2020-03-07T16:06:36Z</time>
      </trkpt>
      <trkpt lat="46.8789" lon="5.79692">
        <ele>563.9</ele>
        <time>2020-03-07T16:06:45Z</time>
      </trkpt>
      <trkpt lat="46.87889" lon="5.79701">
        <ele>563.6</ele>
        <time>2020-03-07T16:06:48Z</time>
      </trkpt>
      <trkpt lat="46.87888" lon="5.79707">
        <ele>563.5</ele>
        <time>2020-03-07T16:06:51Z</time>
      </trkpt>
      <trkpt lat="46.87883" lon="5.79713">
        <ele>563.4</ele>
        <time>2020-03-07T16:06:56Z</time>
      </trkpt>
      <trkpt lat="46.87879" lon="5.79719">
        <ele>563.4</ele>
        <time>2020-03-07T16:06:59Z</time>
      </trkpt>
      <trkpt lat="46.87875" lon="5.7973">
        <ele>564.3</ele>
        <time>2020-03-07T16:07:08Z</time>
      </trkpt>
      <trkpt lat="46.87867" lon="5.79742">
        <ele>566.2</ele>
        <time>2020-03-07T16:07:31Z</time>
      </trkpt>
      <trkpt lat="46.87863" lon="5.79749">
        <ele>567.3</ele>
        <time>2020-03-07T16:07:46Z</time>
      </trkpt>
      <trkpt lat="46.87859" lon="5.79753">
        <ele>567.6</ele>
        <time>2020-03-07T16:07:51Z</time>
      </trkpt>
      <trkpt lat="46.87855" lon="5.79757">
        <ele>567.8</ele>
        <time>2020-03-07T16:07:54Z</time>
      </trkpt>
      <trkpt lat="46.8785" lon="5.7976">
        <ele>568</ele>
        <time>2020-03-07T16:07:58Z</time>
      </trkpt>
      <trkpt lat="46.87845" lon="5.79757">
        <ele>567.7</ele>
        <time>2020-03-07T16:08:14Z</time>
      </trkpt>
      <trkpt lat="46.87841" lon="5.79753">
        <ele>566.7</ele>
        <time>2020-03-07T16:08:20Z</time>
      </trkpt>
      <trkpt lat="46.87836" lon="5.7975">
        <ele>565.9</ele>
        <time>2020-03-07T16:08:37Z</time>
      </trkpt>
      <trkpt lat="46.87832" lon="5.79746">
        <ele>565.9</ele>
        <time>2020-03-07T16:08:40Z</time>
      </trkpt>
      <trkpt lat="46.87828" lon="5.7974">
        <ele>565.6</ele>
        <time>2020-03-07T16:08:45Z</time>
      </trkpt>
      <trkpt lat="46.87816" lon="5.79723">
        <ele>565.2</ele>
        <time>2020-03-07T16:09:01Z</time>
      </trkpt>
      <trkpt lat="46.87808" lon="5.79704">
        <ele>565.8</ele>
        <time>2020-03-07T16:09:22Z</time>
      </trkpt>
      <trkpt lat="46.87802" lon="5.79699">
        <ele>565.9</ele>
        <time>2020-03-07T16:09:27Z</time>
      </trkpt>
      <trkpt lat="46.87798" lon="5.79694">
        <ele>566.1</ele>
        <time>2020-03-07T16:09:29Z</time>
      </trkpt>
      <trkpt lat="46.87787" lon="5.79687">
        <ele>568</ele>
        <time>2020-03-07T16:09:45Z</time>
      </trkpt>
      <trkpt lat="46.87783" lon="5.79686">
        <ele>568.3</ele>
        <time>2020-03-07T16:09:51Z</time>
      </trkpt>
      <trkpt lat="46.87779" lon="5.79682">
        <ele>568.3</ele>
        <time>2020-03-07T16:09:57Z</time>
      </trkpt>
      <trkpt lat="46.87774" lon="5.79679">
        <ele>567.9</ele>
        <time>2020-03-07T16:10:02Z</time>
      </trkpt>
      <trkpt lat="46.87758" lon="5.7967">
        <ele>564.9</ele>
        <time>2020-03-07T16:10:15Z</time>
      </trkpt>
      <trkpt lat="46.87736" lon="5.79685">
        <ele>563.8</ele>
        <time>2020-03-07T16:10:38Z</time>
      </trkpt>
      <trkpt lat="46.87732" lon="5.79688">
        <ele>563.7</ele>
        <time>2020-03-07T16:10:45Z</time>
      </trkpt>
      <trkpt lat="46.8773" lon="5.79694">
        <ele>563.5</ele>
        <time>2020-03-07T16:10:50Z</time>
      </trkpt>
      <trkpt lat="46.87725" lon="5.79697">
        <ele>562.2</ele>
        <time>2020-03-07T16:11:01Z</time>
      </trkpt>
      <trkpt lat="46.877" lon="5.79693">
        <ele>560.7</ele>
        <time>2020-03-07T16:11:24Z</time>
      </trkpt>
      <trkpt lat="46.87695" lon="5.79693">
        <ele>560.8</ele>
        <time>2020-03-07T16:11:26Z</time>
      </trkpt>
      <trkpt lat="46.8769" lon="5.79693">
        <ele>560.9</ele>
        <time>2020-03-07T16:11:28Z</time>
      </trkpt>
      <trkpt lat="46.87685" lon="5.79694">
        <ele>561.2</ele>
        <time>2020-03-07T16:11:34Z</time>
      </trkpt>
      <trkpt lat="46.87681" lon="5.79698">
        <ele>561.3</ele>
        <time>2020-03-07T16:11:37Z</time>
      </trkpt>
      <trkpt lat="46.87671" lon="5.79701">
        <ele>560.8</ele>
        <time>2020-03-07T16:11:46Z</time>
      </trkpt>
      <trkpt lat="46.87664" lon="5.79703">
        <ele>560.8</ele>
        <time>2020-03-07T16:11:48Z</time>
      </trkpt>
      <trkpt lat="46.87659" lon="5.79705">
        <ele>560.9</ele>
        <time>2020-03-07T16:11:51Z</time>
      </trkpt>
      <trkpt lat="46.87654" lon="5.79707">
        <ele>561.1</ele>
        <time>2020-03-07T16:11:55Z</time>
      </trkpt>
      <trkpt lat="46.87619" lon="5.79724">
        <ele>569</ele>
        <time>2020-03-07T16:12:21Z</time>
      </trkpt>
      <trkpt lat="46.87613" lon="5.79725">
        <ele>569.6</ele>
        <time>2020-03-07T16:12:24Z</time>
      </trkpt>
      <trkpt lat="46.87601" lon="5.79732">
        <ele>571.6</ele>
        <time>2020-03-07T16:12:35Z</time>
      </trkpt>
      <trkpt lat="46.87584" lon="5.7973">
        <ele>571.3</ele>
        <time>2020-03-07T16:12:50Z</time>
      </trkpt>
      <trkpt lat="46.87579" lon="5.79729">
        <ele>570.8</ele>
        <time>2020-03-07T16:12:58Z</time>
      </trkpt>
      <trkpt lat="46.87575" lon="5.79728">
        <ele>569.6</ele>
        <time>2020-03-07T16:13:04Z</time>
      </trkpt>
      <trkpt lat="46.8757" lon="5.79729">
        <ele>568</ele>
        <time>2020-03-07T16:13:11Z</time>
      </trkpt>
      <trkpt lat="46.87561" lon="5.79732">
        <ele>563.9</ele>
        <time>2020-03-07T16:13:24Z</time>
      </trkpt>
      <trkpt lat="46.87556" lon="5.79733">
        <ele>562.6</ele>
        <time>2020-03-07T16:13:32Z</time>
      </trkpt>
      <trkpt lat="46.87551" lon="5.79735">
        <ele>561.7</ele>
        <time>2020-03-07T16:13:37Z</time>
      </trkpt>
      <trkpt lat="46.87537" lon="5.79732">
        <ele>560.6</ele>
        <time>2020-03-07T16:14:03Z</time>
      </trkpt>
      <trkpt lat="46.87516" lon="5.79727">
        <ele>566</ele>
        <time>2020-03-07T16:15:30Z</time>
      </trkpt>
      <trkpt lat="46.87508" lon="5.79719">
        <ele>569.1</ele>
        <time>2020-03-07T16:15:41Z</time>
      </trkpt>
      <trkpt lat="46.87503" lon="5.79716">
        <ele>570.2</ele>
        <time>2020-03-07T16:15:47Z</time>
      </trkpt>
      <trkpt lat="46.87498" lon="5.79714">
        <ele>571.1</ele>
        <time>2020-03-07T16:15:53Z</time>
      </trkpt>
      <trkpt lat="46.87494" lon="5.79711">
        <ele>571.7</ele>
        <time>2020-03-07T16:15:58Z</time>
      </trkpt>
      <trkpt lat="46.87489" lon="5.79708">
        <ele>572.1</ele>
        <time>2020-03-07T16:16:04Z</time>
      </trkpt>
      <trkpt lat="46.87486" lon="5.79703">
        <ele>572.1</ele>
        <time>2020-03-07T16:16:09Z</time>
      </trkpt>
      <trkpt lat="46.87482" lon="5.79699">
        <ele>571.7</ele>
        <time>2020-03-07T16:16:14Z</time>
      </trkpt>
      <trkpt lat="46.87478" lon="5.79694">
        <ele>571.5</ele>
        <time>2020-03-07T16:16:20Z</time>
      </trkpt>
      <trkpt lat="46.87475" lon="5.79689">
        <ele>571.2</ele>
        <time>2020-03-07T16:16:27Z</time>
      </trkpt>
      <trkpt lat="46.87471" lon="5.79681">
        <ele>570.8</ele>
        <time>2020-03-07T16:16:32Z</time>
      </trkpt>
      <trkpt lat="46.87469" lon="5.79676">
        <ele>570.1</ele>
        <time>2020-03-07T16:16:36Z</time>
      </trkpt>
      <trkpt lat="46.87464" lon="5.79671">
        <ele>569.4</ele>
        <time>2020-03-07T16:16:40Z</time>
      </trkpt>
      <trkpt lat="46.87461" lon="5.79666">
        <ele>568.5</ele>
        <time>2020-03-07T16:16:44Z</time>
      </trkpt>
      <trkpt lat="46.87458" lon="5.79658">
        <ele>567.4</ele>
        <time>2020-03-07T16:16:50Z</time>
      </trkpt>
      <trkpt lat="46.87454" lon="5.79654">
        <ele>567.1</ele>
        <time>2020-03-07T16:16:52Z</time>
      </trkpt>
      <trkpt lat="46.87449" lon="5.7965">
        <ele>566.7</ele>
        <time>2020-03-07T16:16:56Z</time>
      </trkpt>
      <trkpt lat="46.87446" lon="5.79645">
        <ele>566.4</ele>
        <time>2020-03-07T16:17:01Z</time>
      </trkpt>
      <trkpt lat="46.87442" lon="5.7964">
        <ele>566.2</ele>
        <time>2020-03-07T16:17:05Z</time>
      </trkpt>
      <trkpt lat="46.87439" lon="5.79635">
        <ele>565.9</ele>
        <time>2020-03-07T16:17:10Z</time>
      </trkpt>
      <trkpt lat="46.87435" lon="5.79631">
        <ele>565.3</ele>
        <time>2020-03-07T16:17:16Z</time>
      </trkpt>
      <trkpt lat="46.87431" lon="5.79627">
        <ele>564.8</ele>
        <time>2020-03-07T16:17:20Z</time>
      </trkpt>
      <trkpt lat="46.87428" lon="5.79621">
        <ele>564.4</ele>
        <time>2020-03-07T16:17:23Z</time>
      </trkpt>
      <trkpt lat="46.87425" lon="5.79614">
        <ele>563.8</ele>
        <time>2020-03-07T16:17:27Z</time>
      </trkpt>
      <trkpt lat="46.87413" lon="5.79604">
        <ele>560.5</ele>
        <time>2020-03-07T16:17:45Z</time>
      </trkpt>
      <trkpt lat="46.87408" lon="5.79605">
        <ele>560.5</ele>
        <time>2020-03-07T16:17:47Z</time>
      </trkpt>
      <trkpt lat="46.87403" lon="5.79604">
        <ele>560.5</ele>
        <time>2020-03-07T16:17:50Z</time>
      </trkpt>
      <trkpt lat="46.87398" lon="5.79603">
        <ele>560.8</ele>
        <time>2020-03-07T16:17:53Z</time>
      </trkpt>
      <trkpt lat="46.87394" lon="5.79602">
        <ele>561.1</ele>
        <time>2020-03-07T16:17:56Z</time>
      </trkpt>
      <trkpt lat="46.87389" lon="5.79599">
        <ele>561.6</ele>
        <time>2020-03-07T16:18:01Z</time>
      </trkpt>
      <trkpt lat="46.87384" lon="5.79596">
        <ele>562.1</ele>
        <time>2020-03-07T16:18:05Z</time>
      </trkpt>
      <trkpt lat="46.8738" lon="5.79593">
        <ele>562.6</ele>
        <time>2020-03-07T16:18:08Z</time>
      </trkpt>
      <trkpt lat="46.87375" lon="5.79589">
        <ele>563.3</ele>
        <time>2020-03-07T16:18:12Z</time>
      </trkpt>
      <trkpt lat="46.8737" lon="5.79587">
        <ele>563.9</ele>
        <time>2020-03-07T16:18:18Z</time>
      </trkpt>
      <trkpt lat="46.87356" lon="5.7959">
        <ele>564.5</ele>
        <time>2020-03-07T16:18:28Z</time>
      </trkpt>
      <trkpt lat="46.87351" lon="5.7959">
        <ele>564.5</ele>
        <time>2020-03-07T16:18:31Z</time>
      </trkpt>
      <trkpt lat="46.87337" lon="5.79591">
        <ele>566</ele>
        <time>2020-03-07T16:18:44Z</time>
      </trkpt>
      <trkpt lat="46.87333" lon="5.79589">
        <ele>566.7</ele>
        <time>2020-03-07T16:18:49Z</time>
      </trkpt>
      <trkpt lat="46.87328" lon="5.79585">
        <ele>567.4</ele>
        <time>2020-03-07T16:18:55Z</time>
      </trkpt>
      <trkpt lat="46.87325" lon="5.79579">
        <ele>567.7</ele>
        <time>2020-03-07T16:19:01Z</time>
      </trkpt>
      <trkpt lat="46.87321" lon="5.79575">
        <ele>567.6</ele>
        <time>2020-03-07T16:19:07Z</time>
      </trkpt>
      <trkpt lat="46.87317" lon="5.7957">
        <ele>567.4</ele>
        <time>2020-03-07T16:19:11Z</time>
      </trkpt>
      <trkpt lat="46.87314" lon="5.79565">
        <ele>567.2</ele>
        <time>2020-03-07T16:19:15Z</time>
      </trkpt>
      <trkpt lat="46.8731" lon="5.7956">
        <ele>566.9</ele>
        <time>2020-03-07T16:19:19Z</time>
      </trkpt>
      <trkpt lat="46.87307" lon="5.79554">
        <ele>566.7</ele>
        <time>2020-03-07T16:19:24Z</time>
      </trkpt>
      <trkpt lat="46.87303" lon="5.79549">
        <ele>566</ele>
        <time>2020-03-07T16:19:30Z</time>
      </trkpt>
      <trkpt lat="46.87301" lon="5.79542">
        <ele>565.5</ele>
        <time>2020-03-07T16:19:33Z</time>
      </trkpt>
      <trkpt lat="46.87299" lon="5.79536">
        <ele>565</ele>
        <time>2020-03-07T16:19:36Z</time>
      </trkpt>
      <trkpt lat="46.87291" lon="5.79524">
        <ele>563.9</ele>
        <time>2020-03-07T16:19:44Z</time>
      </trkpt>
      <trkpt lat="46.87286" lon="5.7952">
        <ele>563.7</ele>
        <time>2020-03-07T16:19:50Z</time>
      </trkpt>
      <trkpt lat="46.87282" lon="5.79516">
        <ele>563.3</ele>
        <time>2020-03-07T16:19:57Z</time>
      </trkpt>
      <trkpt lat="46.87273" lon="5.79503">
        <ele>562.5</ele>
        <time>2020-03-07T16:20:09Z</time>
      </trkpt>
      <trkpt lat="46.87268" lon="5.79498">
        <ele>562.5</ele>
        <time>2020-03-07T16:20:12Z</time>
      </trkpt>
      <trkpt lat="46.87264" lon="5.79493">
        <ele>562.6</ele>
        <time>2020-03-07T16:20:18Z</time>
      </trkpt>
      <trkpt lat="46.8726" lon="5.7949">
        <ele>562.4</ele>
        <time>2020-03-07T16:20:25Z</time>
      </trkpt>
      <trkpt lat="46.87254" lon="5.79485">
        <ele>562.3</ele>
        <time>2020-03-07T16:20:29Z</time>
      </trkpt>
      <trkpt lat="46.8725" lon="5.79481">
        <ele>562.3</ele>
        <time>2020-03-07T16:20:33Z</time>
      </trkpt>
      <trkpt lat="46.87233" lon="5.79456">
        <ele>563.9</ele>
        <time>2020-03-07T16:20:49Z</time>
      </trkpt>
      <trkpt lat="46.87229" lon="5.79453">
        <ele>564</ele>
        <time>2020-03-07T16:20:53Z</time>
      </trkpt>
      <trkpt lat="46.87225" lon="5.79449">
        <ele>563.9</ele>
        <time>2020-03-07T16:20:58Z</time>
      </trkpt>
      <trkpt lat="46.8722" lon="5.79446">
        <ele>563.7</ele>
        <time>2020-03-07T16:21:05Z</time>
      </trkpt>
      <trkpt lat="46.8721" lon="5.79432">
        <ele>563.7</ele>
        <time>2020-03-07T16:21:20Z</time>
      </trkpt>
      <trkpt lat="46.87207" lon="5.79427">
        <ele>563.7</ele>
        <time>2020-03-07T16:21:23Z</time>
      </trkpt>
      <trkpt lat="46.87204" lon="5.79422">
        <ele>563.4</ele>
        <time>2020-03-07T16:21:27Z</time>
      </trkpt>
      <trkpt lat="46.87201" lon="5.79418">
        <ele>562.5</ele>
        <time>2020-03-07T16:21:33Z</time>
      </trkpt>
      <trkpt lat="46.87196" lon="5.79412">
        <ele>561.8</ele>
        <time>2020-03-07T16:21:37Z</time>
      </trkpt>
      <trkpt lat="46.87187" lon="5.79397">
        <ele>559.8</ele>
        <time>2020-03-07T16:21:50Z</time>
      </trkpt>
      <trkpt lat="46.87184" lon="5.79392">
        <ele>559.4</ele>
        <time>2020-03-07T16:21:54Z</time>
      </trkpt>
      <trkpt lat="46.8718" lon="5.79387">
        <ele>558.8</ele>
        <time>2020-03-07T16:21:59Z</time>
      </trkpt>
      <trkpt lat="46.87178" lon="5.79382">
        <ele>558.3</ele>
        <time>2020-03-07T16:22:04Z</time>
      </trkpt>
      <trkpt lat="46.87174" lon="5.79378">
        <ele>558.1</ele>
        <time>2020-03-07T16:22:08Z</time>
      </trkpt>
      <trkpt lat="46.87164" lon="5.79367">
        <ele>558.3</ele>
        <time>2020-03-07T16:22:17Z</time>
      </trkpt>
      <trkpt lat="46.8716" lon="5.79364">
        <ele>558.6</ele>
        <time>2020-03-07T16:22:20Z</time>
      </trkpt>
      <trkpt lat="46.87155" lon="5.79359">
        <ele>559</ele>
        <time>2020-03-07T16:22:24Z</time>
      </trkpt>
      <trkpt lat="46.87143" lon="5.79359">
        <ele>558.5</ele>
        <time>2020-03-07T16:22:38Z</time>
      </trkpt>
      <trkpt lat="46.87139" lon="5.79363">
        <ele>557.7</ele>
        <time>2020-03-07T16:22:42Z</time>
      </trkpt>
      <trkpt lat="46.87135" lon="5.79368">
        <ele>557</ele>
        <time>2020-03-07T16:22:45Z</time>
      </trkpt>
      <trkpt lat="46.87129" lon="5.79382">
        <ele>554.1</ele>
        <time>2020-03-07T16:22:56Z</time>
      </trkpt>
      <trkpt lat="46.87127" lon="5.79388">
        <ele>553.9</ele>
        <time>2020-03-07T16:22:59Z</time>
      </trkpt>
      <trkpt lat="46.8713" lon="5.79391">
        <ele>554.5</ele>
        <time>2020-03-07T16:23:35Z</time>
      </trkpt>
      <trkpt lat="46.87125" lon="5.79396">
        <ele>554.5</ele>
        <time>2020-03-07T16:23:39Z</time>
      </trkpt>
      <trkpt lat="46.87121" lon="5.794">
        <ele>554.6</ele>
        <time>2020-03-07T16:23:42Z</time>
      </trkpt>
      <trkpt lat="46.87118" lon="5.79404">
        <ele>554.7</ele>
        <time>2020-03-07T16:23:47Z</time>
      </trkpt>
    </trkseg>
  </trk>
</gpx>